PWSweather.com
Personal Weather Stations
Station Observations
KUTEAGLE26
Meadow Ranch, Eagle Mountain, UT 84005

Meadow RanchEagle Mountain, UT 84005

Lat: 40.39, Lon: -111.985

Elevation: 5140

Station Type: Davis Vantage Pro 2

Latest ConditionsUpdated 10:27:00 PM MST Friday, Jan 17, 2020
Currently Today's Max Today's Min Today's Average
Temperature 25.7°F-3.5°C 47.0°F8.3°C 25.7°F-3.5°C 33.8°F1.0°C
Dew Point 15.6°F-9.1°C 30.5°F-0.8°C 13.2°F-10.4°C 20.2°F-6.6°C
Winds 2.0 mph NNW3.2 kmh NNW 29.0 mph -46.7 kmh - - 9.8 mph 15.8 kmh
Wind Gusts 3.0 mph4.8 kmh 44.0 mph70.8 kmh - -
Humidity 65% 91% 33% 59%
Pressure 30.42 in1030.1 mb 30.43 in1030.5 mb 29.75 in1007.5 mb -
Hour Temp Dew Point Humidity Winds Wind Gusts Pressure Precip Precip Rate Daily Precip Total
10:27 PM 25.7°F-3.5°C 15.6°F-9.1°C 65% 2.0 mph NNW3.2 kmh NNW 3.0 mph4.8 kmh 30.42 in1030.1 mb 0.00 in0.0 mm 0.00 in0.0 mm 0.00 in0.0 mm
10:26 PM 25.7°F-3.5°C 15.6°F-9.1°C 65% 4.0 mph 6.4 kmh 5.0 mph8.0 kmh 30.42 in1030.1 mb 0.00 in0.0 mm 0.00 in0.0 mm 0.00 in0.0 mm
10:25 PM 25.7°F-3.5°C 15.6°F-9.1°C 65% 4.0 mph 6.4 kmh 4.0 mph6.4 kmh 30.42 in1030.1 mb 0.00 in0.0 mm 0.00 in0.0 mm 0.00 in0.0 mm
10:24 PM 25.8°F-3.4°C 15.7°F-9.1°C 65% 4.0 mph NNW6.4 kmh NNW 4.0 mph6.4 kmh 30.43 in1030.5 mb 0.00 in0.0 mm 0.00 in0.0 mm 0.00 in0.0 mm
10:23 PM 25.9°F-3.4°C 15.8°F-9.0°C 65% 4.0 mph 6.4 kmh 4.0 mph6.4 kmh 30.42 in1030.1 mb 0.00 in0.0 mm 0.00 in0.0 mm 0.00 in0.0 mm
10:22 PM 26.0°F-3.3°C 15.9°F-8.9°C 65% 4.0 mph 6.4 kmh 5.0 mph8.0 kmh 30.42 in1030.1 mb 0.00 in0.0 mm 0.00 in0.0 mm 0.00 in0.0 mm
10:21 PM 26.2°F-3.2°C 16.1°F-8.8°C 65% 5.0 mph 8.0 kmh 6.0 mph9.7 kmh 30.42 in1030.1 mb 0.00 in0.0 mm 0.00 in0.0 mm 0.00 in0.0 mm
10:20 PM 26.4°F-3.1°C 16.3°F-8.7°C 65% 4.0 mph 6.4 kmh 5.0 mph8.0 kmh 30.42 in1030.1 mb 0.00 in0.0 mm 0.00 in0.0 mm 0.00 in0.0 mm
10:19 PM 26.6°F-3.0°C 16.4°F-8.7°C 65% 3.0 mph NW4.8 kmh NW 3.0 mph4.8 kmh 30.42 in1030.1 mb 0.00 in0.0 mm 0.00 in0.0 mm 0.00 in0.0 mm
10:18 PM 26.6°F-3.0°C 16.8°F-8.4°C 66% 2.0 mph WSW3.2 kmh WSW 3.0 mph4.8 kmh 30.42 in1030.1 mb 0.00 in0.0 mm 0.00 in0.0 mm 0.00 in0.0 mm
10:17 PM 26.7°F-2.9°C 16.9°F-8.4°C 66% 2.0 mph WSW3.2 kmh WSW 3.0 mph4.8 kmh 30.41 in1029.8 mb 0.00 in0.0 mm 0.00 in0.0 mm 0.00 in0.0 mm
10:16 PM 26.7°F-2.9°C 16.9°F-8.4°C 66% 2.0 mph W3.2 kmh W 4.0 mph6.4 kmh 30.41 in1029.8 mb 0.00 in0.0 mm 0.00 in0.0 mm 0.00 in0.0 mm
10:15 PM 26.6°F-3.0°C 16.8°F-8.4°C 66% 1.0 mph 1.6 kmh 3.0 mph4.8 kmh 30.41 in1029.8 mb 0.00 in0.0 mm 0.00 in0.0 mm 0.00 in0.0 mm
10:14 PM 26.6°F-3.0°C 16.4°F-8.7°C 65% 2.0 mph NNE3.2 kmh NNE 3.0 mph4.8 kmh 30.41 in1029.8 mb 0.00 in0.0 mm 0.00 in0.0 mm 0.00 in0.0 mm
10:13 PM 26.7°F-2.9°C 16.5°F-8.6°C 65% 3.0 mph 4.8 kmh 4.0 mph6.4 kmh 30.41 in1029.8 mb 0.00 in0.0 mm 0.00 in0.0 mm 0.00 in0.0 mm
10:12 PM 26.9°F-2.8°C 16.4°F-8.7°C 64% 3.0 mph NNE4.8 kmh NNE 5.0 mph8.0 kmh 30.41 in1029.8 mb 0.00 in0.0 mm 0.00 in0.0 mm 0.00 in0.0 mm
10:11 PM 27.1°F-2.7°C 16.6°F-8.6°C 64% 4.0 mph 6.4 kmh 5.0 mph8.0 kmh 30.41 in1029.8 mb 0.00 in0.0 mm 0.00 in0.0 mm 0.00 in0.0 mm
10:10 PM 27.4°F-2.6°C 16.8°F-8.4°C 64% 3.0 mph NNW4.8 kmh NNW 5.0 mph8.0 kmh 30.42 in1030.1 mb 0.00 in0.0 mm 0.00 in0.0 mm 0.00 in0.0 mm
10:09 PM 27.6°F-2.4°C 17.0°F-8.3°C 64% 2.0 mph W3.2 kmh W 2.0 mph3.2 kmh 30.42 in1030.1 mb 0.00 in0.0 mm 0.00 in0.0 mm 0.00 in0.0 mm
10:08 PM 27.8°F-2.3°C 16.9°F-8.4°C 63% 2.0 mph SW3.2 kmh SW 3.0 mph4.8 kmh 30.42 in1030.1 mb 0.00 in0.0 mm 0.00 in0.0 mm 0.00 in0.0 mm
10:07 PM 28.1°F-2.2°C 17.2°F-8.2°C 63% 3.0 mph SW4.8 kmh SW 4.0 mph6.4 kmh 30.42 in1030.1 mb 0.00 in0.0 mm 0.00 in0.0 mm 0.00 in0.0 mm
10:06 PM 28.2°F-2.1°C 16.9°F-8.4°C 62% 4.0 mph SW6.4 kmh SW 5.0 mph8.0 kmh 30.42 in1030.1 mb 0.00 in0.0 mm 0.00 in0.0 mm 0.00 in0.0 mm
10:05 PM 28.5°F-1.9°C 17.2°F-8.2°C 62% 4.0 mph SSW6.4 kmh SSW 6.0 mph9.7 kmh 30.42 in1030.1 mb 0.00 in0.0 mm 0.00 in0.0 mm 0.00 in0.0 mm
10:04 PM 28.6°F-1.9°C 16.9°F-8.4°C 61% 3.0 mph S4.8 kmh S 3.0 mph4.8 kmh 30.42 in1030.1 mb 0.00 in0.0 mm 0.00 in0.0 mm 0.00 in0.0 mm
10:03 PM 28.6°F-1.9°C 16.5°F-8.6°C 60% 2.0 mph ESE3.2 kmh ESE 7.0 mph11.3 kmh 30.42 in1030.1 mb 0.00 in0.0 mm 0.00 in0.0 mm 0.00 in0.0 mm
10:02 PM 28.5°F-1.9°C 16.8°F-8.4°C 61% 2.0 mph E3.2 kmh E 6.0 mph9.7 kmh 30.42 in1030.1 mb 0.00 in0.0 mm 0.00 in0.0 mm 0.00 in0.0 mm
10:01 PM 28.3°F-2.1°C 16.6°F-8.6°C 61% 3.0 mph ESE4.8 kmh ESE 7.0 mph11.3 kmh 30.42 in1030.1 mb 0.00 in0.0 mm 0.00 in0.0 mm 0.00 in0.0 mm
10:00 PM 28.1°F-2.2°C 16.8°F-8.4°C 62% 5.0 mph ESE8.0 kmh ESE 7.0 mph11.3 kmh 30.41 in1029.8 mb 0.00 in0.0 mm 0.00 in0.0 mm 0.00 in0.0 mm
09:59 PM 27.8°F-2.3°C 16.5°F-8.6°C 62% 5.0 mph ESE8.0 kmh ESE 7.0 mph11.3 kmh 30.41 in1029.8 mb 0.00 in0.0 mm 0.00 in0.0 mm 0.00 in0.0 mm
09:58 PM 27.6°F-2.4°C 17.0°F-8.3°C 64% 4.0 mph ENE6.4 kmh ENE 5.0 mph8.0 kmh 30.41 in1029.8 mb 0.00 in0.0 mm 0.00 in0.0 mm 0.00 in0.0 mm
09:57 PM 27.5°F-2.5°C 16.9°F-8.4°C 64% 3.0 mph NNE4.8 kmh NNE 5.0 mph8.0 kmh 30.41 in1029.8 mb 0.00 in0.0 mm 0.00 in0.0 mm 0.00 in0.0 mm
09:56 PM 27.2°F-2.7°C 17.0°F-8.3°C 65% 3.0 mph ENE4.8 kmh ENE 6.0 mph9.7 kmh 30.41 in1029.8 mb 0.00 in0.0 mm 0.00 in0.0 mm 0.00 in0.0 mm
09:55 PM 27.2°F-2.7°C 17.0°F-8.3°C 65% 2.0 mph 3.2 kmh 3.0 mph4.8 kmh 30.41 in1029.8 mb 0.00 in0.0 mm 0.00 in0.0 mm 0.00 in0.0 mm
09:54 PM 27.1°F-2.7°C 17.3°F-8.2°C 66% 2.0 mph 3.2 kmh 3.0 mph4.8 kmh 30.41 in1029.8 mb 0.00 in0.0 mm 0.00 in0.0 mm 0.00 in0.0 mm
09:53 PM 27.0°F-2.8°C 17.2°F-8.2°C 66% 3.0 mph 4.8 kmh 4.0 mph6.4 kmh 30.41 in1029.8 mb 0.00 in0.0 mm 0.00 in0.0 mm 0.00 in0.0 mm
09:52 PM 27.0°F-2.8°C 17.2°F-8.2°C 66% 3.0 mph NNW4.8 kmh NNW 4.0 mph6.4 kmh 30.41 in1029.8 mb 0.00 in0.0 mm 0.00 in0.0 mm 0.00 in0.0 mm
09:51 PM 27.0°F-2.8°C 17.2°F-8.2°C 66% 4.0 mph 6.4 kmh 6.0 mph9.7 kmh 30.41 in1029.8 mb 0.00 in0.0 mm 0.00 in0.0 mm 0.00 in0.0 mm
09:50 PM 27.1°F-2.7°C 17.3°F-8.2°C 66% 4.0 mph 6.4 kmh 5.0 mph8.0 kmh 30.42 in1030.1 mb 0.00 in0.0 mm 0.00 in0.0 mm 0.00 in0.0 mm
09:49 PM 27.2°F-2.7°C 17.4°F-8.1°C 66% 1.0 mph WSW1.6 kmh WSW 3.0 mph4.8 kmh 30.42 in1030.1 mb 0.00 in0.0 mm 0.00 in0.0 mm 0.00 in0.0 mm
09:48 PM 27.2°F-2.7°C 17.4°F-8.1°C 66% 1.0 mph WSW1.6 kmh WSW 2.0 mph3.2 kmh 30.42 in1030.1 mb 0.00 in0.0 mm 0.00 in0.0 mm 0.00 in0.0 mm
09:47 PM 27.2°F-2.7°C 17.4°F-8.1°C 66% 2.0 mph WSW3.2 kmh WSW 3.0 mph4.8 kmh 30.42 in1030.1 mb 0.00 in0.0 mm 0.00 in0.0 mm 0.00 in0.0 mm
09:46 PM 27.2°F-2.7°C 17.4°F-8.1°C 66% 3.0 mph WSW4.8 kmh WSW 5.0 mph8.0 kmh 30.42 in1030.1 mb 0.00 in0.0 mm 0.00 in0.0 mm 0.00 in0.0 mm
09:45 PM 27.3°F-2.6°C 17.5°F-8.1°C 66% 3.0 mph WSW4.8 kmh WSW 4.0 mph6.4 kmh 30.42 in1030.1 mb 0.00 in0.0 mm 0.00 in0.0 mm 0.00 in0.0 mm
09:44 PM 27.3°F-2.6°C 17.5°F-8.1°C 66% 1.0 mph SSW1.6 kmh SSW 2.0 mph3.2 kmh 30.42 in1030.1 mb 0.00 in0.0 mm 0.00 in0.0 mm 0.00 in0.0 mm
09:43 PM 27.4°F-2.6°C 17.6°F-8.0°C 66% 2.0 mph SSW3.2 kmh SSW 3.0 mph4.8 kmh 30.42 in1030.1 mb 0.00 in0.0 mm 0.00 in0.0 mm 0.00 in0.0 mm
09:42 PM 27.3°F-2.6°C 17.5°F-8.1°C 66% 3.0 mph SSW4.8 kmh SSW 4.0 mph6.4 kmh 30.42 in1030.1 mb 0.00 in0.0 mm 0.00 in0.0 mm 0.00 in0.0 mm
09:41 PM 27.3°F-2.6°C 17.5°F-8.1°C 66% 2.0 mph SSW3.2 kmh SSW 5.0 mph8.0 kmh 30.42 in1030.1 mb 0.00 in0.0 mm 0.00 in0.0 mm 0.00 in0.0 mm
09:40 PM 27.3°F-2.6°C 17.5°F-8.1°C 66% 3.0 mph SW4.8 kmh SW 4.0 mph6.4 kmh 30.42 in1030.1 mb 0.00 in0.0 mm 0.00 in0.0 mm 0.00 in0.0 mm
09:39 PM 27.3°F-2.6°C 17.5°F-8.1°C 66% 3.0 mph WSW4.8 kmh WSW 4.0 mph6.4 kmh 30.42 in1030.1 mb 0.00 in0.0 mm 0.00 in0.0 mm 0.00 in0.0 mm
09:38 PM 27.3°F-2.6°C 17.5°F-8.1°C 66% 3.0 mph WSW4.8 kmh WSW 4.0 mph6.4 kmh 30.41 in1029.8 mb 0.00 in0.0 mm 0.00 in0.0 mm 0.00 in0.0 mm
09:37 PM 27.2°F-2.7°C 17.4°F-8.1°C 66% 4.0 mph SW6.4 kmh SW 5.0 mph8.0 kmh 30.41 in1029.8 mb 0.00 in0.0 mm 0.00 in0.0 mm 0.00 in0.0 mm
09:36 PM 27.0°F-2.8°C 17.5°F-8.1°C 67% 5.0 mph SW8.0 kmh SW 6.0 mph9.7 kmh 30.41 in1029.8 mb 0.00 in0.0 mm 0.00 in0.0 mm 0.00 in0.0 mm
09:35 PM 26.7°F-2.9°C 17.2°F-8.2°C 67% 5.0 mph W8.0 kmh W 8.0 mph12.9 kmh 30.41 in1029.8 mb 0.00 in0.0 mm 0.00 in0.0 mm 0.00 in0.0 mm
09:34 PM 26.5°F-3.1°C 17.0°F-8.3°C 67% 8.0 mph W12.9 kmh W 10.0 mph16.1 kmh 30.41 in1029.8 mb 0.00 in0.0 mm 0.00 in0.0 mm 0.00 in0.0 mm
09:33 PM 26.4°F-3.1°C 17.3°F-8.2°C 68% 7.0 mph W11.3 kmh W 9.0 mph14.5 kmh 30.41 in1029.8 mb 0.00 in0.0 mm 0.00 in0.0 mm 0.00 in0.0 mm
09:32 PM 26.3°F-3.2°C 17.2°F-8.2°C 68% 8.0 mph W12.9 kmh W 10.0 mph16.1 kmh 30.41 in1029.8 mb 0.00 in0.0 mm 0.00 in0.0 mm 0.00 in0.0 mm
09:31 PM 26.4°F-3.1°C 17.0°F-8.3°C 67% 6.0 mph W9.7 kmh W 7.0 mph11.3 kmh 30.41 in1029.8 mb 0.00 in0.0 mm 0.00 in0.0 mm 0.00 in0.0 mm
09:30 PM 26.3°F-3.2°C 16.9°F-8.4°C 67% 8.0 mph WSW12.9 kmh WSW 10.0 mph16.1 kmh 30.41 in1029.8 mb 0.00 in0.0 mm 0.00 in0.0 mm 0.00 in0.0 mm
09:29 PM 26.3°F-3.2°C 16.9°F-8.4°C 67% 8.0 mph W12.9 kmh W 11.0 mph17.7 kmh 30.41 in1029.8 mb 0.00 in0.0 mm 0.00 in0.0 mm 0.00 in0.0 mm
09:28 PM 26.4°F-3.1°C 16.6°F-8.6°C 66% 9.0 mph W14.5 kmh W 11.0 mph17.7 kmh 30.41 in1029.8 mb 0.00 in0.0 mm 0.00 in0.0 mm 0.00 in0.0 mm
09:27 PM 26.6°F-3.0°C 16.8°F-8.4°C 66% 9.0 mph WSW14.5 kmh WSW 11.0 mph17.7 kmh 30.41 in1029.8 mb 0.00 in0.0 mm 0.00 in0.0 mm 0.00 in0.0 mm
09:26 PM 26.9°F-2.8°C 17.1°F-8.3°C 66% 7.0 mph W11.3 kmh W 9.0 mph14.5 kmh 30.41 in1029.8 mb 0.00 in0.0 mm 0.00 in0.0 mm 0.00 in0.0 mm
09:25 PM 27.2°F-2.7°C 17.0°F-8.3°C 65% 3.0 mph S4.8 kmh S 11.0 mph17.7 kmh 30.41 in1029.8 mb 0.00 in0.0 mm 0.00 in0.0 mm 0.00 in0.0 mm
09:24 PM 27.4°F-2.6°C 17.2°F-8.2°C 65% 1.0 mph S1.6 kmh S 2.0 mph3.2 kmh 30.41 in1029.8 mb 0.00 in0.0 mm 0.00 in0.0 mm 0.00 in0.0 mm
09:23 PM 27.6°F-2.4°C 17.0°F-8.3°C 64% 2.0 mph S3.2 kmh S 3.0 mph4.8 kmh 30.41 in1029.8 mb 0.00 in0.0 mm 0.00 in0.0 mm 0.00 in0.0 mm
09:22 PM 27.9°F-2.3°C 17.3°F-8.2°C 64% 3.0 mph S4.8 kmh S 5.0 mph8.0 kmh 30.41 in1029.8 mb 0.00 in0.0 mm 0.00 in0.0 mm 0.00 in0.0 mm
09:21 PM 28.1°F-2.2°C 17.5°F-8.1°C 64% 3.0 mph S4.8 kmh S 4.0 mph6.4 kmh 30.41 in1029.8 mb 0.00 in0.0 mm 0.00 in0.0 mm 0.00 in0.0 mm
09:20 PM 28.3°F-2.1°C 17.7°F-7.9°C 64% 3.0 mph S4.8 kmh S 4.0 mph6.4 kmh 30.41 in1029.8 mb 0.00 in0.0 mm 0.00 in0.0 mm 0.00 in0.0 mm
09:19 PM 28.3°F-2.1°C 17.7°F-7.9°C 64% 3.0 mph SSE4.8 kmh SSE 5.0 mph8.0 kmh 30.41 in1029.8 mb 0.00 in0.0 mm 0.00 in0.0 mm 0.00 in0.0 mm
09:18 PM 28.3°F-2.1°C 17.7°F-7.9°C 64% 1.0 mph ENE1.6 kmh ENE 3.0 mph4.8 kmh 30.40 in1029.5 mb 0.00 in0.0 mm 0.00 in0.0 mm 0.00 in0.0 mm
09:17 PM 28.3°F-2.1°C 17.7°F-7.9°C 64% Calm Calm 1.0 mph1.6 kmh 30.41 in1029.8 mb 0.00 in0.0 mm 0.00 in0.0 mm 0.00 in0.0 mm
09:16 PM 28.4°F-2.0°C 17.8°F-7.9°C 64% 1.0 mph ENE1.6 kmh ENE 2.0 mph3.2 kmh 30.40 in1029.5 mb 0.00 in0.0 mm 0.00 in0.0 mm 0.00 in0.0 mm
09:15 PM 28.3°F-2.1°C 17.7°F-7.9°C 64% 1.0 mph ENE1.6 kmh ENE 2.0 mph3.2 kmh 30.41 in1029.8 mb 0.00 in0.0 mm 0.00 in0.0 mm 0.00 in0.0 mm
09:14 PM 28.3°F-2.1°C 17.7°F-7.9°C 64% 2.0 mph ENE3.2 kmh ENE 4.0 mph6.4 kmh 30.41 in1029.8 mb 0.00 in0.0 mm 0.00 in0.0 mm 0.00 in0.0 mm
09:13 PM 28.3°F-2.1°C 17.7°F-7.9°C 64% 1.0 mph SW1.6 kmh SW 3.0 mph4.8 kmh 30.41 in1029.8 mb 0.00 in0.0 mm 0.00 in0.0 mm 0.00 in0.0 mm
09:12 PM 28.2°F-2.1°C 18.0°F-7.8°C 65% 3.0 mph SW4.8 kmh SW 5.0 mph8.0 kmh 30.40 in1029.5 mb 0.00 in0.0 mm 0.00 in0.0 mm 0.00 in0.0 mm
09:11 PM 28.1°F-2.2°C 17.9°F-7.8°C 65% 4.0 mph S6.4 kmh S 5.0 mph8.0 kmh 30.40 in1029.5 mb 0.00 in0.0 mm 0.00 in0.0 mm 0.00 in0.0 mm
09:10 PM 28.1°F-2.2°C 17.9°F-7.8°C 65% 4.0 mph S6.4 kmh S 5.0 mph8.0 kmh 30.40 in1029.5 mb 0.00 in0.0 mm 0.00 in0.0 mm 0.00 in0.0 mm
09:09 PM 28.0°F-2.2°C 17.8°F-7.9°C 65% 3.0 mph S4.8 kmh S 6.0 mph9.7 kmh 30.40 in1029.5 mb 0.00 in0.0 mm 0.00 in0.0 mm 0.00 in0.0 mm
09:08 PM 27.9°F-2.3°C 17.7°F-7.9°C 65% 5.0 mph S8.0 kmh S 9.0 mph14.5 kmh 30.40 in1029.5 mb 0.00 in0.0 mm 0.00 in0.0 mm 0.00 in0.0 mm
09:07 PM 28.0°F-2.2°C 17.8°F-7.9°C 65% 5.0 mph SSW8.0 kmh SSW 7.0 mph11.3 kmh 30.40 in1029.5 mb 0.00 in0.0 mm 0.00 in0.0 mm 0.00 in0.0 mm
09:06 PM 28.0°F-2.2°C 17.4°F-8.1°C 64% 3.0 mph SSW4.8 kmh SSW 5.0 mph8.0 kmh 30.39 in1029.1 mb 0.00 in0.0 mm 0.00 in0.0 mm 0.00 in0.0 mm
09:05 PM 28.1°F-2.2°C 17.5°F-8.1°C 64% 2.0 mph SSW3.2 kmh SSW 3.0 mph4.8 kmh 30.40 in1029.5 mb 0.00 in0.0 mm 0.00 in0.0 mm 0.00 in0.0 mm
09:04 PM 28.0°F-2.2°C 17.8°F-7.9°C 65% Calm Calm 1.0 mph1.6 kmh 30.40 in1029.5 mb 0.00 in0.0 mm 0.00 in0.0 mm 0.00 in0.0 mm
09:03 PM 28.0°F-2.2°C 17.8°F-7.9°C 65% 1.0 mph SSW1.6 kmh SSW 2.0 mph3.2 kmh 30.39 in1029.1 mb 0.00 in0.0 mm 0.00 in0.0 mm 0.00 in0.0 mm
09:02 PM 28.0°F-2.2°C 17.4°F-8.1°C 64% 3.0 mph SSW4.8 kmh SSW 4.0 mph6.4 kmh 30.40 in1029.5 mb 0.00 in0.0 mm 0.00 in0.0 mm 0.00 in0.0 mm
09:01 PM 27.9°F-2.3°C 17.3°F-8.2°C 64% 3.0 mph SSW4.8 kmh SSW 4.0 mph6.4 kmh 30.40 in1029.5 mb 0.00 in0.0 mm 0.00 in0.0 mm 0.00 in0.0 mm
09:00 PM 27.9°F-2.3°C 17.7°F-7.9°C 65% 2.0 mph SSW3.2 kmh SSW 4.0 mph6.4 kmh 30.40 in1029.5 mb 0.00 in0.0 mm 0.00 in0.0 mm 0.00 in0.0 mm
08:59 PM 27.9°F-2.3°C 17.3°F-8.2°C 64% 2.0 mph SSW3.2 kmh SSW 4.0 mph6.4 kmh 30.40 in1029.5 mb 0.00 in0.0 mm 0.00 in0.0 mm 0.00 in0.0 mm
08:58 PM 27.9°F-2.3°C 17.0°F-8.3°C 63% 4.0 mph SSW6.4 kmh SSW 6.0 mph9.7 kmh 30.40 in1029.5 mb 0.00 in0.0 mm 0.00 in0.0 mm 0.00 in0.0 mm
08:57 PM 28.1°F-2.2°C 16.8°F-8.4°C 62% 4.0 mph SSW6.4 kmh SSW 5.0 mph8.0 kmh 30.40 in1029.5 mb 0.00 in0.0 mm 0.00 in0.0 mm 0.00 in0.0 mm
08:56 PM 28.2°F-2.1°C 16.9°F-8.4°C 62% 3.0 mph S4.8 kmh S 4.0 mph6.4 kmh 30.40 in1029.5 mb 0.00 in0.0 mm 0.00 in0.0 mm 0.00 in0.0 mm
08:55 PM 28.5°F-1.9°C 17.2°F-8.2°C 62% 4.0 mph SSE6.4 kmh SSE 5.0 mph8.0 kmh 30.40 in1029.5 mb 0.00 in0.0 mm 0.00 in0.0 mm 0.00 in0.0 mm
08:54 PM 28.8°F-1.8°C 17.4°F-8.1°C 62% 4.0 mph S6.4 kmh S 6.0 mph9.7 kmh 30.40 in1029.5 mb 0.00 in0.0 mm 0.00 in0.0 mm 0.00 in0.0 mm
08:53 PM 29.1°F-1.6°C 18.1°F-7.7°C 63% 4.0 mph S6.4 kmh S 5.0 mph8.0 kmh 30.40 in1029.5 mb 0.00 in0.0 mm 0.00 in0.0 mm 0.00 in0.0 mm
08:52 PM 29.3°F-1.5°C 18.7°F-7.4°C 64% 4.0 mph SSE6.4 kmh SSE 5.0 mph8.0 kmh 30.40 in1029.5 mb 0.00 in0.0 mm 0.00 in0.0 mm 0.00 in0.0 mm
08:51 PM 29.4°F-1.4°C 19.1°F-7.2°C 65% 3.0 mph ESE4.8 kmh ESE 5.0 mph8.0 kmh 30.40 in1029.5 mb 0.00 in0.0 mm 0.00 in0.0 mm 0.00 in0.0 mm
08:50 PM 29.3°F-1.5°C 19.0°F-7.2°C 65% 3.0 mph SE4.8 kmh SE 5.0 mph8.0 kmh 30.40 in1029.5 mb 0.00 in0.0 mm 0.00 in0.0 mm 0.00 in0.0 mm
08:49 PM 29.3°F-1.5°C 19.0°F-7.2°C 65% 1.0 mph ESE1.6 kmh ESE 4.0 mph6.4 kmh 30.40 in1029.5 mb 0.00 in0.0 mm 0.00 in0.0 mm 0.00 in0.0 mm
08:48 PM 29.3°F-1.5°C 19.0°F-7.2°C 65% 4.0 mph NE6.4 kmh NE 6.0 mph9.7 kmh 30.40 in1029.5 mb 0.00 in0.0 mm 0.00 in0.0 mm 0.00 in0.0 mm
08:47 PM 29.2°F-1.6°C 18.9°F-7.3°C 65% 2.0 mph E3.2 kmh E 4.0 mph6.4 kmh 30.40 in1029.5 mb 0.00 in0.0 mm 0.00 in0.0 mm 0.00 in0.0 mm
08:46 PM 29.2°F-1.6°C 18.6°F-7.4°C 64% 3.0 mph E4.8 kmh E 5.0 mph8.0 kmh 30.40 in1029.5 mb 0.00 in0.0 mm 0.00 in0.0 mm 0.00 in0.0 mm
08:45 PM 29.3°F-1.5°C 18.7°F-7.4°C 64% 1.0 mph WNW1.6 kmh WNW 2.0 mph3.2 kmh 30.40 in1029.5 mb 0.00 in0.0 mm 0.00 in0.0 mm 0.00 in0.0 mm
08:44 PM 29.3°F-1.5°C 18.7°F-7.4°C 64% 1.0 mph NE1.6 kmh NE 2.0 mph3.2 kmh 30.40 in1029.5 mb 0.00 in0.0 mm 0.00 in0.0 mm 0.00 in0.0 mm
08:43 PM 29.3°F-1.5°C 18.7°F-7.4°C 64% 1.0 mph 1.6 kmh 2.0 mph3.2 kmh 30.40 in1029.5 mb 0.00 in0.0 mm 0.00 in0.0 mm 0.00 in0.0 mm
08:42 PM 29.3°F-1.5°C 18.7°F-7.4°C 64% 1.0 mph 1.6 kmh 2.0 mph3.2 kmh 30.40 in1029.5 mb 0.00 in0.0 mm 0.00 in0.0 mm 0.00 in0.0 mm
08:41 PM 29.3°F-1.5°C 18.7°F-7.4°C 64% 1.0 mph 1.6 kmh 2.0 mph3.2 kmh 30.40 in1029.5 mb 0.00 in0.0 mm 0.00 in0.0 mm 0.00 in0.0 mm
08:40 PM 29.3°F-1.5°C 18.7°F-7.4°C 64% 1.0 mph 1.6 kmh 2.0 mph3.2 kmh 30.40 in1029.5 mb 0.00 in0.0 mm 0.00 in0.0 mm 0.00 in0.0 mm
08:39 PM 29.3°F-1.5°C 18.7°F-7.4°C 64% 2.0 mph NNW3.2 kmh NNW 3.0 mph4.8 kmh 30.40 in1029.5 mb 0.00 in0.0 mm 0.00 in0.0 mm 0.00 in0.0 mm
08:38 PM 29.3°F-1.5°C 18.7°F-7.4°C 64% 3.0 mph NNW4.8 kmh NNW 4.0 mph6.4 kmh 30.40 in1029.5 mb 0.00 in0.0 mm 0.00 in0.0 mm 0.00 in0.0 mm
08:37 PM 29.2°F-1.6°C 18.6°F-7.4°C 64% 3.0 mph NNW4.8 kmh NNW 7.0 mph11.3 kmh 30.40 in1029.5 mb 0.00 in0.0 mm 0.00 in0.0 mm 0.00 in0.0 mm
08:36 PM 29.2°F-1.6°C 18.6°F-7.4°C 64% 6.0 mph W9.7 kmh W 9.0 mph14.5 kmh 30.40 in1029.5 mb 0.00 in0.0 mm 0.00 in0.0 mm 0.00 in0.0 mm
08:35 PM 29.1°F-1.6°C 18.5°F-7.5°C 64% 4.0 mph NW6.4 kmh NW 6.0 mph9.7 kmh 30.40 in1029.5 mb 0.00 in0.0 mm 0.00 in0.0 mm 0.00 in0.0 mm
08:34 PM 29.0°F-1.7°C 18.4°F-7.6°C 64% 3.0 mph NW4.8 kmh NW 4.0 mph6.4 kmh 30.40 in1029.5 mb 0.00 in0.0 mm 0.00 in0.0 mm 0.00 in0.0 mm
08:33 PM 29.2°F-1.6°C 18.6°F-7.4°C 64% 2.0 mph NNW3.2 kmh NNW 4.0 mph6.4 kmh 30.40 in1029.5 mb 0.00 in0.0 mm 0.00 in0.0 mm 0.00 in0.0 mm
08:32 PM 29.2°F-1.6°C 18.2°F-7.7°C 63% 2.0 mph 3.2 kmh 4.0 mph6.4 kmh 30.40 in1029.5 mb 0.00 in0.0 mm 0.00 in0.0 mm 0.00 in0.0 mm
08:31 PM 29.2°F-1.6°C 18.2°F-7.7°C 63% 3.0 mph 4.8 kmh 3.0 mph4.8 kmh 30.40 in1029.5 mb 0.00 in0.0 mm 0.00 in0.0 mm 0.00 in0.0 mm
08:30 PM 29.3°F-1.5°C 18.3°F-7.6°C 63% 3.0 mph NW4.8 kmh NW 4.0 mph6.4 kmh 30.40 in1029.5 mb 0.00 in0.0 mm 0.00 in0.0 mm 0.00 in0.0 mm
08:29 PM 29.4°F-1.4°C 18.4°F-7.6°C 63% 2.0 mph NW3.2 kmh NW 4.0 mph6.4 kmh 30.40 in1029.5 mb 0.00 in0.0 mm 0.00 in0.0 mm 0.00 in0.0 mm
08:28 PM 29.4°F-1.4°C 18.4°F-7.6°C 63% 2.0 mph WNW3.2 kmh WNW 4.0 mph6.4 kmh 30.40 in1029.5 mb 0.00 in0.0 mm 0.00 in0.0 mm 0.00 in0.0 mm
08:27 PM 29.4°F-1.4°C 18.4°F-7.6°C 63% 3.0 mph NNW4.8 kmh NNW 5.0 mph8.0 kmh 30.40 in1029.5 mb 0.00 in0.0 mm 0.00 in0.0 mm 0.00 in0.0 mm
08:26 PM 29.3°F-1.5°C 18.3°F-7.6°C 63% 3.0 mph WNW4.8 kmh WNW 4.0 mph6.4 kmh 30.40 in1029.5 mb 0.00 in0.0 mm 0.00 in0.0 mm 0.00 in0.0 mm
08:25 PM 29.3°F-1.5°C 18.3°F-7.6°C 63% 4.0 mph WNW6.4 kmh WNW 6.0 mph9.7 kmh 30.40 in1029.5 mb 0.00 in0.0 mm 0.00 in0.0 mm 0.00 in0.0 mm
08:24 PM 29.2°F-1.6°C 18.2°F-7.7°C 63% 3.0 mph WNW4.8 kmh WNW 7.0 mph11.3 kmh 30.40 in1029.5 mb 0.00 in0.0 mm 0.00 in0.0 mm 0.00 in0.0 mm
08:23 PM 29.2°F-1.6°C 18.2°F-7.7°C 63% 4.0 mph NE6.4 kmh NE 6.0 mph9.7 kmh 30.40 in1029.5 mb 0.00 in0.0 mm 0.00 in0.0 mm 0.00 in0.0 mm
08:22 PM 29.2°F-1.6°C 18.2°F-7.7°C 63% 4.0 mph NW6.4 kmh NW 8.0 mph12.9 kmh 30.40 in1029.5 mb 0.00 in0.0 mm 0.00 in0.0 mm 0.00 in0.0 mm
08:21 PM 29.2°F-1.6°C 18.2°F-7.7°C 63% 2.0 mph NNW3.2 kmh NNW 4.0 mph6.4 kmh 30.40 in1029.5 mb 0.00 in0.0 mm 0.00 in0.0 mm 0.00 in0.0 mm
08:20 PM 29.2°F-1.6°C 18.2°F-7.7°C 63% 3.0 mph NNW4.8 kmh NNW 4.0 mph6.4 kmh 30.40 in1029.5 mb 0.00 in0.0 mm 0.00 in0.0 mm 0.00 in0.0 mm
08:19 PM 29.2°F-1.6°C 18.2°F-7.7°C 63% 4.0 mph NNW6.4 kmh NNW 5.0 mph8.0 kmh 30.40 in1029.5 mb 0.00 in0.0 mm 0.00 in0.0 mm 0.00 in0.0 mm
08:18 PM 29.3°F-1.5°C 17.9°F-7.8°C 62% 4.0 mph NNW6.4 kmh NNW 5.0 mph8.0 kmh 30.40 in1029.5 mb 0.00 in0.0 mm 0.00 in0.0 mm 0.00 in0.0 mm
08:17 PM 29.4°F-1.4°C 18.0°F-7.8°C 62% 2.0 mph NNE3.2 kmh NNE 4.0 mph6.4 kmh 30.39 in1029.1 mb 0.00 in0.0 mm 0.00 in0.0 mm 0.00 in0.0 mm
08:16 PM 29.4°F-1.4°C 18.0°F-7.8°C 62% 3.0 mph NNW4.8 kmh NNW 5.0 mph8.0 kmh 30.39 in1029.1 mb 0.00 in0.0 mm 0.00 in0.0 mm 0.00 in0.0 mm
08:15 PM 29.5°F-1.4°C 18.1°F-7.7°C 62% 3.0 mph WNW4.8 kmh WNW 5.0 mph8.0 kmh 30.39 in1029.1 mb 0.00 in0.0 mm 0.00 in0.0 mm 0.00 in0.0 mm
08:14 PM 29.5°F-1.4°C 18.1°F-7.7°C 62% 3.0 mph WNW4.8 kmh WNW 8.0 mph12.9 kmh 30.39 in1029.1 mb 0.00 in0.0 mm 0.00 in0.0 mm 0.00 in0.0 mm
08:13 PM 29.5°F-1.4°C 18.1°F-7.7°C 62% 3.0 mph E4.8 kmh E 4.0 mph6.4 kmh 30.39 in1029.1 mb 0.00 in0.0 mm 0.00 in0.0 mm 0.00 in0.0 mm
08:12 PM 29.5°F-1.4°C 18.1°F-7.7°C 62% 3.0 mph NNE4.8 kmh NNE 7.0 mph11.3 kmh 30.39 in1029.1 mb 0.00 in0.0 mm 0.00 in0.0 mm 0.00 in0.0 mm
08:11 PM 29.5°F-1.4°C 17.7°F-7.9°C 61% 3.0 mph WNW4.8 kmh WNW 6.0 mph9.7 kmh 30.39 in1029.1 mb 0.00 in0.0 mm 0.00 in0.0 mm 0.00 in0.0 mm
08:10 PM 29.5°F-1.4°C 17.7°F-7.9°C 61% 2.0 mph WNW3.2 kmh WNW 3.0 mph4.8 kmh 30.39 in1029.1 mb 0.00 in0.0 mm 0.00 in0.0 mm 0.00 in0.0 mm
08:09 PM 29.5°F-1.4°C 18.1°F-7.7°C 62% 3.0 mph NW4.8 kmh NW 5.0 mph8.0 kmh 30.39 in1029.1 mb 0.00 in0.0 mm 0.00 in0.0 mm 0.00 in0.0 mm
08:08 PM 29.5°F-1.4°C 17.7°F-7.9°C 61% 6.0 mph WNW9.7 kmh WNW 9.0 mph14.5 kmh 30.39 in1029.1 mb 0.00 in0.0 mm 0.00 in0.0 mm 0.00 in0.0 mm
08:07 PM 29.5°F-1.4°C 17.3°F-8.2°C 60% 4.0 mph WNW6.4 kmh WNW 8.0 mph12.9 kmh 30.38 in1028.8 mb 0.00 in0.0 mm 0.00 in0.0 mm 0.00 in0.0 mm
08:06 PM 29.5°F-1.4°C 17.7°F-7.9°C 61% 3.0 mph 4.8 kmh 6.0 mph9.7 kmh 30.38 in1028.8 mb 0.00 in0.0 mm 0.00 in0.0 mm 0.00 in0.0 mm
08:05 PM 29.6°F-1.3°C 17.8°F-7.9°C 61% 4.0 mph NW6.4 kmh NW 8.0 mph12.9 kmh 30.38 in1028.8 mb 0.00 in0.0 mm 0.00 in0.0 mm 0.00 in0.0 mm
08:04 PM 29.7°F-1.3°C 17.5°F-8.1°C 60% 4.0 mph WSW6.4 kmh WSW 7.0 mph11.3 kmh 30.38 in1028.8 mb 0.00 in0.0 mm 0.00 in0.0 mm 0.00 in0.0 mm
08:03 PM 29.7°F-1.3°C 17.5°F-8.1°C 60% 3.0 mph WSW4.8 kmh WSW 4.0 mph6.4 kmh 30.38 in1028.8 mb 0.00 in0.0 mm 0.00 in0.0 mm 0.00 in0.0 mm
08:02 PM 29.8°F-1.2°C 17.6°F-8.0°C 60% 3.0 mph SW4.8 kmh SW 5.0 mph8.0 kmh 30.38 in1028.8 mb 0.00 in0.0 mm 0.00 in0.0 mm 0.00 in0.0 mm
08:01 PM 29.8°F-1.2°C 17.6°F-8.0°C 60% 1.0 mph NNW1.6 kmh NNW 2.0 mph3.2 kmh 30.38 in1028.8 mb 0.00 in0.0 mm 0.00 in0.0 mm 0.00 in0.0 mm
08:00 PM 29.9°F-1.2°C 17.7°F-7.9°C 60% 2.0 mph NNW3.2 kmh NNW 4.0 mph6.4 kmh 30.39 in1029.1 mb 0.00 in0.0 mm 0.00 in0.0 mm 0.00 in0.0 mm
07:59 PM 29.9°F-1.2°C 17.7°F-7.9°C 60% 2.0 mph NNW3.2 kmh NNW 3.0 mph4.8 kmh 30.39 in1029.1 mb 0.00 in0.0 mm 0.00 in0.0 mm 0.00 in0.0 mm
07:58 PM 30.0°F-1.1°C 17.4°F-8.1°C 59% 4.0 mph SSW6.4 kmh SSW 6.0 mph9.7 kmh 30.38 in1028.8 mb 0.00 in0.0 mm 0.00 in0.0 mm 0.00 in0.0 mm
07:57 PM 30.0°F-1.1°C 17.8°F-7.9°C 60% 4.0 mph WSW6.4 kmh WSW 6.0 mph9.7 kmh 30.39 in1029.1 mb 0.00 in0.0 mm 0.00 in0.0 mm 0.00 in0.0 mm
07:56 PM 30.0°F-1.1°C 17.8°F-7.9°C 60% 6.0 mph W9.7 kmh W 8.0 mph12.9 kmh 30.39 in1029.1 mb 0.00 in0.0 mm 0.00 in0.0 mm 0.00 in0.0 mm
07:55 PM 29.9°F-1.2°C 17.7°F-7.9°C 60% 2.0 mph WSW3.2 kmh WSW 3.0 mph4.8 kmh 30.39 in1029.1 mb 0.00 in0.0 mm 0.00 in0.0 mm 0.00 in0.0 mm
07:54 PM 30.0°F-1.1°C 17.8°F-7.9°C 60% 3.0 mph S4.8 kmh S 6.0 mph9.7 kmh 30.39 in1029.1 mb 0.00 in0.0 mm 0.00 in0.0 mm 0.00 in0.0 mm
07:53 PM 29.9°F-1.2°C 17.7°F-7.9°C 60% 5.0 mph SW8.0 kmh SW 7.0 mph11.3 kmh 30.38 in1028.8 mb 0.00 in0.0 mm 0.00 in0.0 mm 0.00 in0.0 mm
07:52 PM 29.8°F-1.2°C 17.6°F-8.0°C 60% 4.0 mph WSW6.4 kmh WSW 5.0 mph8.0 kmh 30.38 in1028.8 mb 0.00 in0.0 mm 0.00 in0.0 mm 0.00 in0.0 mm
07:51 PM 29.7°F-1.3°C 17.9°F-7.8°C 61% 4.0 mph S6.4 kmh S 8.0 mph12.9 kmh 30.38 in1028.8 mb 0.00 in0.0 mm 0.00 in0.0 mm 0.00 in0.0 mm
07:50 PM 29.6°F-1.3°C 17.8°F-7.9°C 61% 4.0 mph SW6.4 kmh SW 7.0 mph11.3 kmh 30.38 in1028.8 mb 0.00 in0.0 mm 0.00 in0.0 mm 0.00 in0.0 mm
07:49 PM 29.6°F-1.3°C 17.8°F-7.9°C 61% 4.0 mph WSW6.4 kmh WSW 9.0 mph14.5 kmh 30.38 in1028.8 mb 0.00 in0.0 mm 0.00 in0.0 mm 0.00 in0.0 mm
07:48 PM 29.6°F-1.3°C 17.8°F-7.9°C 61% 2.0 mph SSW3.2 kmh SSW 4.0 mph6.4 kmh 30.38 in1028.8 mb 0.00 in0.0 mm 0.00 in0.0 mm 0.00 in0.0 mm
07:47 PM 29.6°F-1.3°C 17.8°F-7.9°C 61% 3.0 mph SSW4.8 kmh SSW 6.0 mph9.7 kmh 30.38 in1028.8 mb 0.00 in0.0 mm 0.00 in0.0 mm 0.00 in0.0 mm
07:46 PM 29.7°F-1.3°C 17.9°F-7.8°C 61% 3.0 mph SW4.8 kmh SW 4.0 mph6.4 kmh 30.39 in1029.1 mb 0.00 in0.0 mm 0.00 in0.0 mm 0.00 in0.0 mm
07:45 PM 29.8°F-1.2°C 18.0°F-7.8°C 61% 2.0 mph SSW3.2 kmh SSW 3.0 mph4.8 kmh 30.39 in1029.1 mb 0.00 in0.0 mm 0.00 in0.0 mm 0.00 in0.0 mm
07:44 PM 29.8°F-1.2°C 17.6°F-8.0°C 60% 1.0 mph ESE1.6 kmh ESE 4.0 mph6.4 kmh 30.38 in1028.8 mb 0.00 in0.0 mm 0.00 in0.0 mm 0.00 in0.0 mm
07:43 PM 29.9°F-1.2°C 17.7°F-7.9°C 60% 1.0 mph ESE1.6 kmh ESE 3.0 mph4.8 kmh 30.39 in1029.1 mb 0.00 in0.0 mm 0.00 in0.0 mm 0.00 in0.0 mm
07:42 PM 29.8°F-1.2°C 17.2°F-8.2°C 59% 1.0 mph ESE1.6 kmh ESE 3.0 mph4.8 kmh 30.39 in1029.1 mb 0.00 in0.0 mm 0.00 in0.0 mm 0.00 in0.0 mm
07:41 PM 29.9°F-1.2°C 17.3°F-8.2°C 59% 3.0 mph ESE4.8 kmh ESE 4.0 mph6.4 kmh 30.39 in1029.1 mb 0.00 in0.0 mm 0.00 in0.0 mm 0.00 in0.0 mm
07:40 PM 29.9°F-1.2°C 17.3°F-8.2°C 59% 3.0 mph SW4.8 kmh SW 5.0 mph8.0 kmh 30.39 in1029.1 mb 0.00 in0.0 mm 0.00 in0.0 mm 0.00 in0.0 mm
07:39 PM 30.0°F-1.1°C 17.4°F-8.1°C 59% 5.0 mph NNW8.0 kmh NNW 9.0 mph14.5 kmh 30.39 in1029.1 mb 0.00 in0.0 mm 0.00 in0.0 mm 0.00 in0.0 mm
07:38 PM 30.0°F-1.1°C 17.0°F-8.3°C 58% 4.0 mph NNW6.4 kmh NNW 6.0 mph9.7 kmh 30.39 in1029.1 mb 0.00 in0.0 mm 0.00 in0.0 mm 0.00 in0.0 mm
07:37 PM 30.0°F-1.1°C 17.4°F-8.1°C 59% 5.0 mph 8.0 kmh 8.0 mph12.9 kmh 30.39 in1029.1 mb 0.00 in0.0 mm 0.00 in0.0 mm 0.00 in0.0 mm
07:36 PM 30.1°F-1.1°C 17.5°F-8.1°C 59% 7.0 mph 11.3 kmh 9.0 mph14.5 kmh 30.39 in1029.1 mb 0.00 in0.0 mm 0.00 in0.0 mm 0.00 in0.0 mm
07:35 PM 30.1°F-1.1°C 17.5°F-8.1°C 59% 7.0 mph NNW11.3 kmh NNW 10.0 mph16.1 kmh 30.38 in1028.8 mb 0.00 in0.0 mm 0.00 in0.0 mm 0.00 in0.0 mm
07:34 PM 30.1°F-1.1°C 17.5°F-8.1°C 59% 6.0 mph NNW9.7 kmh NNW 9.0 mph14.5 kmh 30.38 in1028.8 mb 0.00 in0.0 mm 0.00 in0.0 mm 0.00 in0.0 mm
07:33 PM 30.1°F-1.1°C 17.5°F-8.1°C 59% 6.0 mph NNW9.7 kmh NNW 9.0 mph14.5 kmh 30.38 in1028.8 mb 0.00 in0.0 mm 0.00 in0.0 mm 0.00 in0.0 mm
07:32 PM 30.1°F-1.1°C 17.5°F-8.1°C 59% 7.0 mph NNW11.3 kmh NNW 10.0 mph16.1 kmh 30.38 in1028.8 mb 0.00 in0.0 mm 0.00 in0.0 mm 0.00 in0.0 mm
07:31 PM 30.0°F-1.1°C 17.4°F-8.1°C 59% 10.0 mph 16.1 kmh 12.0 mph19.3 kmh 30.38 in1028.8 mb 0.00 in0.0 mm 0.00 in0.0 mm 0.00 in0.0 mm
07:30 PM 30.0°F-1.1°C 17.4°F-8.1°C 59% 8.0 mph NNW12.9 kmh NNW 14.0 mph22.5 kmh 30.38 in1028.8 mb 0.00 in0.0 mm 0.00 in0.0 mm 0.00 in0.0 mm
07:29 PM 29.9°F-1.2°C 16.9°F-8.4°C 58% 9.0 mph NNW14.5 kmh NNW 13.0 mph20.9 kmh 30.38 in1028.8 mb 0.00 in0.0 mm 0.00 in0.0 mm 0.00 in0.0 mm
07:28 PM 29.9°F-1.2°C 16.9°F-8.4°C 58% 6.0 mph 9.7 kmh 8.0 mph12.9 kmh 30.38 in1028.8 mb 0.00 in0.0 mm 0.00 in0.0 mm 0.00 in0.0 mm
07:27 PM 30.0°F-1.1°C 17.0°F-8.3°C 58% 8.0 mph NW12.9 kmh NW 10.0 mph16.1 kmh 30.38 in1028.8 mb 0.00 in0.0 mm 0.00 in0.0 mm 0.00 in0.0 mm
07:26 PM 30.1°F-1.1°C 17.1°F-8.3°C 58% 7.0 mph NW11.3 kmh NW 9.0 mph14.5 kmh 30.38 in1028.8 mb 0.00 in0.0 mm 0.00 in0.0 mm 0.00 in0.0 mm
07:25 PM 30.1°F-1.1°C 17.1°F-8.3°C 58% 5.0 mph NW8.0 kmh NW 9.0 mph14.5 kmh 30.38 in1028.8 mb 0.00 in0.0 mm 0.00 in0.0 mm 0.00 in0.0 mm
07:24 PM 30.1°F-1.1°C 17.1°F-8.3°C 58% 3.0 mph W4.8 kmh W 6.0 mph9.7 kmh 30.38 in1028.8 mb 0.00 in0.0 mm 0.00 in0.0 mm 0.00 in0.0 mm
07:23 PM 30.2°F-1.0°C 17.2°F-8.2°C 58% 2.0 mph W3.2 kmh W 4.0 mph6.4 kmh 30.38 in1028.8 mb 0.00 in0.0 mm 0.00 in0.0 mm 0.00 in0.0 mm
07:22 PM 30.2°F-1.0°C 17.2°F-8.2°C 58% 4.0 mph WNW6.4 kmh WNW 7.0 mph11.3 kmh 30.38 in1028.8 mb 0.00 in0.0 mm 0.00 in0.0 mm 0.00 in0.0 mm
07:21 PM 30.2°F-1.0°C 17.2°F-8.2°C 58% 5.0 mph WNW8.0 kmh WNW 9.0 mph14.5 kmh 30.38 in1028.8 mb 0.00 in0.0 mm 0.00 in0.0 mm 0.00 in0.0 mm
07:20 PM 30.3°F-0.9°C 16.9°F-8.4°C 57% 5.0 mph W8.0 kmh W 7.0 mph11.3 kmh 30.38 in1028.8 mb 0.00 in0.0 mm 0.00 in0.0 mm 0.00 in0.0 mm
07:19 PM 30.3°F-0.9°C 16.9°F-8.4°C 57% 4.0 mph WNW6.4 kmh WNW 9.0 mph14.5 kmh 30.38 in1028.8 mb 0.00 in0.0 mm 0.00 in0.0 mm 0.00 in0.0 mm
07:18 PM 30.3°F-0.9°C 16.9°F-8.4°C 57% 8.0 mph NNW12.9 kmh NNW 11.0 mph17.7 kmh 30.38 in1028.8 mb 0.00 in0.0 mm 0.00 in0.0 mm 0.00 in0.0 mm
07:17 PM 30.3°F-0.9°C 16.9°F-8.4°C 57% 6.0 mph NW9.7 kmh NW 9.0 mph14.5 kmh 30.38 in1028.8 mb 0.00 in0.0 mm 0.00 in0.0 mm 0.00 in0.0 mm
07:16 PM 30.3°F-0.9°C 16.9°F-8.4°C 57% 6.0 mph NNW9.7 kmh NNW 10.0 mph16.1 kmh 30.38 in1028.8 mb 0.00 in0.0 mm 0.00 in0.0 mm 0.00 in0.0 mm
07:15 PM 30.3°F-0.9°C 16.5°F-8.6°C 56% 7.0 mph NNW11.3 kmh NNW 10.0 mph16.1 kmh 30.38 in1028.8 mb 0.00 in0.0 mm 0.00 in0.0 mm 0.00 in0.0 mm
07:14 PM 30.3°F-0.9°C 16.1°F-8.8°C 55% 6.0 mph NNW9.7 kmh NNW 8.0 mph12.9 kmh 30.38 in1028.8 mb 0.00 in0.0 mm 0.00 in0.0 mm 0.00 in0.0 mm
07:13 PM 30.4°F-0.9°C 15.8°F-9.0°C 54% 8.0 mph 12.9 kmh 11.0 mph17.7 kmh 30.38 in1028.8 mb 0.00 in0.0 mm 0.00 in0.0 mm 0.00 in0.0 mm
07:12 PM 30.4°F-0.9°C 15.8°F-9.0°C 54% 8.0 mph NNW12.9 kmh NNW 11.0 mph17.7 kmh 30.38 in1028.8 mb 0.00 in0.0 mm 0.00 in0.0 mm 0.00 in0.0 mm
07:11 PM 30.4°F-0.9°C 15.3°F-9.3°C 53% 9.0 mph 14.5 kmh 11.0 mph17.7 kmh 30.38 in1028.8 mb 0.00 in0.0 mm 0.00 in0.0 mm 0.00 in0.0 mm
07:10 PM 30.4°F-0.9°C 15.3°F-9.3°C 53% 12.0 mph 19.3 kmh 14.0 mph22.5 kmh 30.38 in1028.8 mb 0.00 in0.0 mm 0.00 in0.0 mm 0.00 in0.0 mm
07:09 PM 30.4°F-0.9°C 14.9°F-9.5°C 52% 10.0 mph 16.1 kmh 12.0 mph19.3 kmh 30.38 in1028.8 mb 0.00 in0.0 mm 0.00 in0.0 mm 0.00 in0.0 mm
07:08 PM 30.4°F-0.9°C 14.5°F-9.7°C 51% 11.0 mph 17.7 kmh 12.0 mph19.3 kmh 30.38 in1028.8 mb 0.00 in0.0 mm 0.00 in0.0 mm 0.00 in0.0 mm
07:07 PM 30.4°F-0.9°C 14.5°F-9.7°C 51% 11.0 mph 17.7 kmh 14.0 mph22.5 kmh 30.37 in1028.4 mb 0.00 in0.0 mm 0.00 in0.0 mm 0.00 in0.0 mm
07:06 PM 30.4°F-0.9°C 14.5°F-9.7°C 51% 10.0 mph 16.1 kmh 12.0 mph19.3 kmh 30.38 in1028.8 mb 0.00 in0.0 mm 0.00 in0.0 mm 0.00 in0.0 mm
07:05 PM 30.4°F-0.9°C 14.5°F-9.7°C 51% 10.0 mph 16.1 kmh 12.0 mph19.3 kmh 30.38 in1028.8 mb 0.00 in0.0 mm 0.00 in0.0 mm 0.00 in0.0 mm
07:04 PM 30.5°F-0.8°C 14.6°F-9.7°C 51% 11.0 mph 17.7 kmh 13.0 mph20.9 kmh 30.37 in1028.4 mb 0.00 in0.0 mm 0.00 in0.0 mm 0.00 in0.0 mm
07:03 PM 30.5°F-0.8°C 14.6°F-9.7°C 51% 8.0 mph 12.9 kmh 11.0 mph17.7 kmh 30.38 in1028.8 mb 0.00 in0.0 mm 0.00 in0.0 mm 0.00 in0.0 mm
07:02 PM 30.5°F-0.8°C 14.6°F-9.7°C 51% 10.0 mph 16.1 kmh 13.0 mph20.9 kmh 30.38 in1028.8 mb 0.00 in0.0 mm 0.00 in0.0 mm 0.00 in0.0 mm
07:01 PM 30.4°F-0.9°C 14.5°F-9.7°C 51% 10.0 mph 16.1 kmh 13.0 mph20.9 kmh 30.37 in1028.4 mb 0.00 in0.0 mm 0.00 in0.0 mm 0.00 in0.0 mm
07:00 PM 30.4°F-0.9°C 14.5°F-9.7°C 51% 11.0 mph 17.7 kmh 13.0 mph20.9 kmh 30.37 in1028.4 mb 0.00 in0.0 mm 0.00 in0.0 mm 0.00 in0.0 mm
06:59 PM 30.3°F-0.9°C 14.4°F-9.8°C 51% 11.0 mph 17.7 kmh 13.0 mph20.9 kmh 30.37 in1028.4 mb 0.00 in0.0 mm 0.00 in0.0 mm 0.00 in0.0 mm
06:58 PM 30.3°F-0.9°C 14.4°F-9.8°C 51% 11.0 mph 17.7 kmh 13.0 mph20.9 kmh 30.37 in1028.4 mb 0.00 in0.0 mm 0.00 in0.0 mm 0.00 in0.0 mm
06:57 PM 30.3°F-0.9°C 14.4°F-9.8°C 51% 11.0 mph 17.7 kmh 12.0 mph19.3 kmh 30.37 in1028.4 mb 0.00 in0.0 mm 0.00 in0.0 mm 0.00 in0.0 mm
06:56 PM 30.3°F-0.9°C 14.4°F-9.8°C 51% 11.0 mph 17.7 kmh 14.0 mph22.5 kmh 30.37 in1028.4 mb 0.00 in0.0 mm 0.00 in0.0 mm 0.00 in0.0 mm
06:55 PM 30.3°F-0.9°C 14.4°F-9.8°C 51% 12.0 mph 19.3 kmh 14.0 mph22.5 kmh 30.37 in1028.4 mb 0.00 in0.0 mm 0.00 in0.0 mm 0.00 in0.0 mm
06:54 PM 30.2°F-1.0°C 14.3°F-9.8°C 51% 12.0 mph 19.3 kmh 14.0 mph22.5 kmh 30.37 in1028.4 mb 0.00 in0.0 mm 0.00 in0.0 mm 0.00 in0.0 mm
06:53 PM 30.2°F-1.0°C 14.3°F-9.8°C 51% 12.0 mph 19.3 kmh 13.0 mph20.9 kmh 30.37 in1028.4 mb 0.00 in0.0 mm 0.00 in0.0 mm 0.00 in0.0 mm
06:52 PM 30.2°F-1.0°C 14.3°F-9.8°C 51% 12.0 mph 19.3 kmh 14.0 mph22.5 kmh 30.37 in1028.4 mb 0.00 in0.0 mm 0.00 in0.0 mm 0.00 in0.0 mm
06:51 PM 30.2°F-1.0°C 14.3°F-9.8°C 51% 11.0 mph 17.7 kmh 13.0 mph20.9 kmh 30.37 in1028.4 mb 0.00 in0.0 mm 0.00 in0.0 mm 0.00 in0.0 mm
06:50 PM 30.2°F-1.0°C 14.3°F-9.8°C 51% 10.0 mph 16.1 kmh 13.0 mph20.9 kmh 30.37 in1028.4 mb 0.00 in0.0 mm 0.00 in0.0 mm 0.00 in0.0 mm
06:49 PM 30.2°F-1.0°C 14.3°F-9.8°C 51% 13.0 mph 20.9 kmh 15.0 mph24.1 kmh 30.37 in1028.4 mb 0.00 in0.0 mm 0.00 in0.0 mm 0.00 in0.0 mm
06:48 PM 30.2°F-1.0°C 14.3°F-9.8°C 51% 9.0 mph 14.5 kmh 13.0 mph20.9 kmh 30.37 in1028.4 mb 0.00 in0.0 mm 0.00 in0.0 mm 0.00 in0.0 mm
06:47 PM 30.1°F-1.1°C 14.6°F-9.7°C 52% 11.0 mph 17.7 kmh 13.0 mph20.9 kmh 30.37 in1028.4 mb 0.00 in0.0 mm 0.00 in0.0 mm 0.00 in0.0 mm
06:46 PM 30.1°F-1.1°C 14.2°F-9.9°C 51% 11.0 mph 17.7 kmh 13.0 mph20.9 kmh 30.36 in1028.1 mb 0.00 in0.0 mm 0.00 in0.0 mm 0.00 in0.0 mm
06:45 PM 30.2°F-1.0°C 14.3°F-9.8°C 51% 8.0 mph NNE12.9 kmh NNE 10.0 mph16.1 kmh 30.36 in1028.1 mb 0.00 in0.0 mm 0.00 in0.0 mm 0.00 in0.0 mm
06:44 PM 30.1°F-1.1°C 14.6°F-9.7°C 52% 10.0 mph 16.1 kmh 12.0 mph19.3 kmh 30.36 in1028.1 mb 0.00 in0.0 mm 0.00 in0.0 mm 0.00 in0.0 mm
06:43 PM 30.0°F-1.1°C 14.5°F-9.7°C 52% 9.0 mph 14.5 kmh 11.0 mph17.7 kmh 30.36 in1028.1 mb 0.00 in0.0 mm 0.00 in0.0 mm 0.00 in0.0 mm
06:42 PM 29.9°F-1.2°C 14.4°F-9.8°C 52% 11.0 mph 17.7 kmh 13.0 mph20.9 kmh 30.36 in1028.1 mb 0.00 in0.0 mm 0.00 in0.0 mm 0.00 in0.0 mm
06:41 PM 29.8°F-1.2°C 14.3°F-9.8°C 52% 9.0 mph 14.5 kmh 11.0 mph17.7 kmh 30.36 in1028.1 mb 0.00 in0.0 mm 0.00 in0.0 mm 0.00 in0.0 mm
06:40 PM 29.7°F-1.3°C 14.7°F-9.6°C 53% 8.0 mph 12.9 kmh 10.0 mph16.1 kmh 30.36 in1028.1 mb 0.00 in0.0 mm 0.00 in0.0 mm 0.00 in0.0 mm
06:39 PM 29.5°F-1.4°C 14.9°F-9.5°C 54% 5.0 mph 8.0 kmh 8.0 mph12.9 kmh 30.36 in1028.1 mb 0.00 in0.0 mm 0.00 in0.0 mm 0.00 in0.0 mm
06:38 PM 29.3°F-1.5°C 15.2°F-9.3°C 55% 9.0 mph 14.5 kmh 10.0 mph16.1 kmh 30.36 in1028.1 mb 0.00 in0.0 mm 0.00 in0.0 mm 0.00 in0.0 mm
06:37 PM 29.0°F-1.7°C 15.3°F-9.3°C 56% 9.0 mph 14.5 kmh 10.0 mph16.1 kmh 30.36 in1028.1 mb 0.00 in0.0 mm 0.00 in0.0 mm 0.00 in0.0 mm
06:36 PM 28.8°F-1.8°C 15.1°F-9.4°C 56% 7.0 mph 11.3 kmh 9.0 mph14.5 kmh 30.37 in1028.4 mb 0.00 in0.0 mm 0.00 in0.0 mm 0.00 in0.0 mm
06:35 PM 28.4°F-2.0°C 14.7°F-9.6°C 56% 7.0 mph 11.3 kmh 10.0 mph16.1 kmh 30.37 in1028.4 mb 0.00 in0.0 mm 0.00 in0.0 mm 0.00 in0.0 mm
06:34 PM 28.0°F-2.2°C 14.8°F-9.6°C 57% 6.0 mph NNE9.7 kmh NNE 8.0 mph12.9 kmh 30.37 in1028.4 mb 0.00 in0.0 mm 0.00 in0.0 mm 0.00 in0.0 mm
06:33 PM 27.6°F-2.4°C 14.8°F-9.6°C 58% 6.0 mph NNW9.7 kmh NNW 8.0 mph12.9 kmh 30.37 in1028.4 mb 0.00 in0.0 mm 0.00 in0.0 mm 0.00 in0.0 mm
06:32 PM 27.2°F-2.7°C 14.4°F-9.8°C 58% 7.0 mph 11.3 kmh 8.0 mph12.9 kmh 30.37 in1028.4 mb 0.00 in0.0 mm 0.00 in0.0 mm 0.00 in0.0 mm
06:31 PM 26.9°F-2.8°C 14.1°F-9.9°C 58% 6.0 mph 9.7 kmh 8.0 mph12.9 kmh 30.36 in1028.1 mb 0.00 in0.0 mm 0.00 in0.0 mm 0.00 in0.0 mm
06:30 PM 26.8°F-2.9°C 13.6°F-10.2°C 57% 5.0 mph 8.0 kmh 8.0 mph12.9 kmh 30.37 in1028.4 mb 0.00 in0.0 mm 0.00 in0.0 mm 0.00 in0.0 mm
06:29 PM 26.8°F-2.9°C 13.6°F-10.2°C 57% 4.0 mph NNW6.4 kmh NNW 8.0 mph12.9 kmh 30.36 in1028.1 mb 0.00 in0.0 mm 0.00 in0.0 mm 0.00 in0.0 mm
06:28 PM 26.8°F-2.9°C 13.6°F-10.2°C 57% 5.0 mph NW8.0 kmh NW 6.0 mph9.7 kmh 30.36 in1028.1 mb 0.00 in0.0 mm 0.00 in0.0 mm 0.00 in0.0 mm
06:27 PM 26.8°F-2.9°C 13.6°F-10.2°C 57% 6.0 mph NW9.7 kmh NW 8.0 mph12.9 kmh 30.36 in1028.1 mb 0.00 in0.0 mm 0.00 in0.0 mm 0.00 in0.0 mm
06:26 PM 26.8°F-2.9°C 13.6°F-10.2°C 57% 6.0 mph NW9.7 kmh NW 8.0 mph12.9 kmh 30.36 in1028.1 mb 0.00 in0.0 mm 0.00 in0.0 mm 0.00 in0.0 mm
06:25 PM 26.8°F-2.9°C 13.6°F-10.2°C 57% 8.0 mph NW12.9 kmh NW 9.0 mph14.5 kmh 30.36 in1028.1 mb 0.00 in0.0 mm 0.00 in0.0 mm 0.00 in0.0 mm
06:24 PM 26.8°F-2.9°C 13.6°F-10.2°C 57% 7.0 mph NW11.3 kmh NW 9.0 mph14.5 kmh 30.36 in1028.1 mb 0.00 in0.0 mm 0.00 in0.0 mm 0.00 in0.0 mm
06:23 PM 26.9°F-2.8°C 13.3°F-10.4°C 56% 5.0 mph NW8.0 kmh NW 8.0 mph12.9 kmh 30.36 in1028.1 mb 0.00 in0.0 mm 0.00 in0.0 mm 0.00 in0.0 mm
06:22 PM 27.0°F-2.8°C 13.4°F-10.3°C 56% 7.0 mph NW11.3 kmh NW 9.0 mph14.5 kmh 30.36 in1028.1 mb 0.00 in0.0 mm 0.00 in0.0 mm 0.00 in0.0 mm
06:21 PM 27.2°F-2.7°C 13.6°F-10.2°C 56% 7.0 mph NW11.3 kmh NW 8.0 mph12.9 kmh 30.36 in1028.1 mb 0.00 in0.0 mm 0.00 in0.0 mm 0.00 in0.0 mm
06:20 PM 27.3°F-2.6°C 13.3°F-10.4°C 55% 6.0 mph NW9.7 kmh NW 9.0 mph14.5 kmh 30.36 in1028.1 mb 0.00 in0.0 mm 0.00 in0.0 mm 0.00 in0.0 mm
06:19 PM 27.5°F-2.5°C 13.5°F-10.3°C 55% 6.0 mph NW9.7 kmh NW 9.0 mph14.5 kmh 30.35 in1027.8 mb 0.00 in0.0 mm 0.00 in0.0 mm 0.00 in0.0 mm
06:18 PM 27.6°F-2.4°C 13.6°F-10.2°C 55% 7.0 mph NW11.3 kmh NW 9.0 mph14.5 kmh 30.35 in1027.8 mb 0.00 in0.0 mm 0.00 in0.0 mm 0.00 in0.0 mm
06:17 PM 27.6°F-2.4°C 13.6°F-10.2°C 55% 7.0 mph NW11.3 kmh NW 9.0 mph14.5 kmh 30.35 in1027.8 mb 0.00 in0.0 mm 0.00 in0.0 mm 0.00 in0.0 mm
06:16 PM 27.7°F-2.4°C 13.7°F-10.2°C 55% 8.0 mph NW12.9 kmh NW 10.0 mph16.1 kmh 30.35 in1027.8 mb 0.00 in0.0 mm 0.00 in0.0 mm 0.00 in0.0 mm
06:15 PM 27.8°F-2.3°C 13.8°F-10.1°C 55% 7.0 mph NNW11.3 kmh NNW 9.0 mph14.5 kmh 30.35 in1027.8 mb 0.00 in0.0 mm 0.00 in0.0 mm 0.00 in0.0 mm
06:14 PM 27.8°F-2.3°C 13.8°F-10.1°C 55% 8.0 mph NNW12.9 kmh NNW 10.0 mph16.1 kmh 30.35 in1027.8 mb 0.00 in0.0 mm 0.00 in0.0 mm 0.00 in0.0 mm
06:13 PM 27.8°F-2.3°C 13.8°F-10.1°C 55% 5.0 mph NNW8.0 kmh NNW 8.0 mph12.9 kmh 30.35 in1027.8 mb 0.00 in0.0 mm 0.00 in0.0 mm 0.00 in0.0 mm
06:12 PM 27.8°F-2.3°C 13.8°F-10.1°C 55% 6.0 mph NNW9.7 kmh NNW 8.0 mph12.9 kmh 30.35 in1027.8 mb 0.00 in0.0 mm 0.00 in0.0 mm 0.00 in0.0 mm
06:11 PM 28.0°F-2.2°C 13.9°F-10.1°C 55% 6.0 mph NNW9.7 kmh NNW 8.0 mph12.9 kmh 30.34 in1027.4 mb 0.00 in0.0 mm 0.00 in0.0 mm 0.00 in0.0 mm
06:10 PM 28.2°F-2.1°C 14.1°F-9.9°C 55% 5.0 mph NNW8.0 kmh NNW 6.0 mph9.7 kmh 30.34 in1027.4 mb 0.00 in0.0 mm 0.00 in0.0 mm 0.00 in0.0 mm
06:09 PM 28.3°F-2.1°C 14.2°F-9.9°C 55% 6.0 mph NNW9.7 kmh NNW 8.0 mph12.9 kmh 30.34 in1027.4 mb 0.00 in0.0 mm 0.00 in0.0 mm 0.00 in0.0 mm
06:08 PM 28.3°F-2.1°C 14.2°F-9.9°C 55% 5.0 mph NNW8.0 kmh NNW 6.0 mph9.7 kmh 30.34 in1027.4 mb 0.00 in0.0 mm 0.00 in0.0 mm 0.00 in0.0 mm
06:07 PM 28.3°F-2.1°C 14.2°F-9.9°C 55% 4.0 mph NW6.4 kmh NW 6.0 mph9.7 kmh 30.34 in1027.4 mb 0.00 in0.0 mm 0.00 in0.0 mm 0.00 in0.0 mm
06:06 PM 28.3°F-2.1°C 14.2°F-9.9°C 55% 6.0 mph WNW9.7 kmh WNW 9.0 mph14.5 kmh 30.34 in1027.4 mb 0.00 in0.0 mm 0.00 in0.0 mm 0.00 in0.0 mm
06:05 PM 28.2°F-2.1°C 14.1°F-9.9°C 55% 5.0 mph WNW8.0 kmh WNW 7.0 mph11.3 kmh 30.34 in1027.4 mb 0.00 in0.0 mm 0.00 in0.0 mm 0.00 in0.0 mm
06:04 PM 28.2°F-2.1°C 14.1°F-9.9°C 55% 3.0 mph NW4.8 kmh NW 4.0 mph6.4 kmh 30.34 in1027.4 mb 0.00 in0.0 mm 0.00 in0.0 mm 0.00 in0.0 mm
06:03 PM 28.1°F-2.2°C 14.0°F-10.0°C 55% 5.0 mph NNW8.0 kmh NNW 8.0 mph12.9 kmh 30.34 in1027.4 mb 0.00 in0.0 mm 0.00 in0.0 mm 0.00 in0.0 mm
06:02 PM 28.1°F-2.2°C 14.0°F-10.0°C 55% 5.0 mph NW8.0 kmh NW 8.0 mph12.9 kmh 30.34 in1027.4 mb 0.00 in0.0 mm 0.00 in0.0 mm 0.00 in0.0 mm
06:01 PM 28.0°F-2.2°C 13.9°F-10.1°C 55% 6.0 mph WNW9.7 kmh WNW 8.0 mph12.9 kmh 30.34 in1027.4 mb 0.00 in0.0 mm 0.00 in0.0 mm 0.00 in0.0 mm
06:00 PM 28.0°F-2.2°C 13.9°F-10.1°C 55% 5.0 mph WNW8.0 kmh WNW 8.0 mph12.9 kmh 30.34 in1027.4 mb 0.00 in0.0 mm 0.00 in0.0 mm 0.00 in0.0 mm
05:59 PM 28.0°F-2.2°C 13.9°F-10.1°C 55% 5.0 mph NW8.0 kmh NW 7.0 mph11.3 kmh 30.34 in1027.4 mb 0.00 in0.0 mm 0.00 in0.0 mm 0.00 in0.0 mm
05:58 PM 28.0°F-2.2°C 13.9°F-10.1°C 55% 5.0 mph NW8.0 kmh NW 8.0 mph12.9 kmh 30.34 in1027.4 mb 0.00 in0.0 mm 0.00 in0.0 mm 0.00 in0.0 mm
05:57 PM 28.1°F-2.2°C 14.0°F-10.0°C 55% 7.0 mph NW11.3 kmh NW 8.0 mph12.9 kmh 30.34 in1027.4 mb 0.00 in0.0 mm 0.00 in0.0 mm 0.00 in0.0 mm
05:56 PM 28.1°F-2.2°C 14.0°F-10.0°C 55% 5.0 mph NW8.0 kmh NW 8.0 mph12.9 kmh 30.34 in1027.4 mb 0.00 in0.0 mm 0.00 in0.0 mm 0.00 in0.0 mm
05:55 PM 28.2°F-2.1°C 14.1°F-9.9°C 55% 5.0 mph WNW8.0 kmh WNW 7.0 mph11.3 kmh 30.34 in1027.4 mb 0.00 in0.0 mm 0.00 in0.0 mm 0.00 in0.0 mm
05:54 PM 28.3°F-2.1°C 14.2°F-9.9°C 55% 4.0 mph WNW6.4 kmh WNW 7.0 mph11.3 kmh 30.34 in1027.4 mb 0.00 in0.0 mm 0.00 in0.0 mm 0.00 in0.0 mm
05:53 PM 28.4°F-2.0°C 14.3°F-9.8°C 55% 5.0 mph WNW8.0 kmh WNW 7.0 mph11.3 kmh 30.34 in1027.4 mb 0.00 in0.0 mm 0.00 in0.0 mm 0.00 in0.0 mm
05:52 PM 28.5°F-1.9°C 14.0°F-10.0°C 54% 5.0 mph WNW8.0 kmh WNW 8.0 mph12.9 kmh 30.34 in1027.4 mb 0.00 in0.0 mm 0.00 in0.0 mm 0.00 in0.0 mm
05:51 PM 28.6°F-1.9°C 14.1°F-9.9°C 54% 7.0 mph WNW11.3 kmh WNW 8.0 mph12.9 kmh 30.34 in1027.4 mb 0.00 in0.0 mm 0.00 in0.0 mm 0.00 in0.0 mm
05:50 PM 28.7°F-1.8°C 13.8°F-10.1°C 53% 6.0 mph NW9.7 kmh NW 9.0 mph14.5 kmh 30.34 in1027.4 mb 0.00 in0.0 mm 0.00 in0.0 mm 0.00 in0.0 mm
05:49 PM 28.9°F-1.7°C 13.9°F-10.1°C 53% 6.0 mph NW9.7 kmh NW 9.0 mph14.5 kmh 30.34 in1027.4 mb 0.00 in0.0 mm 0.00 in0.0 mm 0.00 in0.0 mm
05:48 PM 29.1°F-1.6°C 13.7°F-10.2°C 52% 6.0 mph NW9.7 kmh NW 8.0 mph12.9 kmh 30.34 in1027.4 mb 0.00 in0.0 mm 0.00 in0.0 mm 0.00 in0.0 mm
05:47 PM 29.3°F-1.5°C 13.9°F-10.1°C 52% 8.0 mph NW12.9 kmh NW 10.0 mph16.1 kmh 30.34 in1027.4 mb 0.00 in0.0 mm 0.00 in0.0 mm 0.00 in0.0 mm
05:46 PM 29.4°F-1.4°C 13.5°F-10.3°C 51% 7.0 mph NW11.3 kmh NW 9.0 mph14.5 kmh 30.34 in1027.4 mb 0.00 in0.0 mm 0.00 in0.0 mm 0.00 in0.0 mm
05:45 PM 29.6°F-1.3°C 13.7°F-10.2°C 51% 8.0 mph NNW12.9 kmh NNW 9.0 mph14.5 kmh 30.34 in1027.4 mb 0.00 in0.0 mm 0.00 in0.0 mm 0.00 in0.0 mm
05:44 PM 29.8°F-1.2°C 13.5°F-10.3°C 50% 8.0 mph NW12.9 kmh NW 10.0 mph16.1 kmh 30.34 in1027.4 mb 0.00 in0.0 mm 0.00 in0.0 mm 0.00 in0.0 mm
05:43 PM 30.1°F-1.1°C 13.7°F-10.2°C 50% 9.0 mph NNW14.5 kmh NNW 10.0 mph16.1 kmh 30.34 in1027.4 mb 0.00 in0.0 mm 0.00 in0.0 mm 0.00 in0.0 mm
05:42 PM 30.3°F-0.9°C 13.9°F-10.1°C 50% 6.0 mph NNW9.7 kmh NNW 10.0 mph16.1 kmh 30.34 in1027.4 mb 0.00 in0.0 mm 0.00 in0.0 mm 0.00 in0.0 mm
05:41 PM 30.5°F-0.8°C 14.1°F-9.9°C 50% 5.0 mph NNW8.0 kmh NNW 7.0 mph11.3 kmh 30.34 in1027.4 mb 0.00 in0.0 mm 0.00 in0.0 mm 0.00 in0.0 mm
05:40 PM 30.6°F-0.8°C 13.7°F-10.2°C 49% 5.0 mph NW8.0 kmh NW 8.0 mph12.9 kmh 30.34 in1027.4 mb 0.00 in0.0 mm 0.00 in0.0 mm 0.00 in0.0 mm
05:39 PM 30.7°F-0.7°C 13.8°F-10.1°C 49% 5.0 mph WNW8.0 kmh WNW 9.0 mph14.5 kmh 30.34 in1027.4 mb 0.00 in0.0 mm 0.00 in0.0 mm 0.00 in0.0 mm
05:38 PM 30.6°F-0.8°C 13.7°F-10.2°C 49% 6.0 mph WNW9.7 kmh WNW 9.0 mph14.5 kmh 30.34 in1027.4 mb 0.00 in0.0 mm 0.00 in0.0 mm 0.00 in0.0 mm
05:37 PM 30.6°F-0.8°C 13.7°F-10.2°C 49% 6.0 mph WNW9.7 kmh WNW 9.0 mph14.5 kmh 30.34 in1027.4 mb 0.00 in0.0 mm 0.00 in0.0 mm 0.00 in0.0 mm
05:36 PM 30.7°F-0.7°C 13.8°F-10.1°C 49% 7.0 mph WNW11.3 kmh WNW 9.0 mph14.5 kmh 30.33 in1027.1 mb 0.00 in0.0 mm 0.00 in0.0 mm 0.00 in0.0 mm
05:35 PM 30.7°F-0.7°C 14.3°F-9.8°C 50% 6.0 mph WNW9.7 kmh WNW 9.0 mph14.5 kmh 30.33 in1027.1 mb 0.00 in0.0 mm 0.00 in0.0 mm 0.00 in0.0 mm
05:34 PM 30.6°F-0.8°C 14.2°F-9.9°C 50% 7.0 mph WNW11.3 kmh WNW 9.0 mph14.5 kmh 30.33 in1027.1 mb 0.00 in0.0 mm 0.00 in0.0 mm 0.00 in0.0 mm
05:33 PM 30.6°F-0.8°C 14.2°F-9.9°C 50% 6.0 mph WNW9.7 kmh WNW 9.0 mph14.5 kmh 30.33 in1027.1 mb 0.00 in0.0 mm 0.00 in0.0 mm 0.00 in0.0 mm
05:32 PM 30.5°F-0.8°C 14.1°F-9.9°C 50% 7.0 mph WNW11.3 kmh WNW 8.0 mph12.9 kmh 30.33 in1027.1 mb 0.00 in0.0 mm 0.00 in0.0 mm 0.00 in0.0 mm
05:31 PM 30.5°F-0.8°C 14.1°F-9.9°C 50% 8.0 mph WNW12.9 kmh WNW 10.0 mph16.1 kmh 30.33 in1027.1 mb 0.00 in0.0 mm 0.00 in0.0 mm 0.00 in0.0 mm
05:30 PM 30.4°F-0.9°C 14.0°F-10.0°C 50% 8.0 mph WNW12.9 kmh WNW 11.0 mph17.7 kmh 30.33 in1027.1 mb 0.00 in0.0 mm 0.00 in0.0 mm 0.00 in0.0 mm
05:29 PM 30.4°F-0.9°C 14.0°F-10.0°C 50% 8.0 mph WNW12.9 kmh WNW 10.0 mph16.1 kmh 30.32 in1026.8 mb 0.00 in0.0 mm 0.00 in0.0 mm 0.00 in0.0 mm
05:28 PM 30.4°F-0.9°C 14.5°F-9.7°C 51% 8.0 mph WNW12.9 kmh WNW 10.0 mph16.1 kmh 30.33 in1027.1 mb 0.00 in0.0 mm 0.00 in0.0 mm 0.00 in0.0 mm
05:27 PM 30.5°F-0.8°C 14.6°F-9.7°C 51% 8.0 mph WNW12.9 kmh WNW 10.0 mph16.1 kmh 30.33 in1027.1 mb 0.00 in0.0 mm 0.00 in0.0 mm 0.00 in0.0 mm
05:26 PM 30.5°F-0.8°C 14.1°F-9.9°C 50% 7.0 mph WNW11.3 kmh WNW 10.0 mph16.1 kmh 30.33 in1027.1 mb 0.00 in0.0 mm 0.00 in0.0 mm 0.00 in0.0 mm
05:25 PM 30.6°F-0.8°C 14.2°F-9.9°C 50% 7.0 mph WNW11.3 kmh WNW 9.0 mph14.5 kmh 30.32 in1026.8 mb 0.00 in0.0 mm 0.00 in0.0 mm 0.00 in0.0 mm
05:24 PM 30.6°F-0.8°C 14.2°F-9.9°C 50% 8.0 mph W12.9 kmh W 10.0 mph16.1 kmh 30.33 in1027.1 mb 0.00 in0.0 mm 0.00 in0.0 mm 0.00 in0.0 mm
05:23 PM 30.7°F-0.7°C 14.3°F-9.8°C 50% 7.0 mph W11.3 kmh W 8.0 mph12.9 kmh 30.32 in1026.8 mb 0.00 in0.0 mm 0.00 in0.0 mm 0.00 in0.0 mm
05:22 PM 30.8°F-0.7°C 14.4°F-9.8°C 50% 6.0 mph WNW9.7 kmh WNW 8.0 mph12.9 kmh 30.32 in1026.8 mb 0.00 in0.0 mm 0.00 in0.0 mm 0.00 in0.0 mm
05:21 PM 31.0°F-0.6°C 14.6°F-9.7°C 50% 6.0 mph WNW9.7 kmh WNW 8.0 mph12.9 kmh 30.32 in1026.8 mb 0.00 in0.0 mm 0.00 in0.0 mm 0.00 in0.0 mm
05:20 PM 31.1°F-0.5°C 14.7°F-9.6°C 50% 5.0 mph W8.0 kmh W 9.0 mph14.5 kmh 30.32 in1026.8 mb 0.00 in0.0 mm 0.00 in0.0 mm 0.00 in0.0 mm
05:19 PM 31.2°F-0.4°C 14.8°F-9.6°C 50% 5.0 mph WNW8.0 kmh WNW 8.0 mph12.9 kmh 30.32 in1026.8 mb 0.00 in0.0 mm 0.00 in0.0 mm 0.00 in0.0 mm
05:18 PM 31.3°F-0.4°C 14.4°F-9.8°C 49% 4.0 mph WNW6.4 kmh WNW 6.0 mph9.7 kmh 30.32 in1026.8 mb 0.00 in0.0 mm 0.00 in0.0 mm 0.00 in0.0 mm
05:17 PM 31.4°F-0.3°C 14.5°F-9.7°C 49% 6.0 mph W9.7 kmh W 7.0 mph11.3 kmh 30.32 in1026.8 mb 0.00 in0.0 mm 0.00 in0.0 mm 0.00 in0.0 mm
05:16 PM 31.6°F-0.2°C 14.7°F-9.6°C 49% 5.0 mph W8.0 kmh W 7.0 mph11.3 kmh 30.32 in1026.8 mb 0.00 in0.0 mm 0.00 in0.0 mm 0.00 in0.0 mm
05:15 PM 31.8°F-0.1°C 14.8°F-9.6°C 49% 5.0 mph WNW8.0 kmh WNW 7.0 mph11.3 kmh 30.32 in1026.8 mb 0.00 in0.0 mm 0.00 in0.0 mm 0.00 in0.0 mm
05:14 PM 31.9°F-0.1°C 14.5°F-9.7°C 48% 5.0 mph WNW8.0 kmh WNW 8.0 mph12.9 kmh 30.32 in1026.8 mb 0.00 in0.0 mm 0.00 in0.0 mm 0.00 in0.0 mm
05:13 PM 31.9°F-0.1°C 14.5°F-9.7°C 48% 6.0 mph NW9.7 kmh NW 9.0 mph14.5 kmh 30.32 in1026.8 mb 0.00 in0.0 mm 0.00 in0.0 mm 0.00 in0.0 mm
05:12 PM 32.1°F0.1°C 14.6°F-9.7°C 48% 5.0 mph NW8.0 kmh NW 9.0 mph14.5 kmh 30.32 in1026.8 mb 0.00 in0.0 mm 0.00 in0.0 mm 0.00 in0.0 mm
05:11 PM 32.2°F0.1°C 14.7°F-9.6°C 48% 4.0 mph NNW6.4 kmh NNW 7.0 mph11.3 kmh 30.32 in1026.8 mb 0.00 in0.0 mm 0.00 in0.0 mm 0.00 in0.0 mm
05:10 PM 32.2°F0.1°C 14.3°F-9.8°C 47% 6.0 mph NW9.7 kmh NW 9.0 mph14.5 kmh 30.31 in1026.4 mb 0.00 in0.0 mm 0.00 in0.0 mm 0.00 in0.0 mm
05:09 PM 32.2°F0.1°C 14.3°F-9.8°C 47% 6.0 mph NW9.7 kmh NW 9.0 mph14.5 kmh 30.31 in1026.4 mb 0.00 in0.0 mm 0.00 in0.0 mm 0.00 in0.0 mm
05:08 PM 32.3°F0.2°C 14.4°F-9.8°C 47% 7.0 mph NW11.3 kmh NW 9.0 mph14.5 kmh 30.31 in1026.4 mb 0.00 in0.0 mm 0.00 in0.0 mm 0.00 in0.0 mm
05:07 PM 32.4°F0.2°C 14.0°F-10.0°C 46% 7.0 mph NW11.3 kmh NW 11.0 mph17.7 kmh 30.31 in1026.4 mb 0.00 in0.0 mm 0.00 in0.0 mm 0.00 in0.0 mm
05:06 PM 32.4°F0.2°C 14.0°F-10.0°C 46% 5.0 mph WNW8.0 kmh WNW 9.0 mph14.5 kmh 30.31 in1026.4 mb 0.00 in0.0 mm 0.00 in0.0 mm 0.00 in0.0 mm
05:05 PM 32.4°F0.2°C 13.5°F-10.3°C 45% 5.0 mph WNW8.0 kmh WNW 8.0 mph12.9 kmh 30.31 in1026.4 mb 0.00 in0.0 mm 0.00 in0.0 mm 0.00 in0.0 mm
05:04 PM 32.5°F0.3°C 13.5°F-10.3°C 45% 8.0 mph WNW12.9 kmh WNW 11.0 mph17.7 kmh 30.31 in1026.4 mb 0.00 in0.0 mm 0.00 in0.0 mm 0.00 in0.0 mm
05:03 PM 32.5°F0.3°C 13.5°F-10.3°C 45% 8.0 mph WNW12.9 kmh WNW 10.0 mph16.1 kmh 30.31 in1026.4 mb 0.00 in0.0 mm 0.00 in0.0 mm 0.00 in0.0 mm
05:02 PM 32.6°F0.3°C 14.1°F-9.9°C 46% 7.0 mph W11.3 kmh W 11.0 mph17.7 kmh 30.31 in1026.4 mb 0.00 in0.0 mm 0.00 in0.0 mm 0.00 in0.0 mm
05:01 PM 32.5°F0.3°C 14.0°F-10.0°C 46% 7.0 mph W11.3 kmh W 9.0 mph14.5 kmh 30.31 in1026.4 mb 0.00 in0.0 mm 0.00 in0.0 mm 0.00 in0.0 mm
05:00 PM 32.6°F0.3°C 14.1°F-9.9°C 46% 8.0 mph WNW12.9 kmh WNW 11.0 mph17.7 kmh 30.31 in1026.4 mb 0.00 in0.0 mm 0.00 in0.0 mm 0.00 in0.0 mm
04:59 PM 32.7°F0.4°C 14.7°F-9.6°C 47% 5.0 mph WNW8.0 kmh WNW 11.0 mph17.7 kmh 30.31 in1026.4 mb 0.00 in0.0 mm 0.00 in0.0 mm 0.00 in0.0 mm
04:58 PM 32.7°F0.4°C 14.7°F-9.6°C 47% 4.0 mph NW6.4 kmh NW 7.0 mph11.3 kmh 30.31 in1026.4 mb 0.00 in0.0 mm 0.00 in0.0 mm 0.00 in0.0 mm
04:57 PM 32.8°F0.4°C 14.8°F-9.6°C 47% 5.0 mph W8.0 kmh W 9.0 mph14.5 kmh 30.31 in1026.4 mb 0.00 in0.0 mm 0.00 in0.0 mm 0.00 in0.0 mm
04:56 PM 32.8°F0.4°C 14.8°F-9.6°C 47% 5.0 mph WNW8.0 kmh WNW 9.0 mph14.5 kmh 30.31 in1026.4 mb 0.00 in0.0 mm 0.00 in0.0 mm 0.00 in0.0 mm
04:55 PM 32.9°F0.5°C 14.4°F-9.8°C 46% 4.0 mph NW6.4 kmh NW 7.0 mph11.3 kmh 30.31 in1026.4 mb 0.00 in0.0 mm 0.00 in0.0 mm 0.00 in0.0 mm
04:54 PM 32.9°F0.5°C 14.4°F-9.8°C 46% 6.0 mph NW9.7 kmh NW 8.0 mph12.9 kmh 30.31 in1026.4 mb 0.00 in0.0 mm 0.00 in0.0 mm 0.00 in0.0 mm
04:53 PM 32.9°F0.5°C 14.4°F-9.8°C 46% 6.0 mph NW9.7 kmh NW 10.0 mph16.1 kmh 30.31 in1026.4 mb 0.00 in0.0 mm 0.00 in0.0 mm 0.00 in0.0 mm
04:52 PM 33.0°F0.6°C 14.5°F-9.7°C 46% 7.0 mph NNW11.3 kmh NNW 10.0 mph16.1 kmh 30.31 in1026.4 mb 0.00 in0.0 mm 0.00 in0.0 mm 0.00 in0.0 mm
04:51 PM 33.0°F0.6°C 14.0°F-10.0°C 45% 8.0 mph NNW12.9 kmh NNW 11.0 mph17.7 kmh 30.31 in1026.4 mb 0.00 in0.0 mm 0.00 in0.0 mm 0.00 in0.0 mm
04:50 PM 33.0°F0.6°C 14.5°F-9.7°C 46% 10.0 mph NNW16.1 kmh NNW 12.0 mph19.3 kmh 30.31 in1026.4 mb 0.00 in0.0 mm 0.00 in0.0 mm 0.00 in0.0 mm
04:49 PM 32.9°F0.5°C 14.4°F-9.8°C 46% 7.0 mph NW11.3 kmh NW 10.0 mph16.1 kmh 30.31 in1026.4 mb 0.00 in0.0 mm 0.00 in0.0 mm 0.00 in0.0 mm
04:48 PM 32.9°F0.5°C 14.4°F-9.8°C 46% 7.0 mph NW11.3 kmh NW 9.0 mph14.5 kmh 30.31 in1026.4 mb 0.00 in0.0 mm 0.00 in0.0 mm 0.00 in0.0 mm
04:47 PM 32.9°F0.5°C 14.4°F-9.8°C 46% 6.0 mph WNW9.7 kmh WNW 9.0 mph14.5 kmh 30.31 in1026.4 mb 0.00 in0.0 mm 0.00 in0.0 mm 0.00 in0.0 mm
04:46 PM 32.9°F0.5°C 14.4°F-9.8°C 46% 6.0 mph WNW9.7 kmh WNW 9.0 mph14.5 kmh 30.31 in1026.4 mb 0.00 in0.0 mm 0.00 in0.0 mm 0.00 in0.0 mm
04:45 PM 32.9°F0.5°C 13.9°F-10.1°C 45% 5.0 mph NW8.0 kmh NW 8.0 mph12.9 kmh 30.31 in1026.4 mb 0.00 in0.0 mm 0.00 in0.0 mm 0.00 in0.0 mm
04:44 PM 32.9°F0.5°C 13.9°F-10.1°C 45% 6.0 mph WNW9.7 kmh WNW 9.0 mph14.5 kmh 30.31 in1026.4 mb 0.00 in0.0 mm 0.00 in0.0 mm 0.00 in0.0 mm
04:43 PM 32.9°F0.5°C 13.9°F-10.1°C 45% 6.0 mph WNW9.7 kmh WNW 9.0 mph14.5 kmh 30.31 in1026.4 mb 0.00 in0.0 mm 0.00 in0.0 mm 0.00 in0.0 mm
04:42 PM 33.0°F0.6°C 14.0°F-10.0°C 45% 8.0 mph WNW12.9 kmh WNW 11.0 mph17.7 kmh 30.31 in1026.4 mb 0.00 in0.0 mm 0.00 in0.0 mm 0.00 in0.0 mm
04:41 PM 33.0°F0.6°C 14.0°F-10.0°C 45% 8.0 mph WNW12.9 kmh WNW 9.0 mph14.5 kmh 30.30 in1026.1 mb 0.00 in0.0 mm 0.00 in0.0 mm 0.00 in0.0 mm
04:40 PM 33.0°F0.6°C 14.0°F-10.0°C 45% 8.0 mph WNW12.9 kmh WNW 11.0 mph17.7 kmh 30.30 in1026.1 mb 0.00 in0.0 mm 0.00 in0.0 mm 0.00 in0.0 mm
04:39 PM 33.0°F0.6°C 13.5°F-10.3°C 44% 9.0 mph WNW14.5 kmh WNW 14.0 mph22.5 kmh 30.30 in1026.1 mb 0.00 in0.0 mm 0.00 in0.0 mm 0.00 in0.0 mm
04:38 PM 33.1°F0.6°C 13.6°F-10.2°C 44% 12.0 mph NW19.3 kmh NW 15.0 mph24.1 kmh 30.30 in1026.1 mb 0.00 in0.0 mm 0.00 in0.0 mm 0.00 in0.0 mm
04:37 PM 33.0°F0.6°C 13.5°F-10.3°C 44% 12.0 mph NW19.3 kmh NW 14.0 mph22.5 kmh 30.30 in1026.1 mb 0.00 in0.0 mm 0.00 in0.0 mm 0.00 in0.0 mm
04:36 PM 32.9°F0.5°C 13.4°F-10.3°C 44% 9.0 mph NW14.5 kmh NW 12.0 mph19.3 kmh 30.30 in1026.1 mb 0.00 in0.0 mm 0.00 in0.0 mm 0.00 in0.0 mm
04:35 PM 33.0°F0.6°C 13.5°F-10.3°C 44% 10.0 mph NW16.1 kmh NW 13.0 mph20.9 kmh 30.30 in1026.1 mb 0.00 in0.0 mm 0.00 in0.0 mm 0.00 in0.0 mm
04:34 PM 32.9°F0.5°C 13.9°F-10.1°C 45% 9.0 mph NW14.5 kmh NW 12.0 mph19.3 kmh 30.30 in1026.1 mb 0.00 in0.0 mm 0.00 in0.0 mm 0.00 in0.0 mm
04:33 PM 32.9°F0.5°C 13.9°F-10.1°C 45% 7.0 mph WNW11.3 kmh WNW 10.0 mph16.1 kmh 30.30 in1026.1 mb 0.00 in0.0 mm 0.00 in0.0 mm 0.00 in0.0 mm
04:32 PM 32.9°F0.5°C 13.4°F-10.3°C 44% 7.0 mph NW11.3 kmh NW 9.0 mph14.5 kmh 30.30 in1026.1 mb 0.00 in0.0 mm 0.00 in0.0 mm 0.00 in0.0 mm
04:31 PM 33.0°F0.6°C 14.0°F-10.0°C 45% 9.0 mph WNW14.5 kmh WNW 13.0 mph20.9 kmh 30.30 in1026.1 mb 0.00 in0.0 mm 0.00 in0.0 mm 0.00 in0.0 mm
04:30 PM 33.0°F0.6°C 13.5°F-10.3°C 44% 10.0 mph WNW16.1 kmh WNW 13.0 mph20.9 kmh 30.30 in1026.1 mb 0.00 in0.0 mm 0.00 in0.0 mm 0.00 in0.0 mm
04:29 PM 33.0°F0.6°C 13.5°F-10.3°C 44% 12.0 mph WNW19.3 kmh WNW 15.0 mph24.1 kmh 30.30 in1026.1 mb 0.00 in0.0 mm 0.00 in0.0 mm 0.00 in0.0 mm
04:28 PM 33.1°F0.6°C 13.6°F-10.2°C 44% 8.0 mph WNW12.9 kmh WNW 10.0 mph16.1 kmh 30.30 in1026.1 mb 0.00 in0.0 mm 0.00 in0.0 mm 0.00 in0.0 mm
04:27 PM 33.2°F0.7°C 13.2°F-10.4°C 43% 10.0 mph WNW16.1 kmh WNW 13.0 mph20.9 kmh 30.30 in1026.1 mb 0.00 in0.0 mm 0.00 in0.0 mm 0.00 in0.0 mm
04:26 PM 33.2°F0.7°C 13.2°F-10.4°C 43% 10.0 mph W16.1 kmh W 15.0 mph24.1 kmh 30.30 in1026.1 mb 0.00 in0.0 mm 0.00 in0.0 mm 0.00 in0.0 mm
04:25 PM 33.3°F0.7°C 13.8°F-10.1°C 44% 9.0 mph WNW14.5 kmh WNW 12.0 mph19.3 kmh 30.30 in1026.1 mb 0.00 in0.0 mm 0.00 in0.0 mm 0.00 in0.0 mm
04:24 PM 33.5°F0.8°C 13.4°F-10.3°C 43% 10.0 mph W16.1 kmh W 13.0 mph20.9 kmh 30.30 in1026.1 mb 0.00 in0.0 mm 0.00 in0.0 mm 0.00 in0.0 mm
04:23 PM 33.6°F0.9°C 13.5°F-10.3°C 43% 12.0 mph WNW19.3 kmh WNW 14.0 mph22.5 kmh 30.30 in1026.1 mb 0.00 in0.0 mm 0.00 in0.0 mm 0.00 in0.0 mm
04:22 PM 33.7°F0.9°C 13.6°F-10.2°C 43% 12.0 mph WNW19.3 kmh WNW 15.0 mph24.1 kmh 30.30 in1026.1 mb 0.00 in0.0 mm 0.00 in0.0 mm 0.00 in0.0 mm
04:21 PM 33.9°F1.1°C 13.8°F-10.1°C 43% 11.0 mph W17.7 kmh W 16.0 mph25.7 kmh 30.30 in1026.1 mb 0.00 in0.0 mm 0.00 in0.0 mm 0.00 in0.0 mm
04:20 PM 34.0°F1.1°C 13.9°F-10.1°C 43% 10.0 mph W16.1 kmh W 13.0 mph20.9 kmh 30.30 in1026.1 mb 0.00 in0.0 mm 0.00 in0.0 mm 0.00 in0.0 mm
04:19 PM 34.2°F1.2°C 14.6°F-9.7°C 44% 8.0 mph W12.9 kmh W 12.0 mph19.3 kmh 30.30 in1026.1 mb 0.00 in0.0 mm 0.00 in0.0 mm 0.00 in0.0 mm
04:18 PM 34.3°F1.3°C 14.2°F-9.9°C 43% 9.0 mph W14.5 kmh W 12.0 mph19.3 kmh 30.30 in1026.1 mb 0.00 in0.0 mm 0.00 in0.0 mm 0.00 in0.0 mm
04:17 PM 34.3°F1.3°C 13.6°F-10.2°C 42% 9.0 mph WNW14.5 kmh WNW 14.0 mph22.5 kmh 30.30 in1026.1 mb 0.00 in0.0 mm 0.00 in0.0 mm 0.00 in0.0 mm
04:16 PM 34.4°F1.3°C 13.7°F-10.2°C 42% 14.0 mph WNW22.5 kmh WNW 19.0 mph30.6 kmh 30.30 in1026.1 mb 0.00 in0.0 mm 0.00 in0.0 mm 0.00 in0.0 mm
04:15 PM 34.5°F1.4°C 13.8°F-10.1°C 42% 15.0 mph W24.1 kmh W 19.0 mph30.6 kmh 30.29 in1025.7 mb 0.00 in0.0 mm 0.00 in0.0 mm 0.00 in0.0 mm
04:14 PM 34.5°F1.4°C 13.8°F-10.1°C 42% 14.0 mph WNW22.5 kmh WNW 19.0 mph30.6 kmh 30.29 in1025.7 mb 0.00 in0.0 mm 0.00 in0.0 mm 0.00 in0.0 mm
04:13 PM 34.5°F1.4°C 13.8°F-10.1°C 42% 16.0 mph WNW25.7 kmh WNW 25.0 mph40.2 kmh 30.29 in1025.7 mb 0.00 in0.0 mm 0.00 in0.0 mm 0.00 in0.0 mm
04:12 PM 34.6°F1.4°C 13.9°F-10.1°C 42% 16.0 mph W25.7 kmh W 23.0 mph37.0 kmh 30.29 in1025.7 mb 0.00 in0.0 mm 0.00 in0.0 mm 0.00 in0.0 mm
04:11 PM 34.6°F1.4°C 14.4°F-9.8°C 43% 13.0 mph WNW20.9 kmh WNW 16.0 mph25.7 kmh 30.29 in1025.7 mb 0.00 in0.0 mm 0.00 in0.0 mm 0.00 in0.0 mm
04:10 PM 34.4°F1.3°C 13.7°F-10.2°C 42% 15.0 mph W24.1 kmh W 19.0 mph30.6 kmh 30.29 in1025.7 mb 0.00 in0.0 mm 0.00 in0.0 mm 0.00 in0.0 mm
04:09 PM 34.5°F1.4°C 14.3°F-9.8°C 43% 13.0 mph W20.9 kmh W 16.0 mph25.7 kmh 30.29 in1025.7 mb 0.00 in0.0 mm 0.00 in0.0 mm 0.00 in0.0 mm
04:08 PM 34.5°F1.4°C 14.3°F-9.8°C 43% 13.0 mph W20.9 kmh W 16.0 mph25.7 kmh 30.29 in1025.7 mb 0.00 in0.0 mm 0.00 in0.0 mm 0.00 in0.0 mm
04:07 PM 34.4°F1.3°C 14.2°F-9.9°C 43% 12.0 mph WNW19.3 kmh WNW 19.0 mph30.6 kmh 30.29 in1025.7 mb 0.00 in0.0 mm 0.00 in0.0 mm 0.00 in0.0 mm
04:06 PM 34.4°F1.3°C 14.8°F-9.6°C 44% 10.0 mph WNW16.1 kmh WNW 13.0 mph20.9 kmh 30.29 in1025.7 mb 0.00 in0.0 mm 0.00 in0.0 mm 0.00 in0.0 mm
04:05 PM 34.5°F1.4°C 15.4°F-9.2°C 45% 13.0 mph WNW20.9 kmh WNW 20.0 mph32.2 kmh 30.29 in1025.7 mb 0.00 in0.0 mm 0.00 in0.0 mm 0.00 in0.0 mm
04:04 PM 34.5°F1.4°C 15.9°F-8.9°C 46% 10.0 mph WNW16.1 kmh WNW 13.0 mph20.9 kmh 30.29 in1025.7 mb 0.00 in0.0 mm 0.00 in0.0 mm 0.00 in0.0 mm
04:03 PM 34.7°F1.5°C 16.1°F-8.8°C 46% 8.0 mph WNW12.9 kmh WNW 12.0 mph19.3 kmh 30.29 in1025.7 mb 0.00 in0.0 mm 0.00 in0.0 mm 0.00 in0.0 mm
04:02 PM 34.8°F1.6°C 16.2°F-8.8°C 46% 9.0 mph WNW14.5 kmh WNW 11.0 mph17.7 kmh 30.29 in1025.7 mb 0.00 in0.0 mm 0.00 in0.0 mm 0.00 in0.0 mm
04:01 PM 34.8°F1.6°C 16.2°F-8.8°C 46% 13.0 mph NW20.9 kmh NW 19.0 mph30.6 kmh 30.29 in1025.7 mb 0.00 in0.0 mm 0.00 in0.0 mm 0.00 in0.0 mm
04:00 PM 34.8°F1.6°C 15.1°F-9.4°C 44% 13.0 mph WNW20.9 kmh WNW 18.0 mph29.0 kmh 30.29 in1025.7 mb 0.00 in0.0 mm 0.00 in0.0 mm 0.00 in0.0 mm
03:59 PM 34.8°F1.6°C 15.6°F-9.1°C 45% 15.0 mph WNW24.1 kmh WNW 21.0 mph33.8 kmh 30.29 in1025.7 mb 0.00 in0.0 mm 0.00 in0.0 mm 0.00 in0.0 mm
03:58 PM 34.9°F1.6°C 15.2°F-9.3°C 44% 12.0 mph WNW19.3 kmh WNW 17.0 mph27.4 kmh 30.29 in1025.7 mb 0.00 in0.0 mm 0.00 in0.0 mm 0.00 in0.0 mm
03:57 PM 34.8°F1.6°C 14.6°F-9.7°C 43% 14.0 mph NW22.5 kmh NW 17.0 mph27.4 kmh 30.29 in1025.7 mb 0.00 in0.0 mm 0.00 in0.0 mm 0.00 in0.0 mm
03:56 PM 34.8°F1.6°C 14.6°F-9.7°C 43% 12.0 mph WNW19.3 kmh WNW 16.0 mph25.7 kmh 30.29 in1025.7 mb 0.00 in0.0 mm 0.00 in0.0 mm 0.00 in0.0 mm
03:55 PM 35.0°F1.7°C 15.3°F-9.3°C 44% 13.0 mph WNW20.9 kmh WNW 16.0 mph25.7 kmh 30.29 in1025.7 mb 0.00 in0.0 mm 0.00 in0.0 mm 0.00 in0.0 mm
03:54 PM 35.0°F1.7°C 15.3°F-9.3°C 44% 11.0 mph NW17.7 kmh NW 15.0 mph24.1 kmh 30.29 in1025.7 mb 0.00 in0.0 mm 0.00 in0.0 mm 0.00 in0.0 mm
03:53 PM 34.9°F1.6°C 14.7°F-9.6°C 43% 10.0 mph NW16.1 kmh NW 14.0 mph22.5 kmh 30.29 in1025.7 mb 0.00 in0.0 mm 0.00 in0.0 mm 0.00 in0.0 mm
03:52 PM 34.8°F1.6°C 14.6°F-9.7°C 43% 11.0 mph NW17.7 kmh NW 16.0 mph25.7 kmh 30.28 in1025.4 mb 0.00 in0.0 mm 0.00 in0.0 mm 0.00 in0.0 mm
03:51 PM 34.8°F1.6°C 14.6°F-9.7°C 43% 12.0 mph NW19.3 kmh NW 15.0 mph24.1 kmh 30.29 in1025.7 mb 0.00 in0.0 mm 0.00 in0.0 mm 0.00 in0.0 mm
03:50 PM 34.7°F1.5°C 14.5°F-9.7°C 43% 15.0 mph WNW24.1 kmh WNW 21.0 mph33.8 kmh 30.29 in1025.7 mb 0.00 in0.0 mm 0.00 in0.0 mm 0.00 in0.0 mm
03:49 PM 34.6°F1.4°C 14.4°F-9.8°C 43% 12.0 mph W19.3 kmh W 18.0 mph29.0 kmh 30.29 in1025.7 mb 0.00 in0.0 mm 0.00 in0.0 mm 0.00 in0.0 mm
03:48 PM 34.6°F1.4°C 14.4°F-9.8°C 43% 15.0 mph NW24.1 kmh NW 19.0 mph30.6 kmh 30.28 in1025.4 mb 0.00 in0.0 mm 0.00 in0.0 mm 0.00 in0.0 mm
03:47 PM 34.5°F1.4°C 13.8°F-10.1°C 42% 13.0 mph WNW20.9 kmh WNW 19.0 mph30.6 kmh 30.28 in1025.4 mb 0.00 in0.0 mm 0.00 in0.0 mm 0.00 in0.0 mm
03:46 PM 34.5°F1.4°C 14.3°F-9.8°C 43% 15.0 mph WNW24.1 kmh WNW 23.0 mph37.0 kmh 30.28 in1025.4 mb 0.00 in0.0 mm 0.00 in0.0 mm 0.00 in0.0 mm
03:45 PM 34.5°F1.4°C 14.3°F-9.8°C 43% 15.0 mph WNW24.1 kmh WNW 18.0 mph29.0 kmh 30.28 in1025.4 mb 0.00 in0.0 mm 0.00 in0.0 mm 0.00 in0.0 mm
03:44 PM 34.5°F1.4°C 14.3°F-9.8°C 43% 15.0 mph WNW24.1 kmh WNW 18.0 mph29.0 kmh 30.28 in1025.4 mb 0.00 in0.0 mm 0.00 in0.0 mm 0.00 in0.0 mm
03:43 PM 34.6°F1.4°C 13.9°F-10.1°C 42% 15.0 mph WNW24.1 kmh WNW 20.0 mph32.2 kmh 30.28 in1025.4 mb 0.00 in0.0 mm 0.00 in0.0 mm 0.00 in0.0 mm
03:42 PM 34.7°F1.5°C 14.0°F-10.0°C 42% 17.0 mph WNW27.4 kmh WNW 20.0 mph32.2 kmh 30.28 in1025.4 mb 0.00 in0.0 mm 0.00 in0.0 mm 0.00 in0.0 mm
03:41 PM 34.9°F1.6°C 14.2°F-9.9°C 42% 14.0 mph NW22.5 kmh NW 19.0 mph30.6 kmh 30.28 in1025.4 mb 0.00 in0.0 mm 0.00 in0.0 mm 0.00 in0.0 mm
03:40 PM 35.0°F1.7°C 14.3°F-9.8°C 42% 14.0 mph WNW22.5 kmh WNW 20.0 mph32.2 kmh 30.28 in1025.4 mb 0.00 in0.0 mm 0.00 in0.0 mm 0.00 in0.0 mm
03:39 PM 35.1°F1.7°C 14.9°F-9.5°C 43% 10.0 mph W16.1 kmh W 15.0 mph24.1 kmh 30.28 in1025.4 mb 0.00 in0.0 mm 0.00 in0.0 mm 0.00 in0.0 mm
03:38 PM 35.0°F1.7°C 14.8°F-9.6°C 43% 9.0 mph WNW14.5 kmh WNW 15.0 mph24.1 kmh 30.28 in1025.4 mb 0.00 in0.0 mm 0.00 in0.0 mm 0.00 in0.0 mm
03:37 PM 35.0°F1.7°C 15.3°F-9.3°C 44% 10.0 mph W16.1 kmh W 16.0 mph25.7 kmh 30.27 in1025.1 mb 0.00 in0.0 mm 0.00 in0.0 mm 0.00 in0.0 mm
03:36 PM 35.0°F1.7°C 15.3°F-9.3°C 44% 11.0 mph W17.7 kmh W 15.0 mph24.1 kmh 30.27 in1025.1 mb 0.00 in0.0 mm 0.00 in0.0 mm 0.00 in0.0 mm
03:35 PM 35.0°F1.7°C 15.3°F-9.3°C 44% 10.0 mph WNW16.1 kmh WNW 12.0 mph19.3 kmh 30.27 in1025.1 mb 0.00 in0.0 mm 0.00 in0.0 mm 0.00 in0.0 mm
03:34 PM 34.9°F1.6°C 14.7°F-9.6°C 43% 11.0 mph WNW17.7 kmh WNW 13.0 mph20.9 kmh 30.27 in1025.1 mb 0.00 in0.0 mm 0.00 in0.0 mm 0.00 in0.0 mm
03:33 PM 34.8°F1.6°C 14.6°F-9.7°C 43% 12.0 mph WNW19.3 kmh WNW 15.0 mph24.1 kmh 30.27 in1025.1 mb 0.00 in0.0 mm 0.00 in0.0 mm 0.00 in0.0 mm
03:32 PM 34.8°F1.6°C 15.1°F-9.4°C 44% 12.0 mph WNW19.3 kmh WNW 17.0 mph27.4 kmh 30.27 in1025.1 mb 0.00 in0.0 mm 0.00 in0.0 mm 0.00 in0.0 mm
03:31 PM 34.8°F1.6°C 15.1°F-9.4°C 44% 9.0 mph WNW14.5 kmh WNW 15.0 mph24.1 kmh 30.27 in1025.1 mb 0.00 in0.0 mm 0.00 in0.0 mm 0.00 in0.0 mm
03:30 PM 34.7°F1.5°C 15.0°F-9.4°C 44% 9.0 mph WNW14.5 kmh WNW 13.0 mph20.9 kmh 30.27 in1025.1 mb 0.00 in0.0 mm 0.00 in0.0 mm 0.00 in0.0 mm
03:29 PM 34.7°F1.5°C 14.5°F-9.7°C 43% 16.0 mph WNW25.7 kmh WNW 20.0 mph32.2 kmh 30.27 in1025.1 mb 0.00 in0.0 mm 0.00 in0.0 mm 0.00 in0.0 mm
03:28 PM 34.8°F1.6°C 14.6°F-9.7°C 43% 12.0 mph WNW19.3 kmh WNW 23.0 mph37.0 kmh 30.27 in1025.1 mb 0.00 in0.0 mm 0.00 in0.0 mm 0.00 in0.0 mm
03:27 PM 34.8°F1.6°C 14.6°F-9.7°C 43% 14.0 mph W22.5 kmh W 17.0 mph27.4 kmh 30.27 in1025.1 mb 0.00 in0.0 mm 0.00 in0.0 mm 0.00 in0.0 mm
03:26 PM 34.8°F1.6°C 14.6°F-9.7°C 43% 10.0 mph WNW16.1 kmh WNW 18.0 mph29.0 kmh 30.27 in1025.1 mb 0.00 in0.0 mm 0.00 in0.0 mm 0.00 in0.0 mm
03:25 PM 34.8°F1.6°C 14.6°F-9.7°C 43% 10.0 mph WNW16.1 kmh WNW 13.0 mph20.9 kmh 30.26 in1024.7 mb 0.00 in0.0 mm 0.00 in0.0 mm 0.00 in0.0 mm
03:24 PM 34.8°F1.6°C 15.1°F-9.4°C 44% 10.0 mph WNW16.1 kmh WNW 13.0 mph20.9 kmh 30.26 in1024.7 mb 0.00 in0.0 mm 0.00 in0.0 mm 0.00 in0.0 mm
03:23 PM 34.7°F1.5°C 15.0°F-9.4°C 44% 13.0 mph W20.9 kmh W 17.0 mph27.4 kmh 30.26 in1024.7 mb 0.00 in0.0 mm 0.00 in0.0 mm 0.00 in0.0 mm
03:22 PM 34.7°F1.5°C 14.5°F-9.7°C 43% 13.0 mph W20.9 kmh W 15.0 mph24.1 kmh 30.26 in1024.7 mb 0.00 in0.0 mm 0.00 in0.0 mm 0.00 in0.0 mm
03:21 PM 34.7°F1.5°C 14.5°F-9.7°C 43% 16.0 mph WNW25.7 kmh WNW 20.0 mph32.2 kmh 30.26 in1024.7 mb 0.00 in0.0 mm 0.00 in0.0 mm 0.00 in0.0 mm
03:20 PM 34.8°F1.6°C 15.1°F-9.4°C 44% 12.0 mph WNW19.3 kmh WNW 15.0 mph24.1 kmh 30.26 in1024.7 mb 0.00 in0.0 mm 0.00 in0.0 mm 0.00 in0.0 mm
03:19 PM 34.7°F1.5°C 14.5°F-9.7°C 43% 15.0 mph WNW24.1 kmh WNW 22.0 mph35.4 kmh 30.26 in1024.7 mb 0.00 in0.0 mm 0.00 in0.0 mm 0.00 in0.0 mm
03:18 PM 34.8°F1.6°C 14.6°F-9.7°C 43% 17.0 mph W27.4 kmh W 24.0 mph38.6 kmh 30.26 in1024.7 mb 0.00 in0.0 mm 0.00 in0.0 mm 0.00 in0.0 mm
03:17 PM 34.8°F1.6°C 14.6°F-9.7°C 43% 14.0 mph W22.5 kmh W 19.0 mph30.6 kmh 30.26 in1024.7 mb 0.00 in0.0 mm 0.00 in0.0 mm 0.00 in0.0 mm
03:16 PM 34.8°F1.6°C 14.6°F-9.7°C 43% 15.0 mph WNW24.1 kmh WNW 19.0 mph30.6 kmh 30.26 in1024.7 mb 0.00 in0.0 mm 0.00 in0.0 mm 0.00 in0.0 mm
03:15 PM 34.8°F1.6°C 14.1°F-9.9°C 42% 15.0 mph WNW24.1 kmh WNW 21.0 mph33.8 kmh 30.25 in1024.4 mb 0.00 in0.0 mm 0.00 in0.0 mm 0.00 in0.0 mm
03:14 PM 34.8°F1.6°C 14.1°F-9.9°C 42% 13.0 mph WNW20.9 kmh WNW 19.0 mph30.6 kmh 30.25 in1024.4 mb 0.00 in0.0 mm 0.00 in0.0 mm 0.00 in0.0 mm
03:13 PM 34.8°F1.6°C 14.6°F-9.7°C 43% 14.0 mph NW22.5 kmh NW 17.0 mph27.4 kmh 30.26 in1024.7 mb 0.00 in0.0 mm 0.00 in0.0 mm 0.00 in0.0 mm
03:12 PM 34.8°F1.6°C 15.6°F-9.1°C 45% 11.0 mph WNW17.7 kmh WNW 18.0 mph29.0 kmh 30.25 in1024.4 mb 0.00 in0.0 mm 0.00 in0.0 mm 0.00 in0.0 mm
03:11 PM 34.8°F1.6°C 15.1°F-9.4°C 44% 11.0 mph WNW17.7 kmh WNW 14.0 mph22.5 kmh 30.25 in1024.4 mb 0.00 in0.0 mm 0.00 in0.0 mm 0.00 in0.0 mm
03:10 PM 34.7°F1.5°C 15.6°F-9.1°C 45% 10.0 mph WNW16.1 kmh WNW 14.0 mph22.5 kmh 30.25 in1024.4 mb 0.00 in0.0 mm 0.00 in0.0 mm 0.00 in0.0 mm
03:09 PM 34.6°F1.4°C 15.0°F-9.4°C 44% 14.0 mph W22.5 kmh W 17.0 mph27.4 kmh 30.25 in1024.4 mb 0.00 in0.0 mm 0.00 in0.0 mm 0.00 in0.0 mm
03:08 PM 34.7°F1.5°C 15.6°F-9.1°C 45% 12.0 mph WNW19.3 kmh WNW 15.0 mph24.1 kmh 30.25 in1024.4 mb 0.00 in0.0 mm 0.00 in0.0 mm 0.00 in0.0 mm
03:07 PM 34.8°F1.6°C 15.6°F-9.1°C 45% 12.0 mph WNW19.3 kmh WNW 15.0 mph24.1 kmh 30.25 in1024.4 mb 0.00 in0.0 mm 0.00 in0.0 mm 0.00 in0.0 mm
03:06 PM 34.8°F1.6°C 15.6°F-9.1°C 45% 15.0 mph WNW24.1 kmh WNW 20.0 mph32.2 kmh 30.25 in1024.4 mb 0.00 in0.0 mm 0.00 in0.0 mm 0.00 in0.0 mm
03:05 PM 34.8°F1.6°C 16.2°F-8.8°C 46% 9.0 mph W14.5 kmh W 18.0 mph29.0 kmh 30.25 in1024.4 mb 0.00 in0.0 mm 0.00 in0.0 mm 0.00 in0.0 mm
03:04 PM 34.7°F1.5°C 16.1°F-8.8°C 46% 6.0 mph W9.7 kmh W 10.0 mph16.1 kmh 30.25 in1024.4 mb 0.00 in0.0 mm 0.00 in0.0 mm 0.00 in0.0 mm
03:03 PM 34.6°F1.4°C 15.5°F-9.2°C 45% 9.0 mph WNW14.5 kmh WNW 13.0 mph20.9 kmh 30.25 in1024.4 mb 0.00 in0.0 mm 0.00 in0.0 mm 0.00 in0.0 mm
03:02 PM 34.6°F1.4°C 15.5°F-9.2°C 45% 10.0 mph NW16.1 kmh NW 14.0 mph22.5 kmh 30.25 in1024.4 mb 0.00 in0.0 mm 0.00 in0.0 mm 0.00 in0.0 mm
03:01 PM 34.5°F1.4°C 15.4°F-9.2°C 45% 11.0 mph W17.7 kmh W 16.0 mph25.7 kmh 30.25 in1024.4 mb 0.00 in0.0 mm 0.00 in0.0 mm 0.00 in0.0 mm
03:00 PM 34.5°F1.4°C 14.9°F-9.5°C 44% 14.0 mph W22.5 kmh W 17.0 mph27.4 kmh 30.25 in1024.4 mb 0.00 in0.0 mm 0.00 in0.0 mm 0.00 in0.0 mm
02:59 PM 34.6°F1.4°C 15.5°F-9.2°C 45% 14.0 mph WNW22.5 kmh WNW 20.0 mph32.2 kmh 30.25 in1024.4 mb 0.00 in0.0 mm 0.00 in0.0 mm 0.00 in0.0 mm
02:58 PM 34.6°F1.4°C 15.5°F-9.2°C 45% 12.0 mph WNW19.3 kmh WNW 16.0 mph25.7 kmh 30.25 in1024.4 mb 0.00 in0.0 mm 0.00 in0.0 mm 0.00 in0.0 mm
02:57 PM 34.7°F1.5°C 15.6°F-9.1°C 45% 15.0 mph WNW24.1 kmh WNW 23.0 mph37.0 kmh 30.25 in1024.4 mb 0.00 in0.0 mm 0.00 in0.0 mm 0.00 in0.0 mm
02:56 PM 34.7°F1.5°C 16.1°F-8.8°C 46% 12.0 mph WNW19.3 kmh WNW 16.0 mph25.7 kmh 30.24 in1024.0 mb 0.00 in0.0 mm 0.00 in0.0 mm 0.00 in0.0 mm
02:55 PM 34.7°F1.5°C 16.1°F-8.8°C 46% 12.0 mph W19.3 kmh W 16.0 mph25.7 kmh 30.24 in1024.0 mb 0.00 in0.0 mm 0.00 in0.0 mm 0.00 in0.0 mm
02:54 PM 34.6°F1.4°C 16.0°F-8.9°C 46% 9.0 mph WNW14.5 kmh WNW 13.0 mph20.9 kmh 30.25 in1024.4 mb 0.00 in0.0 mm 0.00 in0.0 mm 0.00 in0.0 mm
02:53 PM 34.5°F1.4°C 15.9°F-8.9°C 46% 11.0 mph NW17.7 kmh NW 15.0 mph24.1 kmh 30.24 in1024.0 mb 0.00 in0.0 mm 0.00 in0.0 mm 0.00 in0.0 mm
02:52 PM 34.6°F1.4°C 15.0°F-9.4°C 44% 15.0 mph WNW24.1 kmh WNW 20.0 mph32.2 kmh 30.24 in1024.0 mb 0.00 in0.0 mm 0.00 in0.0 mm 0.00 in0.0 mm
02:51 PM 34.7°F1.5°C 15.6°F-9.1°C 45% 14.0 mph WNW22.5 kmh WNW 19.0 mph30.6 kmh 30.24 in1024.0 mb 0.00 in0.0 mm 0.00 in0.0 mm 0.00 in0.0 mm
02:50 PM 34.7°F1.5°C 15.6°F-9.1°C 45% 12.0 mph WNW19.3 kmh WNW 17.0 mph27.4 kmh 30.25 in1024.4 mb 0.00 in0.0 mm 0.00 in0.0 mm 0.00 in0.0 mm
02:49 PM 34.7°F1.5°C 15.6°F-9.1°C 45% 14.0 mph WNW22.5 kmh WNW 19.0 mph30.6 kmh 30.24 in1024.0 mb 0.00 in0.0 mm 0.00 in0.0 mm 0.00 in0.0 mm
02:48 PM 34.8°F1.6°C 16.2°F-8.8°C 46% 11.0 mph WNW17.7 kmh WNW 14.0 mph22.5 kmh 30.25 in1024.4 mb 0.00 in0.0 mm 0.00 in0.0 mm 0.00 in0.0 mm
02:47 PM 34.8°F1.6°C 15.6°F-9.1°C 45% 16.0 mph W25.7 kmh W 21.0 mph33.8 kmh 30.25 in1024.4 mb 0.00 in0.0 mm 0.00 in0.0 mm 0.00 in0.0 mm
02:46 PM 35.0°F1.7°C 16.3°F-8.7°C 46% 15.0 mph WNW24.1 kmh WNW 20.0 mph32.2 kmh 30.24 in1024.0 mb 0.00 in0.0 mm 0.00 in0.0 mm 0.00 in0.0 mm
02:45 PM 34.9°F1.6°C 16.7°F-8.5°C 47% 10.0 mph NW16.1 kmh NW 18.0 mph29.0 kmh 30.25 in1024.4 mb 0.00 in0.0 mm 0.00 in0.0 mm 0.00 in0.0 mm
02:44 PM 34.8°F1.6°C 16.2°F-8.8°C 46% 8.0 mph W12.9 kmh W 11.0 mph17.7 kmh 30.24 in1024.0 mb 0.00 in0.0 mm 0.00 in0.0 mm 0.00 in0.0 mm
02:43 PM 34.7°F1.5°C 16.1°F-8.8°C 46% 12.0 mph W19.3 kmh W 16.0 mph25.7 kmh 30.25 in1024.4 mb 0.00 in0.0 mm 0.00 in0.0 mm 0.00 in0.0 mm
02:42 PM 34.8°F1.6°C 16.2°F-8.8°C 46% 15.0 mph W24.1 kmh W 20.0 mph32.2 kmh 30.25 in1024.4 mb 0.00 in0.0 mm 0.00 in0.0 mm 0.00 in0.0 mm
02:41 PM 34.8°F1.6°C 16.2°F-8.8°C 46% 14.0 mph WNW22.5 kmh WNW 17.0 mph27.4 kmh 30.24 in1024.0 mb 0.00 in0.0 mm 0.00 in0.0 mm 0.00 in0.0 mm
02:40 PM 34.8°F1.6°C 17.1°F-8.3°C 48% 7.0 mph WNW11.3 kmh WNW 13.0 mph20.9 kmh 30.24 in1024.0 mb 0.00 in0.0 mm 0.00 in0.0 mm 0.00 in0.0 mm
02:39 PM 34.6°F1.4°C 16.5°F-8.6°C 47% 9.0 mph WNW14.5 kmh WNW 12.0 mph19.3 kmh 30.25 in1024.4 mb 0.00 in0.0 mm 0.00 in0.0 mm 0.00 in0.0 mm
02:38 PM 34.5°F1.4°C 15.9°F-8.9°C 46% 14.0 mph WNW22.5 kmh WNW 20.0 mph32.2 kmh 30.24 in1024.0 mb 0.00 in0.0 mm 0.00 in0.0 mm 0.00 in0.0 mm
02:37 PM 34.6°F1.4°C 16.5°F-8.6°C 47% 13.0 mph WNW20.9 kmh WNW 17.0 mph27.4 kmh 30.24 in1024.0 mb 0.00 in0.0 mm 0.00 in0.0 mm 0.00 in0.0 mm
02:36 PM 34.5°F1.4°C 16.4°F-8.7°C 47% 12.0 mph W19.3 kmh W 15.0 mph24.1 kmh 30.24 in1024.0 mb 0.00 in0.0 mm 0.00 in0.0 mm 0.00 in0.0 mm
02:35 PM 34.5°F1.4°C 16.4°F-8.7°C 47% 12.0 mph WNW19.3 kmh WNW 17.0 mph27.4 kmh 30.24 in1024.0 mb 0.00 in0.0 mm 0.00 in0.0 mm 0.00 in0.0 mm
02:34 PM 34.5°F1.4°C 15.9°F-8.9°C 46% 12.0 mph WNW19.3 kmh WNW 17.0 mph27.4 kmh 30.24 in1024.0 mb 0.00 in0.0 mm 0.00 in0.0 mm 0.00 in0.0 mm
02:33 PM 34.5°F1.4°C 16.9°F-8.4°C 48% 11.0 mph WNW17.7 kmh WNW 15.0 mph24.1 kmh 30.24 in1024.0 mb 0.00 in0.0 mm 0.00 in0.0 mm 0.00 in0.0 mm
02:32 PM 34.4°F1.3°C 16.8°F-8.4°C 48% 10.0 mph W16.1 kmh W 13.0 mph20.9 kmh 30.24 in1024.0 mb 0.00 in0.0 mm 0.00 in0.0 mm 0.00 in0.0 mm
02:31 PM 34.4°F1.3°C 16.3°F-8.7°C 47% 11.0 mph W17.7 kmh W 15.0 mph24.1 kmh 30.24 in1024.0 mb 0.00 in0.0 mm 0.00 in0.0 mm 0.00 in0.0 mm
02:30 PM 34.3°F1.3°C 15.7°F-9.1°C 46% 15.0 mph W24.1 kmh W 19.0 mph30.6 kmh 30.24 in1024.0 mb 0.00 in0.0 mm 0.00 in0.0 mm 0.00 in0.0 mm
02:29 PM 34.3°F1.3°C 16.2°F-8.8°C 47% 14.0 mph W22.5 kmh W 19.0 mph30.6 kmh 30.24 in1024.0 mb 0.00 in0.0 mm 0.00 in0.0 mm 0.00 in0.0 mm
02:28 PM 34.2°F1.2°C 16.1°F-8.8°C 47% 13.0 mph W20.9 kmh W 20.0 mph32.2 kmh 30.24 in1024.0 mb 0.00 in0.0 mm 0.00 in0.0 mm 0.00 in0.0 mm
02:27 PM 34.2°F1.2°C 15.6°F-9.1°C 46% 13.0 mph WNW20.9 kmh WNW 18.0 mph29.0 kmh 30.24 in1024.0 mb 0.00 in0.0 mm 0.00 in0.0 mm 0.00 in0.0 mm
02:26 PM 34.2°F1.2°C 16.1°F-8.8°C 47% 12.0 mph WNW19.3 kmh WNW 20.0 mph32.2 kmh 30.24 in1024.0 mb 0.00 in0.0 mm 0.00 in0.0 mm 0.00 in0.0 mm
02:25 PM 34.2°F1.2°C 16.1°F-8.8°C 47% 10.0 mph W16.1 kmh W 15.0 mph24.1 kmh 30.24 in1024.0 mb 0.00 in0.0 mm 0.00 in0.0 mm 0.00 in0.0 mm
02:24 PM 34.2°F1.2°C 16.1°F-8.8°C 47% 11.0 mph W17.7 kmh W 15.0 mph24.1 kmh 30.23 in1023.7 mb 0.00 in0.0 mm 0.00 in0.0 mm 0.00 in0.0 mm
02:23 PM 34.2°F1.2°C 16.1°F-8.8°C 47% 13.0 mph W20.9 kmh W 19.0 mph30.6 kmh 30.24 in1024.0 mb 0.00 in0.0 mm 0.00 in0.0 mm 0.00 in0.0 mm
02:22 PM 34.1°F1.2°C 17.0°F-8.3°C 49% 9.0 mph W14.5 kmh W 17.0 mph27.4 kmh 30.23 in1023.7 mb 0.00 in0.0 mm 0.00 in0.0 mm 0.00 in0.0 mm
02:21 PM 34.0°F1.1°C 16.4°F-8.7°C 48% 11.0 mph W17.7 kmh W 15.0 mph24.1 kmh 30.23 in1023.7 mb 0.00 in0.0 mm 0.00 in0.0 mm 0.00 in0.0 mm
02:20 PM 34.1°F1.2°C 16.5°F-8.6°C 48% 12.0 mph WNW19.3 kmh WNW 15.0 mph24.1 kmh 30.23 in1023.7 mb 0.00 in0.0 mm 0.00 in0.0 mm 0.00 in0.0 mm
02:19 PM 34.1°F1.2°C 16.5°F-8.6°C 48% 9.0 mph WNW14.5 kmh WNW 13.0 mph20.9 kmh 30.23 in1023.7 mb 0.00 in0.0 mm 0.00 in0.0 mm 0.00 in0.0 mm
02:18 PM 34.1°F1.2°C 16.5°F-8.6°C 48% 11.0 mph WNW17.7 kmh WNW 15.0 mph24.1 kmh 30.23 in1023.7 mb 0.00 in0.0 mm 0.00 in0.0 mm 0.00 in0.0 mm
02:17 PM 34.2°F1.2°C 17.1°F-8.3°C 49% 11.0 mph WNW17.7 kmh WNW 16.0 mph25.7 kmh 30.23 in1023.7 mb 0.00 in0.0 mm 0.00 in0.0 mm 0.00 in0.0 mm
02:16 PM 34.1°F1.2°C 16.5°F-8.6°C 48% 13.0 mph WNW20.9 kmh WNW 18.0 mph29.0 kmh 30.23 in1023.7 mb 0.00 in0.0 mm 0.00 in0.0 mm 0.00 in0.0 mm
02:15 PM 34.1°F1.2°C 16.0°F-8.9°C 47% 12.0 mph NW19.3 kmh NW 15.0 mph24.1 kmh 30.23 in1023.7 mb 0.00 in0.0 mm 0.00 in0.0 mm 0.00 in0.0 mm
02:14 PM 34.0°F1.1°C 16.4°F-8.7°C 48% 14.0 mph WNW22.5 kmh WNW 19.0 mph30.6 kmh 30.23 in1023.7 mb 0.00 in0.0 mm 0.00 in0.0 mm 0.00 in0.0 mm
02:13 PM 34.0°F1.1°C 16.9°F-8.4°C 49% 11.0 mph W17.7 kmh W 17.0 mph27.4 kmh 30.23 in1023.7 mb 0.00 in0.0 mm 0.00 in0.0 mm 0.00 in0.0 mm
02:12 PM 33.9°F1.1°C 15.8°F-9.0°C 47% 12.0 mph WNW19.3 kmh WNW 16.0 mph25.7 kmh 30.23 in1023.7 mb 0.00 in0.0 mm 0.00 in0.0 mm 0.00 in0.0 mm
02:11 PM 33.9°F1.1°C 16.3°F-8.7°C 48% 14.0 mph W22.5 kmh W 19.0 mph30.6 kmh 30.23 in1023.7 mb 0.00 in0.0 mm 0.00 in0.0 mm 0.00 in0.0 mm
02:10 PM 33.8°F1.0°C 16.2°F-8.8°C 48% 13.0 mph WNW20.9 kmh WNW 17.0 mph27.4 kmh 30.23 in1023.7 mb 0.00 in0.0 mm 0.00 in0.0 mm 0.00 in0.0 mm
02:09 PM 33.8°F1.0°C 16.2°F-8.8°C 48% 12.0 mph WNW19.3 kmh WNW 19.0 mph30.6 kmh 30.23 in1023.7 mb 0.00 in0.0 mm 0.00 in0.0 mm 0.00 in0.0 mm
02:08 PM 33.7°F0.9°C 16.1°F-8.8°C 48% 13.0 mph NW20.9 kmh NW 19.0 mph30.6 kmh 30.23 in1023.7 mb 0.00 in0.0 mm 0.00 in0.0 mm 0.00 in0.0 mm
02:07 PM 33.7°F0.9°C 16.1°F-8.8°C 48% 14.0 mph WNW22.5 kmh WNW 18.0 mph29.0 kmh 30.22 in1023.4 mb 0.00 in0.0 mm 0.00 in0.0 mm 0.00 in0.0 mm
02:06 PM 33.7°F0.9°C 16.6°F-8.6°C 49% 12.0 mph WNW19.3 kmh WNW 20.0 mph32.2 kmh 30.22 in1023.4 mb 0.00 in0.0 mm 0.00 in0.0 mm 0.00 in0.0 mm
02:05 PM 33.6°F0.9°C 16.5°F-8.6°C 49% 11.0 mph W17.7 kmh W 19.0 mph30.6 kmh 30.22 in1023.4 mb 0.00 in0.0 mm 0.00 in0.0 mm 0.00 in0.0 mm
02:04 PM 33.4°F0.8°C 16.3°F-8.7°C 49% 15.0 mph W24.1 kmh W 24.0 mph38.6 kmh 30.22 in1023.4 mb 0.00 in0.0 mm 0.00 in0.0 mm 0.00 in0.0 mm
02:03 PM 33.4°F0.8°C 15.8°F-9.0°C 48% 12.0 mph WNW19.3 kmh WNW 18.0 mph29.0 kmh 30.22 in1023.4 mb 0.00 in0.0 mm 0.00 in0.0 mm 0.00 in0.0 mm
02:02 PM 33.3°F0.7°C 15.8°F-9.0°C 48% 13.0 mph W20.9 kmh W 18.0 mph29.0 kmh 30.22 in1023.4 mb 0.00 in0.0 mm 0.00 in0.0 mm 0.00 in0.0 mm
02:01 PM 33.3°F0.7°C 15.8°F-9.0°C 48% 12.0 mph W19.3 kmh W 20.0 mph32.2 kmh 30.22 in1023.4 mb 0.00 in0.0 mm 0.00 in0.0 mm 0.00 in0.0 mm
02:00 PM 33.3°F0.7°C 15.8°F-9.0°C 48% 13.0 mph WNW20.9 kmh WNW 17.0 mph27.4 kmh 30.22 in1023.4 mb 0.00 in0.0 mm 0.00 in0.0 mm 0.00 in0.0 mm
01:59 PM 33.4°F0.8°C 15.8°F-9.0°C 48% 13.0 mph W20.9 kmh W 17.0 mph27.4 kmh 30.21 in1023.0 mb 0.00 in0.0 mm 0.00 in0.0 mm 0.00 in0.0 mm
01:58 PM 33.4°F0.8°C 15.8°F-9.0°C 48% 13.0 mph W20.9 kmh W 16.0 mph25.7 kmh 30.21 in1023.0 mb 0.00 in0.0 mm 0.00 in0.0 mm 0.00 in0.0 mm
01:57 PM 33.5°F0.8°C 15.9°F-8.9°C 48% 17.0 mph WNW27.4 kmh WNW 26.0 mph41.8 kmh 30.21 in1023.0 mb 0.00 in0.0 mm 0.00 in0.0 mm 0.00 in0.0 mm
01:56 PM 33.5°F0.8°C 15.5°F-9.2°C 47% 13.0 mph WNW20.9 kmh WNW 18.0 mph29.0 kmh 30.21 in1023.0 mb 0.00 in0.0 mm 0.00 in0.0 mm 0.00 in0.0 mm
01:55 PM 33.6°F0.9°C 15.1°F-9.4°C 46% 16.0 mph W25.7 kmh W 23.0 mph37.0 kmh 30.21 in1023.0 mb 0.00 in0.0 mm 0.00 in0.0 mm 0.00 in0.0 mm
01:54 PM 33.8°F1.0°C 15.7°F-9.1°C 47% 17.0 mph W27.4 kmh W 22.0 mph35.4 kmh 30.21 in1023.0 mb 0.00 in0.0 mm 0.00 in0.0 mm 0.00 in0.0 mm
01:53 PM 34.0°F1.1°C 16.4°F-8.7°C 48% 17.0 mph W27.4 kmh W 23.0 mph37.0 kmh 30.21 in1023.0 mb 0.00 in0.0 mm 0.00 in0.0 mm 0.00 in0.0 mm
01:52 PM 34.0°F1.1°C 15.9°F-8.9°C 47% 11.0 mph WNW17.7 kmh WNW 17.0 mph27.4 kmh 30.21 in1023.0 mb 0.00 in0.0 mm 0.00 in0.0 mm 0.00 in0.0 mm
01:51 PM 34.1°F1.2°C 16.0°F-8.9°C 47% 17.0 mph WNW27.4 kmh WNW 22.0 mph35.4 kmh 30.21 in1023.0 mb 0.00 in0.0 mm 0.00 in0.0 mm 0.00 in0.0 mm
01:50 PM 34.4°F1.3°C 15.8°F-9.0°C 46% 20.0 mph W32.2 kmh W 26.0 mph41.8 kmh 30.21 in1023.0 mb 0.00 in0.0 mm 0.00 in0.0 mm 0.00 in0.0 mm
01:49 PM 34.6°F1.4°C 16.9°F-8.4°C 48% 12.0 mph W19.3 kmh W 22.0 mph35.4 kmh 30.21 in1023.0 mb 0.00 in0.0 mm 0.00 in0.0 mm 0.00 in0.0 mm
01:48 PM 34.6°F1.4°C 17.4°F-8.1°C 49% 9.0 mph W14.5 kmh W 14.0 mph22.5 kmh 30.21 in1023.0 mb 0.00 in0.0 mm 0.00 in0.0 mm 0.00 in0.0 mm
01:47 PM 34.5°F1.4°C 16.9°F-8.4°C 48% 14.0 mph W22.5 kmh W 20.0 mph32.2 kmh 30.21 in1023.0 mb 0.00 in0.0 mm 0.00 in0.0 mm 0.00 in0.0 mm
01:46 PM 34.3°F1.3°C 17.6°F-8.0°C 50% 11.0 mph W17.7 kmh W 15.0 mph24.1 kmh 30.21 in1023.0 mb 0.00 in0.0 mm 0.00 in0.0 mm 0.00 in0.0 mm
01:45 PM 34.1°F1.2°C 17.0°F-8.3°C 49% 7.0 mph WNW11.3 kmh WNW 11.0 mph17.7 kmh 30.21 in1023.0 mb 0.00 in0.0 mm 0.00 in0.0 mm 0.00 in0.0 mm
01:44 PM 34.1°F1.2°C 17.0°F-8.3°C 49% 10.0 mph NW16.1 kmh NW 13.0 mph20.9 kmh 30.21 in1023.0 mb 0.00 in0.0 mm 0.00 in0.0 mm 0.00 in0.0 mm
01:43 PM 34.0°F1.1°C 16.9°F-8.4°C 49% 11.0 mph NW17.7 kmh NW 14.0 mph22.5 kmh 30.22 in1023.4 mb 0.00 in0.0 mm 0.00 in0.0 mm 0.00 in0.0 mm
01:42 PM 33.9°F1.1°C 16.8°F-8.4°C 49% 10.0 mph WNW16.1 kmh WNW 12.0 mph19.3 kmh 30.21 in1023.0 mb 0.00 in0.0 mm 0.00 in0.0 mm 0.00 in0.0 mm
01:41 PM 33.9°F1.1°C 16.3°F-8.7°C 48% 11.0 mph WNW17.7 kmh WNW 16.0 mph25.7 kmh 30.21 in1023.0 mb 0.00 in0.0 mm 0.00 in0.0 mm 0.00 in0.0 mm
01:40 PM 33.8°F1.0°C 15.7°F-9.1°C 47% 9.0 mph NW14.5 kmh NW 14.0 mph22.5 kmh 30.21 in1023.0 mb 0.00 in0.0 mm 0.00 in0.0 mm 0.00 in0.0 mm
01:39 PM 33.8°F1.0°C 16.2°F-8.8°C 48% 14.0 mph W22.5 kmh W 20.0 mph32.2 kmh 30.21 in1023.0 mb 0.00 in0.0 mm 0.00 in0.0 mm 0.00 in0.0 mm
01:38 PM 33.8°F1.0°C 16.2°F-8.8°C 48% 12.0 mph W19.3 kmh W 19.0 mph30.6 kmh 30.21 in1023.0 mb 0.00 in0.0 mm 0.00 in0.0 mm 0.00 in0.0 mm
01:37 PM 33.8°F1.0°C 16.2°F-8.8°C 48% 14.0 mph NW22.5 kmh NW 21.0 mph33.8 kmh 30.21 in1023.0 mb 0.00 in0.0 mm 0.00 in0.0 mm 0.00 in0.0 mm
01:36 PM 33.8°F1.0°C 16.2°F-8.8°C 48% 13.0 mph WNW20.9 kmh WNW 18.0 mph29.0 kmh 30.21 in1023.0 mb 0.00 in0.0 mm 0.00 in0.0 mm 0.00 in0.0 mm
01:35 PM 33.7°F0.9°C 16.6°F-8.6°C 49% 10.0 mph NW16.1 kmh NW 14.0 mph22.5 kmh 30.21 in1023.0 mb 0.00 in0.0 mm 0.00 in0.0 mm 0.00 in0.0 mm
01:34 PM 33.7°F0.9°C 15.6°F-9.1°C 47% 11.0 mph WNW17.7 kmh WNW 16.0 mph25.7 kmh 30.20 in1022.7 mb 0.00 in0.0 mm 0.00 in0.0 mm 0.00 in0.0 mm
01:33 PM 33.7°F0.9°C 16.1°F-8.8°C 48% 14.0 mph W22.5 kmh W 17.0 mph27.4 kmh 30.20 in1022.7 mb 0.00 in0.0 mm 0.00 in0.0 mm 0.00 in0.0 mm
01:32 PM 33.8°F1.0°C 16.2°F-8.8°C 48% 10.0 mph WNW16.1 kmh WNW 15.0 mph24.1 kmh 30.20 in1022.7 mb 0.00 in0.0 mm 0.00 in0.0 mm 0.00 in0.0 mm
01:31 PM 33.8°F1.0°C 15.7°F-9.1°C 47% 15.0 mph NW24.1 kmh NW 19.0 mph30.6 kmh 30.20 in1022.7 mb 0.00 in0.0 mm 0.00 in0.0 mm 0.00 in0.0 mm
01:30 PM 33.8°F1.0°C 16.2°F-8.8°C 48% 14.0 mph WNW22.5 kmh WNW 18.0 mph29.0 kmh 30.21 in1023.0 mb 0.00 in0.0 mm 0.00 in0.0 mm 0.00 in0.0 mm
01:29 PM 33.8°F1.0°C 16.2°F-8.8°C 48% 14.0 mph NW22.5 kmh NW 20.0 mph32.2 kmh 30.20 in1022.7 mb 0.00 in0.0 mm 0.00 in0.0 mm 0.00 in0.0 mm
01:28 PM 33.9°F1.1°C 16.3°F-8.7°C 48% 14.0 mph NW22.5 kmh NW 19.0 mph30.6 kmh 30.20 in1022.7 mb 0.00 in0.0 mm 0.00 in0.0 mm 0.00 in0.0 mm
01:27 PM 34.0°F1.1°C 16.4°F-8.7°C 48% 14.0 mph W22.5 kmh W 21.0 mph33.8 kmh 30.20 in1022.7 mb 0.00 in0.0 mm 0.00 in0.0 mm 0.00 in0.0 mm
01:26 PM 34.0°F1.1°C 15.9°F-8.9°C 47% 11.0 mph WNW17.7 kmh WNW 15.0 mph24.1 kmh 30.20 in1022.7 mb 0.00 in0.0 mm 0.00 in0.0 mm 0.00 in0.0 mm
01:25 PM 34.0°F1.1°C 15.9°F-8.9°C 47% 13.0 mph WNW20.9 kmh WNW 18.0 mph29.0 kmh 30.20 in1022.7 mb 0.00 in0.0 mm 0.00 in0.0 mm 0.00 in0.0 mm
01:24 PM 34.1°F1.2°C 15.5°F-9.2°C 46% 15.0 mph WNW24.1 kmh WNW 21.0 mph33.8 kmh 30.20 in1022.7 mb 0.00 in0.0 mm 0.00 in0.0 mm 0.00 in0.0 mm
01:23 PM 34.2°F1.2°C 15.6°F-9.1°C 46% 14.0 mph WNW22.5 kmh WNW 17.0 mph27.4 kmh 30.20 in1022.7 mb 0.00 in0.0 mm 0.00 in0.0 mm 0.00 in0.0 mm
01:22 PM 34.3°F1.3°C 15.2°F-9.3°C 45% 14.0 mph WNW22.5 kmh WNW 18.0 mph29.0 kmh 30.20 in1022.7 mb 0.00 in0.0 mm 0.00 in0.0 mm 0.00 in0.0 mm
01:21 PM 34.3°F1.3°C 16.2°F-8.8°C 47% 12.0 mph NW19.3 kmh NW 18.0 mph29.0 kmh 30.20 in1022.7 mb 0.00 in0.0 mm 0.00 in0.0 mm 0.00 in0.0 mm
01:20 PM 34.3°F1.3°C 15.7°F-9.1°C 46% 15.0 mph W24.1 kmh W 19.0 mph30.6 kmh 30.20 in1022.7 mb 0.00 in0.0 mm 0.00 in0.0 mm 0.00 in0.0 mm
01:19 PM 34.3°F1.3°C 16.7°F-8.5°C 48% 11.0 mph NW17.7 kmh NW 16.0 mph25.7 kmh 30.19 in1022.4 mb 0.00 in0.0 mm 0.00 in0.0 mm 0.00 in0.0 mm
01:18 PM 34.2°F1.2°C 16.6°F-8.6°C 48% 12.0 mph NW19.3 kmh NW 17.0 mph27.4 kmh 30.19 in1022.4 mb 0.00 in0.0 mm 0.00 in0.0 mm 0.00 in0.0 mm
01:17 PM 34.2°F1.2°C 16.1°F-8.8°C 47% 15.0 mph NW24.1 kmh NW 19.0 mph30.6 kmh 30.19 in1022.4 mb 0.00 in0.0 mm 0.00 in0.0 mm 0.00 in0.0 mm
01:16 PM 34.2°F1.2°C 16.6°F-8.6°C 48% 14.0 mph WNW22.5 kmh WNW 18.0 mph29.0 kmh 30.19 in1022.4 mb 0.00 in0.0 mm 0.00 in0.0 mm 0.00 in0.0 mm
01:15 PM 34.2°F1.2°C 16.6°F-8.6°C 48% 14.0 mph NW22.5 kmh NW 18.0 mph29.0 kmh 30.19 in1022.4 mb 0.00 in0.0 mm 0.00 in0.0 mm 0.00 in0.0 mm
01:14 PM 34.2°F1.2°C 16.6°F-8.6°C 48% 11.0 mph WNW17.7 kmh WNW 16.0 mph25.7 kmh 30.19 in1022.4 mb 0.00 in0.0 mm 0.00 in0.0 mm 0.00 in0.0 mm
01:13 PM 34.1°F1.2°C 16.5°F-8.6°C 48% 12.0 mph NW19.3 kmh NW 18.0 mph29.0 kmh 30.19 in1022.4 mb 0.00 in0.0 mm 0.00 in0.0 mm 0.00 in0.0 mm
01:12 PM 34.0°F1.1°C 15.9°F-8.9°C 47% 15.0 mph WNW24.1 kmh WNW 19.0 mph30.6 kmh 30.19 in1022.4 mb 0.00 in0.0 mm 0.00 in0.0 mm 0.00 in0.0 mm
01:11 PM 34.0°F1.1°C 17.3°F-8.2°C 50% 15.0 mph WNW24.1 kmh WNW 22.0 mph35.4 kmh 30.19 in1022.4 mb 0.00 in0.0 mm 0.00 in0.0 mm 0.00 in0.0 mm
01:10 PM 34.0°F1.1°C 16.9°F-8.4°C 49% 13.0 mph WNW20.9 kmh WNW 17.0 mph27.4 kmh 30.19 in1022.4 mb 0.00 in0.0 mm 0.00 in0.0 mm 0.00 in0.0 mm
01:09 PM 33.9°F1.1°C 17.2°F-8.2°C 50% 13.0 mph WNW20.9 kmh WNW 18.0 mph29.0 kmh 30.19 in1022.4 mb 0.00 in0.0 mm 0.00 in0.0 mm 0.00 in0.0 mm
01:08 PM 33.9°F1.1°C 16.8°F-8.4°C 49% 13.0 mph WNW20.9 kmh WNW 17.0 mph27.4 kmh 30.19 in1022.4 mb 0.00 in0.0 mm 0.00 in0.0 mm 0.00 in0.0 mm
01:07 PM 33.9°F1.1°C 16.8°F-8.4°C 49% 14.0 mph NW22.5 kmh NW 21.0 mph33.8 kmh 30.19 in1022.4 mb 0.00 in0.0 mm 0.00 in0.0 mm 0.00 in0.0 mm
01:06 PM 33.8°F1.0°C 16.7°F-8.5°C 49% 16.0 mph W25.7 kmh W 21.0 mph33.8 kmh 30.19 in1022.4 mb 0.00 in0.0 mm 0.00 in0.0 mm 0.00 in0.0 mm
01:05 PM 33.7°F0.9°C 15.6°F-9.1°C 47% 15.0 mph WNW24.1 kmh WNW 19.0 mph30.6 kmh 30.19 in1022.4 mb 0.00 in0.0 mm 0.00 in0.0 mm 0.00 in0.0 mm
01:04 PM 33.7°F0.9°C 16.1°F-8.8°C 48% 14.0 mph WNW22.5 kmh WNW 19.0 mph30.6 kmh 30.19 in1022.4 mb 0.00 in0.0 mm 0.00 in0.0 mm 0.00 in0.0 mm
01:03 PM 33.6°F0.9°C 16.5°F-8.6°C 49% 14.0 mph W22.5 kmh W 20.0 mph32.2 kmh 30.19 in1022.4 mb 0.00 in0.0 mm 0.00 in0.0 mm 0.00 in0.0 mm
01:02 PM 33.6°F0.9°C 16.5°F-8.6°C 49% 14.0 mph WNW22.5 kmh WNW 20.0 mph32.2 kmh 30.19 in1022.4 mb 0.00 in0.0 mm 0.00 in0.0 mm 0.00 in0.0 mm
01:01 PM 33.5°F0.8°C 16.4°F-8.7°C 49% 15.0 mph WNW24.1 kmh WNW 20.0 mph32.2 kmh 30.19 in1022.4 mb 0.00 in0.0 mm 0.00 in0.0 mm 0.00 in0.0 mm
01:00 PM 33.5°F0.8°C 16.9°F-8.4°C 50% 14.0 mph WNW22.5 kmh WNW 17.0 mph27.4 kmh 30.19 in1022.4 mb 0.00 in0.0 mm 0.00 in0.0 mm 0.00 in0.0 mm
12:59 PM 33.6°F0.9°C 17.0°F-8.3°C 50% 12.0 mph WNW19.3 kmh WNW 18.0 mph29.0 kmh 30.19 in1022.4 mb 0.00 in0.0 mm 0.00 in0.0 mm 0.00 in0.0 mm
12:58 PM 33.5°F0.8°C 16.9°F-8.4°C 50% 9.0 mph WNW14.5 kmh WNW 17.0 mph27.4 kmh 30.19 in1022.4 mb 0.00 in0.0 mm 0.00 in0.0 mm 0.00 in0.0 mm
12:57 PM 33.6°F0.9°C 16.5°F-8.6°C 49% 11.0 mph NW17.7 kmh NW 13.0 mph20.9 kmh 30.19 in1022.4 mb 0.00 in0.0 mm 0.00 in0.0 mm 0.00 in0.0 mm
12:56 PM 33.7°F0.9°C 17.1°F-8.3°C 50% 13.0 mph NW20.9 kmh NW 16.0 mph25.7 kmh 30.19 in1022.4 mb 0.00 in0.0 mm 0.00 in0.0 mm 0.00 in0.0 mm
12:55 PM 33.7°F0.9°C 17.1°F-8.3°C 50% 11.0 mph NW17.7 kmh NW 17.0 mph27.4 kmh 30.19 in1022.4 mb 0.00 in0.0 mm 0.00 in0.0 mm 0.00 in0.0 mm
12:54 PM 33.6°F0.9°C 16.5°F-8.6°C 49% 14.0 mph NW22.5 kmh NW 18.0 mph29.0 kmh 30.19 in1022.4 mb 0.00 in0.0 mm 0.00 in0.0 mm 0.00 in0.0 mm
12:53 PM 33.6°F0.9°C 16.5°F-8.6°C 49% 14.0 mph NW22.5 kmh NW 17.0 mph27.4 kmh 30.19 in1022.4 mb 0.00 in0.0 mm 0.00 in0.0 mm 0.00 in0.0 mm
12:52 PM 33.5°F0.8°C 16.4°F-8.7°C 49% 14.0 mph NW22.5 kmh NW 18.0 mph29.0 kmh 30.20 in1022.7 mb 0.00 in0.0 mm 0.00 in0.0 mm 0.00 in0.0 mm
12:51 PM 33.5°F0.8°C 16.4°F-8.7°C 49% 14.0 mph WNW22.5 kmh WNW 22.0 mph35.4 kmh 30.19 in1022.4 mb 0.00 in0.0 mm 0.00 in0.0 mm 0.00 in0.0 mm
12:50 PM 33.5°F0.8°C 15.9°F-8.9°C 48% 20.0 mph WNW32.2 kmh WNW 29.0 mph46.7 kmh 30.19 in1022.4 mb 0.00 in0.0 mm 0.00 in0.0 mm 0.00 in0.0 mm
12:49 PM 33.5°F0.8°C 16.4°F-8.7°C 49% 19.0 mph WNW30.6 kmh WNW 22.0 mph35.4 kmh 30.19 in1022.4 mb 0.00 in0.0 mm 0.00 in0.0 mm 0.00 in0.0 mm
12:48 PM 33.5°F0.8°C 16.9°F-8.4°C 50% 16.0 mph NW25.7 kmh NW 23.0 mph37.0 kmh 30.19 in1022.4 mb 0.00 in0.0 mm 0.00 in0.0 mm 0.00 in0.0 mm
12:47 PM 33.5°F0.8°C 15.9°F-8.9°C 48% 15.0 mph NW24.1 kmh NW 20.0 mph32.2 kmh 30.19 in1022.4 mb 0.00 in0.0 mm 0.00 in0.0 mm 0.00 in0.0 mm
12:46 PM 33.5°F0.8°C 16.4°F-8.7°C 49% 16.0 mph WNW25.7 kmh WNW 24.0 mph38.6 kmh 30.19 in1022.4 mb 0.00 in0.0 mm 0.00 in0.0 mm 0.00 in0.0 mm
12:45 PM 33.7°F0.9°C 16.6°F-8.6°C 49% 17.0 mph WNW27.4 kmh WNW 22.0 mph35.4 kmh 30.19 in1022.4 mb 0.00 in0.0 mm 0.00 in0.0 mm 0.00 in0.0 mm
12:44 PM 33.8°F1.0°C 16.2°F-8.8°C 48% 15.0 mph WNW24.1 kmh WNW 24.0 mph38.6 kmh 30.19 in1022.4 mb 0.00 in0.0 mm 0.00 in0.0 mm 0.00 in0.0 mm
12:43 PM 34.0°F1.1°C 16.4°F-8.7°C 48% 15.0 mph W24.1 kmh W 22.0 mph35.4 kmh 30.19 in1022.4 mb 0.00 in0.0 mm 0.00 in0.0 mm 0.00 in0.0 mm
12:42 PM 34.1°F1.2°C 16.5°F-8.6°C 48% 15.0 mph WNW24.1 kmh WNW 20.0 mph32.2 kmh 30.19 in1022.4 mb 0.00 in0.0 mm 0.00 in0.0 mm 0.00 in0.0 mm
12:41 PM 34.2°F1.2°C 17.1°F-8.3°C 49% 10.0 mph WNW16.1 kmh WNW 16.0 mph25.7 kmh 30.19 in1022.4 mb 0.00 in0.0 mm 0.00 in0.0 mm 0.00 in0.0 mm
12:40 PM 34.1°F1.2°C 18.3°F-7.6°C 52% 11.0 mph NW17.7 kmh NW 16.0 mph25.7 kmh 30.19 in1022.4 mb 0.00 in0.0 mm 0.00 in0.0 mm 0.00 in0.0 mm
12:39 PM 34.1°F1.2°C 18.3°F-7.6°C 52% 8.0 mph NW12.9 kmh NW 12.0 mph19.3 kmh 30.19 in1022.4 mb 0.00 in0.0 mm 0.00 in0.0 mm 0.00 in0.0 mm
12:38 PM 34.1°F1.2°C 17.4°F-8.1°C 50% 10.0 mph NW16.1 kmh NW 13.0 mph20.9 kmh 30.19 in1022.4 mb 0.00 in0.0 mm 0.00 in0.0 mm 0.00 in0.0 mm
12:37 PM 34.2°F1.2°C 18.0°F-7.8°C 51% 12.0 mph WNW19.3 kmh WNW 16.0 mph25.7 kmh 30.19 in1022.4 mb 0.00 in0.0 mm 0.00 in0.0 mm 0.00 in0.0 mm
12:36 PM 34.3°F1.3°C 18.1°F-7.7°C 51% 13.0 mph NW20.9 kmh NW 17.0 mph27.4 kmh 30.19 in1022.4 mb 0.00 in0.0 mm 0.00 in0.0 mm 0.00 in0.0 mm
12:35 PM 34.3°F1.3°C 17.6°F-8.0°C 50% 10.0 mph NW16.1 kmh NW 15.0 mph24.1 kmh 30.18 in1022.0 mb 0.00 in0.0 mm 0.00 in0.0 mm 0.00 in0.0 mm
12:34 PM 34.3°F1.3°C 17.1°F-8.3°C 49% 12.0 mph WNW19.3 kmh WNW 15.0 mph24.1 kmh 30.19 in1022.4 mb 0.00 in0.0 mm 0.00 in0.0 mm 0.00 in0.0 mm
12:33 PM 34.3°F1.3°C 17.6°F-8.0°C 50% 15.0 mph NW24.1 kmh NW 20.0 mph32.2 kmh 30.19 in1022.4 mb 0.00 in0.0 mm 0.00 in0.0 mm 0.00 in0.0 mm
12:32 PM 34.3°F1.3°C 18.1°F-7.7°C 51% 12.0 mph NW19.3 kmh NW 18.0 mph29.0 kmh 30.18 in1022.0 mb 0.00 in0.0 mm 0.00 in0.0 mm 0.00 in0.0 mm
12:31 PM 34.2°F1.2°C 17.1°F-8.3°C 49% 11.0 mph W17.7 kmh W 16.0 mph25.7 kmh 30.18 in1022.0 mb 0.00 in0.0 mm 0.00 in0.0 mm 0.00 in0.0 mm
12:30 PM 34.1°F1.2°C 17.4°F-8.1°C 50% 7.0 mph NNW11.3 kmh NNW 11.0 mph17.7 kmh 30.18 in1022.0 mb 0.00 in0.0 mm 0.00 in0.0 mm 0.00 in0.0 mm
12:29 PM 33.9°F1.1°C 16.8°F-8.4°C 49% 14.0 mph NNW22.5 kmh NNW 20.0 mph32.2 kmh 30.18 in1022.0 mb 0.00 in0.0 mm 0.00 in0.0 mm 0.00 in0.0 mm
12:28 PM 33.9°F1.1°C 17.7°F-7.9°C 51% 11.0 mph NNW17.7 kmh NNW 15.0 mph24.1 kmh 30.18 in1022.0 mb 0.00 in0.0 mm 0.00 in0.0 mm 0.00 in0.0 mm
12:27 PM 33.8°F1.0°C 17.6°F-8.0°C 51% 10.0 mph NW16.1 kmh NW 14.0 mph22.5 kmh 30.18 in1022.0 mb 0.00 in0.0 mm 0.00 in0.0 mm 0.00 in0.0 mm
12:26 PM 33.8°F1.0°C 18.1°F-7.7°C 52% 11.0 mph NW17.7 kmh NW 14.0 mph22.5 kmh 30.18 in1022.0 mb 0.00 in0.0 mm 0.00 in0.0 mm 0.00 in0.0 mm
12:25 PM 33.7°F0.9°C 17.5°F-8.1°C 51% 9.0 mph NW14.5 kmh NW 11.0 mph17.7 kmh 30.18 in1022.0 mb 0.00 in0.0 mm 0.00 in0.0 mm 0.00 in0.0 mm
12:24 PM 33.7°F0.9°C 17.5°F-8.1°C 51% 11.0 mph NW17.7 kmh NW 15.0 mph24.1 kmh 30.18 in1022.0 mb 0.00 in0.0 mm 0.00 in0.0 mm 0.00 in0.0 mm
12:23 PM 33.8°F1.0°C 17.6°F-8.0°C 51% 11.0 mph WNW17.7 kmh WNW 14.0 mph22.5 kmh 30.18 in1022.0 mb 0.00 in0.0 mm 0.00 in0.0 mm 0.00 in0.0 mm
12:22 PM 33.9°F1.1°C 17.2°F-8.2°C 50% 10.0 mph WNW16.1 kmh WNW 14.0 mph22.5 kmh 30.18 in1022.0 mb 0.00 in0.0 mm 0.00 in0.0 mm 0.00 in0.0 mm
12:21 PM 34.0°F1.1°C 16.9°F-8.4°C 49% 12.0 mph WNW19.3 kmh WNW 14.0 mph22.5 kmh 30.18 in1022.0 mb 0.00 in0.0 mm 0.00 in0.0 mm 0.00 in0.0 mm
12:20 PM 34.1°F1.2°C 17.9°F-7.8°C 51% 11.0 mph WNW17.7 kmh WNW 13.0 mph20.9 kmh 30.17 in1021.7 mb 0.00 in0.0 mm 0.00 in0.0 mm 0.00 in0.0 mm
12:19 PM 34.2°F1.2°C 18.0°F-7.8°C 51% 10.0 mph NW16.1 kmh NW 13.0 mph20.9 kmh 30.18 in1022.0 mb 0.00 in0.0 mm 0.00 in0.0 mm 0.00 in0.0 mm
12:18 PM 34.2°F1.2°C 18.0°F-7.8°C 51% 9.0 mph NW14.5 kmh NW 13.0 mph20.9 kmh 30.17 in1021.7 mb 0.00 in0.0 mm 0.00 in0.0 mm 0.00 in0.0 mm
12:17 PM 34.2°F1.2°C 18.0°F-7.8°C 51% 11.0 mph WNW17.7 kmh WNW 15.0 mph24.1 kmh 30.17 in1021.7 mb 0.00 in0.0 mm 0.00 in0.0 mm 0.00 in0.0 mm
12:16 PM 34.2°F1.2°C 18.0°F-7.8°C 51% 12.0 mph NW19.3 kmh NW 16.0 mph25.7 kmh 30.17 in1021.7 mb 0.00 in0.0 mm 0.00 in0.0 mm 0.00 in0.0 mm
12:15 PM 34.1°F1.2°C 17.9°F-7.8°C 51% 11.0 mph NNW17.7 kmh NNW 15.0 mph24.1 kmh 30.17 in1021.7 mb 0.00 in0.0 mm 0.00 in0.0 mm 0.00 in0.0 mm
12:14 PM 34.0°F1.1°C 17.3°F-8.2°C 50% 10.0 mph NNW16.1 kmh NNW 15.0 mph24.1 kmh 30.17 in1021.7 mb 0.00 in0.0 mm 0.00 in0.0 mm 0.00 in0.0 mm
12:13 PM 33.9°F1.1°C 17.2°F-8.2°C 50% 17.0 mph WNW27.4 kmh WNW 21.0 mph33.8 kmh 30.17 in1021.7 mb 0.00 in0.0 mm 0.00 in0.0 mm 0.00 in0.0 mm
12:12 PM 33.8°F1.0°C 17.2°F-8.2°C 50% 13.0 mph NW20.9 kmh NW 17.0 mph27.4 kmh 30.17 in1021.7 mb 0.00 in0.0 mm 0.00 in0.0 mm 0.00 in0.0 mm
12:11 PM 33.7°F0.9°C 16.6°F-8.6°C 49% 13.0 mph NNW20.9 kmh NNW 19.0 mph30.6 kmh 30.17 in1021.7 mb 0.00 in0.0 mm 0.00 in0.0 mm 0.00 in0.0 mm
12:10 PM 33.6°F0.9°C 16.5°F-8.6°C 49% 11.0 mph WNW17.7 kmh WNW 18.0 mph29.0 kmh 30.17 in1021.7 mb 0.00 in0.0 mm 0.00 in0.0 mm 0.00 in0.0 mm
12:09 PM 33.5°F0.8°C 17.8°F-7.9°C 52% 13.0 mph WNW20.9 kmh WNW 17.0 mph27.4 kmh 30.17 in1021.7 mb 0.00 in0.0 mm 0.00 in0.0 mm 0.00 in0.0 mm
12:08 PM 33.5°F0.8°C 17.8°F-7.9°C 52% 10.0 mph WNW16.1 kmh WNW 14.0 mph22.5 kmh 30.17 in1021.7 mb 0.00 in0.0 mm 0.00 in0.0 mm 0.00 in0.0 mm
12:07 PM 33.5°F0.8°C 18.2°F-7.7°C 53% 12.0 mph NNW19.3 kmh NNW 15.0 mph24.1 kmh 30.17 in1021.7 mb 0.00 in0.0 mm 0.00 in0.0 mm 0.00 in0.0 mm
12:06 PM 33.4°F0.8°C 18.1°F-7.7°C 53% 11.0 mph NW17.7 kmh NW 15.0 mph24.1 kmh 30.17 in1021.7 mb 0.00 in0.0 mm 0.00 in0.0 mm 0.00 in0.0 mm
12:05 PM 33.4°F0.8°C 18.1°F-7.7°C 53% 13.0 mph NW20.9 kmh NW 17.0 mph27.4 kmh 30.17 in1021.7 mb 0.00 in0.0 mm 0.00 in0.0 mm 0.00 in0.0 mm
12:04 PM 33.5°F0.8°C 18.2°F-7.7°C 53% 15.0 mph NNW24.1 kmh NNW 20.0 mph32.2 kmh 30.17 in1021.7 mb 0.00 in0.0 mm 0.00 in0.0 mm 0.00 in0.0 mm
12:03 PM 33.5°F0.8°C 17.8°F-7.9°C 52% 15.0 mph NNW24.1 kmh NNW 19.0 mph30.6 kmh 30.17 in1021.7 mb 0.00 in0.0 mm 0.00 in0.0 mm 0.00 in0.0 mm
12:02 PM 33.5°F0.8°C 18.2°F-7.7°C 53% 14.0 mph NNW22.5 kmh NNW 21.0 mph33.8 kmh 30.17 in1021.7 mb 0.00 in0.0 mm 0.00 in0.0 mm 0.00 in0.0 mm
12:01 PM 33.4°F0.8°C 18.1°F-7.7°C 53% 10.0 mph NNW16.1 kmh NNW 13.0 mph20.9 kmh 30.16 in1021.3 mb 0.00 in0.0 mm 0.00 in0.0 mm 0.00 in0.0 mm
12:00 PM 33.2°F0.7°C 18.4°F-7.6°C 54% 12.0 mph NNW19.3 kmh NNW 16.0 mph25.7 kmh 30.16 in1021.3 mb 0.00 in0.0 mm 0.00 in0.0 mm 0.00 in0.0 mm
11:59 AM 33.0°F0.6°C 17.8°F-7.9°C 53% 10.0 mph NNW16.1 kmh NNW 13.0 mph20.9 kmh 30.16 in1021.3 mb 0.00 in0.0 mm 0.00 in0.0 mm 0.00 in0.0 mm
11:58 AM 32.9°F0.5°C 17.7°F-7.9°C 53% 15.0 mph NNW24.1 kmh NNW 20.0 mph32.2 kmh 30.16 in1021.3 mb 0.00 in0.0 mm 0.00 in0.0 mm 0.00 in0.0 mm
11:57 AM 32.8°F0.4°C 17.6°F-8.0°C 53% 13.0 mph NNW20.9 kmh NNW 19.0 mph30.6 kmh 30.16 in1021.3 mb 0.00 in0.0 mm 0.00 in0.0 mm 0.00 in0.0 mm
11:56 AM 32.9°F0.5°C 17.2°F-8.2°C 52% 16.0 mph NNW25.7 kmh NNW 21.0 mph33.8 kmh 30.16 in1021.3 mb 0.00 in0.0 mm 0.00 in0.0 mm 0.00 in0.0 mm
11:55 AM 32.9°F0.5°C 17.7°F-7.9°C 53% 14.0 mph NNW22.5 kmh NNW 22.0 mph35.4 kmh 30.16 in1021.3 mb 0.00 in0.0 mm 0.00 in0.0 mm 0.00 in0.0 mm
11:54 AM 32.9°F0.5°C 17.7°F-7.9°C 53% 15.0 mph NNW24.1 kmh NNW 20.0 mph32.2 kmh 30.16 in1021.3 mb 0.00 in0.0 mm 0.00 in0.0 mm 0.00 in0.0 mm
11:53 AM 33.0°F0.6°C 17.8°F-7.9°C 53% 15.0 mph NNW24.1 kmh NNW 21.0 mph33.8 kmh 30.16 in1021.3 mb 0.00 in0.0 mm 0.00 in0.0 mm 0.00 in0.0 mm
11:52 AM 33.0°F0.6°C 18.2°F-7.7°C 54% 13.0 mph NNW20.9 kmh NNW 22.0 mph35.4 kmh 30.16 in1021.3 mb 0.00 in0.0 mm 0.00 in0.0 mm 0.00 in0.0 mm
11:51 AM 33.0°F0.6°C 17.8°F-7.9°C 53% 9.0 mph NNW14.5 kmh NNW 14.0 mph22.5 kmh 30.16 in1021.3 mb 0.00 in0.0 mm 0.00 in0.0 mm 0.00 in0.0 mm
11:50 AM 32.9°F0.5°C 17.7°F-7.9°C 53% 10.0 mph NNW16.1 kmh NNW 14.0 mph22.5 kmh 30.16 in1021.3 mb 0.00 in0.0 mm 0.00 in0.0 mm 0.00 in0.0 mm
11:49 AM 33.0°F0.6°C 17.8°F-7.9°C 53% 10.0 mph NNW16.1 kmh NNW 14.0 mph22.5 kmh 30.16 in1021.3 mb 0.00 in0.0 mm 0.00 in0.0 mm 0.00 in0.0 mm
11:48 AM 33.0°F0.6°C 17.8°F-7.9°C 53% 9.0 mph NNW14.5 kmh NNW 13.0 mph20.9 kmh 30.16 in1021.3 mb 0.00 in0.0 mm 0.00 in0.0 mm 0.00 in0.0 mm
11:47 AM 33.0°F0.6°C 17.3°F-8.2°C 52% 10.0 mph NNW16.1 kmh NNW 17.0 mph27.4 kmh 30.16 in1021.3 mb 0.00 in0.0 mm 0.00 in0.0 mm 0.00 in0.0 mm
11:46 AM 33.0°F0.6°C 17.8°F-7.9°C 53% 15.0 mph NNW24.1 kmh NNW 20.0 mph32.2 kmh 30.16 in1021.3 mb 0.00 in0.0 mm 0.00 in0.0 mm 0.00 in0.0 mm
11:45 AM 33.0°F0.6°C 17.8°F-7.9°C 53% 13.0 mph 20.9 kmh 16.0 mph25.7 kmh 30.16 in1021.3 mb 0.00 in0.0 mm 0.00 in0.0 mm 0.00 in0.0 mm
11:44 AM 33.0°F0.6°C 17.8°F-7.9°C 53% 12.0 mph NNW19.3 kmh NNW 17.0 mph27.4 kmh 30.16 in1021.3 mb 0.00 in0.0 mm 0.00 in0.0 mm 0.00 in0.0 mm
11:43 AM 33.0°F0.6°C 17.8°F-7.9°C 53% 8.0 mph NNW12.9 kmh NNW 11.0 mph17.7 kmh 30.16 in1021.3 mb 0.00 in0.0 mm 0.00 in0.0 mm 0.00 in0.0 mm
11:42 AM 32.9°F0.5°C 17.7°F-7.9°C 53% 11.0 mph NNW17.7 kmh NNW 13.0 mph20.9 kmh 30.16 in1021.3 mb 0.00 in0.0 mm 0.00 in0.0 mm 0.00 in0.0 mm
11:41 AM 32.9°F0.5°C 18.1°F-7.7°C 54% 14.0 mph NNW22.5 kmh NNW 18.0 mph29.0 kmh 30.16 in1021.3 mb 0.00 in0.0 mm 0.00 in0.0 mm 0.00 in0.0 mm
11:40 AM 32.9°F0.5°C 17.7°F-7.9°C 53% 14.0 mph NW22.5 kmh NW 18.0 mph29.0 kmh 30.16 in1021.3 mb 0.00 in0.0 mm 0.00 in0.0 mm 0.00 in0.0 mm
11:39 AM 32.9°F0.5°C 17.7°F-7.9°C 53% 14.0 mph NNW22.5 kmh NNW 22.0 mph35.4 kmh 30.16 in1021.3 mb 0.00 in0.0 mm 0.00 in0.0 mm 0.00 in0.0 mm
11:38 AM 32.8°F0.4°C 17.6°F-8.0°C 53% 14.0 mph NNW22.5 kmh NNW 20.0 mph32.2 kmh 30.16 in1021.3 mb 0.00 in0.0 mm 0.00 in0.0 mm 0.00 in0.0 mm
11:37 AM 32.8°F0.4°C 18.4°F-7.6°C 55% 9.0 mph WNW14.5 kmh WNW 11.0 mph17.7 kmh 30.16 in1021.3 mb 0.00 in0.0 mm 0.00 in0.0 mm 0.00 in0.0 mm
11:36 AM 32.7°F0.4°C 18.3°F-7.6°C 55% 5.0 mph WNW8.0 kmh WNW 10.0 mph16.1 kmh 30.16 in1021.3 mb 0.00 in0.0 mm 0.00 in0.0 mm 0.00 in0.0 mm
11:35 AM 32.7°F0.4°C 17.9°F-7.8°C 54% 8.0 mph NW12.9 kmh NW 10.0 mph16.1 kmh 30.16 in1021.3 mb 0.00 in0.0 mm 0.00 in0.0 mm 0.00 in0.0 mm
11:34 AM 32.6°F0.3°C 17.8°F-7.9°C 54% 7.0 mph NNW11.3 kmh NNW 11.0 mph17.7 kmh 30.16 in1021.3 mb 0.00 in0.0 mm 0.00 in0.0 mm 0.00 in0.0 mm
11:33 AM 32.6°F0.3°C 17.8°F-7.9°C 54% 9.0 mph WNW14.5 kmh WNW 13.0 mph20.9 kmh 30.16 in1021.3 mb 0.00 in0.0 mm 0.00 in0.0 mm 0.00 in0.0 mm
11:32 AM 32.5°F0.3°C 17.7°F-7.9°C 54% 12.0 mph NW19.3 kmh NW 16.0 mph25.7 kmh 30.16 in1021.3 mb 0.00 in0.0 mm 0.00 in0.0 mm 0.00 in0.0 mm
11:31 AM 32.5°F0.3°C 18.6°F-7.4°C 56% 9.0 mph NW14.5 kmh NW 14.0 mph22.5 kmh 30.16 in1021.3 mb 0.00 in0.0 mm 0.00 in0.0 mm 0.00 in0.0 mm
11:30 AM 32.5°F0.3°C 19.0°F-7.2°C 57% 5.0 mph WNW8.0 kmh WNW 8.0 mph12.9 kmh 30.16 in1021.3 mb 0.00 in0.0 mm 0.00 in0.0 mm 0.00 in0.0 mm
11:29 AM 32.5°F0.3°C 18.6°F-7.4°C 56% 5.0 mph NNW8.0 kmh NNW 8.0 mph12.9 kmh 30.16 in1021.3 mb 0.00 in0.0 mm 0.00 in0.0 mm 0.00 in0.0 mm
11:28 AM 32.5°F0.3°C 18.6°F-7.4°C 56% 7.0 mph 11.3 kmh 10.0 mph16.1 kmh 30.16 in1021.3 mb 0.00 in0.0 mm 0.00 in0.0 mm 0.00 in0.0 mm
11:27 AM 32.4°F0.2°C 17.6°F-8.0°C 54% 11.0 mph 17.7 kmh 17.0 mph27.4 kmh 30.16 in1021.3 mb 0.00 in0.0 mm 0.00 in0.0 mm 0.00 in0.0 mm
11:26 AM 32.4°F0.2°C 17.6°F-8.0°C 54% 11.0 mph NNW17.7 kmh NNW 15.0 mph24.1 kmh 30.16 in1021.3 mb 0.00 in0.0 mm 0.00 in0.0 mm 0.00 in0.0 mm
11:25 AM 32.4°F0.2°C 18.1°F-7.7°C 55% 8.0 mph 12.9 kmh 13.0 mph20.9 kmh 30.16 in1021.3 mb 0.00 in0.0 mm 0.00 in0.0 mm 0.00 in0.0 mm
11:24 AM 32.5°F0.3°C 18.6°F-7.4°C 56% 12.0 mph NNW19.3 kmh NNW 17.0 mph27.4 kmh 30.16 in1021.3 mb 0.00 in0.0 mm 0.00 in0.0 mm 0.00 in0.0 mm
11:23 AM 32.4°F0.2°C 18.1°F-7.7°C 55% 14.0 mph NNE22.5 kmh NNE 17.0 mph27.4 kmh 30.16 in1021.3 mb 0.00 in0.0 mm 0.00 in0.0 mm 0.00 in0.0 mm
11:22 AM 32.4°F0.2°C 18.5°F-7.5°C 56% 8.0 mph NNW12.9 kmh NNW 11.0 mph17.7 kmh 30.16 in1021.3 mb 0.00 in0.0 mm 0.00 in0.0 mm 0.00 in0.0 mm
11:21 AM 32.4°F0.2°C 18.5°F-7.5°C 56% 11.0 mph NNW17.7 kmh NNW 18.0 mph29.0 kmh 30.16 in1021.3 mb 0.00 in0.0 mm 0.00 in0.0 mm 0.00 in0.0 mm
11:20 AM 32.4°F0.2°C 18.5°F-7.5°C 56% 11.0 mph NNW17.7 kmh NNW 14.0 mph22.5 kmh 30.16 in1021.3 mb 0.00 in0.0 mm 0.00 in0.0 mm 0.00 in0.0 mm
11:19 AM 32.4°F0.2°C 19.3°F-7.1°C 58% 13.0 mph NNW20.9 kmh NNW 16.0 mph25.7 kmh 30.16 in1021.3 mb 0.00 in0.0 mm 0.00 in0.0 mm 0.00 in0.0 mm
11:18 AM 32.4°F0.2°C 19.3°F-7.1°C 58% 6.0 mph NNW9.7 kmh NNW 12.0 mph19.3 kmh 30.15 in1021.0 mb 0.00 in0.0 mm 0.00 in0.0 mm 0.00 in0.0 mm
11:17 AM 32.3°F0.2°C 19.2°F-7.1°C 58% 10.0 mph NNW16.1 kmh NNW 12.0 mph19.3 kmh 30.15 in1021.0 mb 0.00 in0.0 mm 0.00 in0.0 mm 0.00 in0.0 mm
11:16 AM 32.2°F0.1°C 19.1°F-7.2°C 58% 9.0 mph NW14.5 kmh NW 12.0 mph19.3 kmh 30.15 in1021.0 mb 0.00 in0.0 mm 0.00 in0.0 mm 0.00 in0.0 mm
11:15 AM 32.2°F0.1°C 19.1°F-7.2°C 58% 12.0 mph NW19.3 kmh NW 16.0 mph25.7 kmh 30.15 in1021.0 mb 0.00 in0.0 mm 0.00 in0.0 mm 0.00 in0.0 mm
11:14 AM 32.1°F0.1°C 19.0°F-7.2°C 58% 10.0 mph NW16.1 kmh NW 14.0 mph22.5 kmh 30.15 in1021.0 mb 0.00 in0.0 mm 0.00 in0.0 mm 0.00 in0.0 mm
11:13 AM 32.1°F0.1°C 19.0°F-7.2°C 58% 12.0 mph NW19.3 kmh NW 14.0 mph22.5 kmh 30.15 in1021.0 mb 0.00 in0.0 mm 0.00 in0.0 mm 0.00 in0.0 mm
11:12 AM 32.1°F0.1°C 19.0°F-7.2°C 58% 13.0 mph NW20.9 kmh NW 16.0 mph25.7 kmh 30.15 in1021.0 mb 0.00 in0.0 mm 0.00 in0.0 mm 0.00 in0.0 mm
11:11 AM 32.0°F0.0°C 19.3°F-7.1°C 59% 13.0 mph NW20.9 kmh NW 16.0 mph25.7 kmh 30.15 in1021.0 mb 0.00 in0.0 mm 0.00 in0.0 mm 0.00 in0.0 mm
11:10 AM 31.9°F-0.1°C 19.2°F-7.1°C 59% 12.0 mph NW19.3 kmh NW 18.0 mph29.0 kmh 30.15 in1021.0 mb 0.00 in0.0 mm 0.00 in0.0 mm 0.00 in0.0 mm
11:09 AM 31.9°F-0.1°C 19.2°F-7.1°C 59% 12.0 mph NW19.3 kmh NW 14.0 mph22.5 kmh 30.15 in1021.0 mb 0.00 in0.0 mm 0.00 in0.0 mm 0.00 in0.0 mm
11:08 AM 31.7°F-0.2°C 19.8°F-6.8°C 61% 10.0 mph NW16.1 kmh NW 17.0 mph27.4 kmh 30.15 in1021.0 mb 0.00 in0.0 mm 0.00 in0.0 mm 0.00 in0.0 mm
11:07 AM 31.6°F-0.2°C 20.1°F-6.6°C 62% 13.0 mph NW20.9 kmh NW 19.0 mph30.6 kmh 30.15 in1021.0 mb 0.00 in0.0 mm 0.00 in0.0 mm 0.00 in0.0 mm
11:06 AM 31.5°F-0.3°C 21.5°F-5.8°C 66% 13.0 mph NW20.9 kmh NW 16.0 mph25.7 kmh 30.15 in1021.0 mb 0.00 in0.0 mm 0.00 in0.0 mm 0.00 in0.0 mm
11:05 AM 31.4°F-0.3°C 21.7°F-5.7°C 67% 7.0 mph WNW11.3 kmh WNW 12.0 mph19.3 kmh 30.15 in1021.0 mb 0.00 in0.0 mm 0.00 in0.0 mm 0.00 in0.0 mm
11:04 AM 31.2°F-0.4°C 21.5°F-5.8°C 67% 7.0 mph NW11.3 kmh NW 10.0 mph16.1 kmh 30.15 in1021.0 mb 0.00 in0.0 mm 0.00 in0.0 mm 0.00 in0.0 mm
11:03 AM 31.2°F-0.4°C 21.9°F-5.6°C 68% 6.0 mph W9.7 kmh W 9.0 mph14.5 kmh 30.15 in1021.0 mb 0.00 in0.0 mm 0.00 in0.0 mm 0.00 in0.0 mm
11:02 AM 31.0°F-0.6°C 21.3°F-5.9°C 67% 10.0 mph WNW16.1 kmh WNW 13.0 mph20.9 kmh 30.15 in1021.0 mb 0.00 in0.0 mm 0.00 in0.0 mm 0.00 in0.0 mm
11:01 AM 31.0°F-0.6°C 21.7°F-5.7°C 68% 8.0 mph NW12.9 kmh NW 11.0 mph17.7 kmh 30.15 in1021.0 mb 0.00 in0.0 mm 0.00 in0.0 mm 0.00 in0.0 mm
11:00 AM 30.9°F-0.6°C 21.6°F-5.8°C 68% 10.0 mph WNW16.1 kmh WNW 13.0 mph20.9 kmh 30.15 in1021.0 mb 0.00 in0.0 mm 0.00 in0.0 mm 0.00 in0.0 mm
10:59 AM 30.8°F-0.7°C 22.2°F-5.4°C 70% 11.0 mph NW17.7 kmh NW 17.0 mph27.4 kmh 30.15 in1021.0 mb 0.00 in0.0 mm 0.00 in0.0 mm 0.00 in0.0 mm
10:58 AM 30.8°F-0.7°C 22.2°F-5.4°C 70% 7.0 mph WNW11.3 kmh WNW 13.0 mph20.9 kmh 30.14 in1020.7 mb 0.00 in0.0 mm 0.00 in0.0 mm 0.00 in0.0 mm
10:57 AM 30.8°F-0.7°C 22.5°F-5.3°C 71% 9.0 mph W14.5 kmh W 13.0 mph20.9 kmh 30.14 in1020.7 mb 0.00 in0.0 mm 0.00 in0.0 mm 0.00 in0.0 mm
10:56 AM 30.7°F-0.7°C 22.8°F-5.1°C 72% 9.0 mph W14.5 kmh W 11.0 mph17.7 kmh 30.14 in1020.7 mb 0.00 in0.0 mm 0.00 in0.0 mm 0.00 in0.0 mm
10:55 AM 30.7°F-0.7°C 23.1°F-4.9°C 73% 7.0 mph WNW11.3 kmh WNW 9.0 mph14.5 kmh 30.14 in1020.7 mb 0.00 in0.0 mm 0.00 in0.0 mm 0.00 in0.0 mm
10:54 AM 30.7°F-0.7°C 23.1°F-4.9°C 73% 7.0 mph WNW11.3 kmh WNW 11.0 mph17.7 kmh 30.14 in1020.7 mb 0.00 in0.0 mm 0.00 in0.0 mm 0.00 in0.0 mm
10:53 AM 30.6°F-0.8°C 23.0°F-5.0°C 73% 7.0 mph NW11.3 kmh NW 10.0 mph16.1 kmh 30.14 in1020.7 mb 0.00 in0.0 mm 0.00 in0.0 mm 0.00 in0.0 mm
10:52 AM 30.6°F-0.8°C 23.0°F-5.0°C 73% 7.0 mph W11.3 kmh W 13.0 mph20.9 kmh 30.14 in1020.7 mb 0.00 in0.0 mm 0.00 in0.0 mm 0.00 in0.0 mm
10:51 AM 30.5°F-0.8°C 23.2°F-4.9°C 74% 8.0 mph WNW12.9 kmh WNW 13.0 mph20.9 kmh 30.14 in1020.7 mb 0.00 in0.0 mm 0.00 in0.0 mm 0.00 in0.0 mm
10:50 AM 30.6°F-0.8°C 23.6°F-4.7°C 75% 8.0 mph W12.9 kmh W 12.0 mph19.3 kmh 30.14 in1020.7 mb 0.00 in0.0 mm 0.00 in0.0 mm 0.00 in0.0 mm
10:49 AM 30.5°F-0.8°C 23.5°F-4.7°C 75% 7.0 mph W11.3 kmh W 10.0 mph16.1 kmh 30.13 in1020.3 mb 0.00 in0.0 mm 0.00 in0.0 mm 0.00 in0.0 mm
10:48 AM 30.5°F-0.8°C 23.5°F-4.7°C 75% 6.0 mph W9.7 kmh W 8.0 mph12.9 kmh 30.13 in1020.3 mb 0.00 in0.0 mm 0.00 in0.0 mm 0.00 in0.0 mm
10:47 AM 30.5°F-0.8°C 23.2°F-4.9°C 74% 8.0 mph WNW12.9 kmh WNW 12.0 mph19.3 kmh 30.13 in1020.3 mb 0.00 in0.0 mm 0.00 in0.0 mm 0.00 in0.0 mm
10:46 AM 30.4°F-0.9°C 23.1°F-4.9°C 74% 8.0 mph W12.9 kmh W 11.0 mph17.7 kmh 30.13 in1020.3 mb 0.00 in0.0 mm 0.00 in0.0 mm 0.00 in0.0 mm
10:45 AM 30.4°F-0.9°C 23.1°F-4.9°C 74% 8.0 mph WNW12.9 kmh WNW 10.0 mph16.1 kmh 30.13 in1020.3 mb 0.00 in0.0 mm 0.00 in0.0 mm 0.00 in0.0 mm
10:44 AM 30.4°F-0.9°C 23.1°F-4.9°C 74% 10.0 mph W16.1 kmh W 14.0 mph22.5 kmh 30.13 in1020.3 mb 0.00 in0.0 mm 0.00 in0.0 mm 0.00 in0.0 mm
10:43 AM 30.3°F-0.9°C 23.0°F-5.0°C 74% 11.0 mph WNW17.7 kmh WNW 15.0 mph24.1 kmh 30.12 in1020.0 mb 0.00 in0.0 mm 0.00 in0.0 mm 0.00 in0.0 mm
10:42 AM 30.2°F-1.0°C 22.9°F-5.1°C 74% 11.0 mph WNW17.7 kmh WNW 19.0 mph30.6 kmh 30.12 in1020.0 mb 0.00 in0.0 mm 0.00 in0.0 mm 0.00 in0.0 mm
10:41 AM 30.1°F-1.1°C 22.8°F-5.1°C 74% 14.0 mph NNW22.5 kmh NNW 19.0 mph30.6 kmh 30.12 in1020.0 mb 0.00 in0.0 mm 0.00 in0.0 mm 0.00 in0.0 mm
10:40 AM 30.0°F-1.1°C 23.7°F-4.6°C 77% 8.0 mph WNW12.9 kmh WNW 15.0 mph24.1 kmh 30.12 in1020.0 mb 0.00 in0.0 mm 0.00 in0.0 mm 0.00 in0.0 mm
10:39 AM 29.9°F-1.2°C 23.6°F-4.7°C 77% 9.0 mph WNW14.5 kmh WNW 10.0 mph16.1 kmh 30.12 in1020.0 mb 0.00 in0.0 mm 0.00 in0.0 mm 0.00 in0.0 mm
10:38 AM 29.9°F-1.2°C 23.6°F-4.7°C 77% 12.0 mph WNW19.3 kmh WNW 15.0 mph24.1 kmh 30.12 in1020.0 mb 0.00 in0.0 mm 0.00 in0.0 mm 0.00 in0.0 mm
10:37 AM 29.8°F-1.2°C 23.5°F-4.7°C 77% 9.0 mph W14.5 kmh W 13.0 mph20.9 kmh 30.12 in1020.0 mb 0.00 in0.0 mm 0.00 in0.0 mm 0.00 in0.0 mm
10:36 AM 29.7°F-1.3°C 23.7°F-4.6°C 78% 10.0 mph W16.1 kmh W 15.0 mph24.1 kmh 30.12 in1020.0 mb 0.00 in0.0 mm 0.00 in0.0 mm 0.00 in0.0 mm
10:35 AM 29.7°F-1.3°C 23.7°F-4.6°C 78% 12.0 mph WNW19.3 kmh WNW 16.0 mph25.7 kmh 30.12 in1020.0 mb 0.00 in0.0 mm 0.00 in0.0 mm 0.00 in0.0 mm
10:34 AM 29.6°F-1.3°C 23.9°F-4.5°C 79% 11.0 mph WNW17.7 kmh WNW 14.0 mph22.5 kmh 30.12 in1020.0 mb 0.00 in0.0 mm 0.00 in0.0 mm 0.00 in0.0 mm
10:33 AM 29.5°F-1.4°C 23.8°F-4.6°C 79% 12.0 mph WNW19.3 kmh WNW 17.0 mph27.4 kmh 30.11 in1019.6 mb 0.00 in0.0 mm 0.00 in0.0 mm 0.00 in0.0 mm
10:32 AM 29.6°F-1.3°C 24.2°F-4.3°C 80% 8.0 mph WNW12.9 kmh WNW 10.0 mph16.1 kmh 30.11 in1019.6 mb 0.00 in0.0 mm 0.00 in0.0 mm 0.00 in0.0 mm
10:31 AM 29.6°F-1.3°C 23.9°F-4.5°C 79% 10.0 mph WNW16.1 kmh WNW 14.0 mph22.5 kmh 30.11 in1019.6 mb 0.00 in0.0 mm 0.00 in0.0 mm 0.00 in0.0 mm
10:30 AM 29.6°F-1.3°C 23.9°F-4.5°C 79% 12.0 mph NW19.3 kmh NW 14.0 mph22.5 kmh 30.11 in1019.6 mb 0.00 in0.0 mm 0.00 in0.0 mm 0.00 in0.0 mm
10:29 AM 29.6°F-1.3°C 23.9°F-4.5°C 79% 12.0 mph NW19.3 kmh NW 17.0 mph27.4 kmh 30.11 in1019.6 mb 0.00 in0.0 mm 0.00 in0.0 mm 0.00 in0.0 mm
10:28 AM 29.6°F-1.3°C 23.9°F-4.5°C 79% 11.0 mph NW17.7 kmh NW 17.0 mph27.4 kmh 30.11 in1019.6 mb 0.00 in0.0 mm 0.00 in0.0 mm 0.00 in0.0 mm
10:27 AM 29.7°F-1.3°C 24.3°F-4.3°C 80% 12.0 mph NW19.3 kmh NW 16.0 mph25.7 kmh 30.10 in1019.3 mb 0.00 in0.0 mm 0.00 in0.0 mm 0.00 in0.0 mm
10:26 AM 29.7°F-1.3°C 24.3°F-4.3°C 80% 11.0 mph NNW17.7 kmh NNW 16.0 mph25.7 kmh 30.10 in1019.3 mb 0.00 in0.0 mm 0.00 in0.0 mm 0.00 in0.0 mm
10:25 AM 29.7°F-1.3°C 24.0°F-4.4°C 79% 8.0 mph NNW12.9 kmh NNW 11.0 mph17.7 kmh 30.10 in1019.3 mb 0.00 in0.0 mm 0.00 in0.0 mm 0.00 in0.0 mm
10:24 AM 29.7°F-1.3°C 24.0°F-4.4°C 79% 7.0 mph NNW11.3 kmh NNW 11.0 mph17.7 kmh 30.10 in1019.3 mb 0.00 in0.0 mm 0.00 in0.0 mm 0.00 in0.0 mm
10:23 AM 29.7°F-1.3°C 24.0°F-4.4°C 79% 10.0 mph WNW16.1 kmh WNW 12.0 mph19.3 kmh 30.10 in1019.3 mb 0.00 in0.0 mm 0.00 in0.0 mm 0.00 in0.0 mm
10:22 AM 29.7°F-1.3°C 24.3°F-4.3°C 80% 8.0 mph WNW12.9 kmh WNW 11.0 mph17.7 kmh 30.10 in1019.3 mb 0.00 in0.0 mm 0.00 in0.0 mm 0.00 in0.0 mm
10:21 AM 29.6°F-1.3°C 24.5°F-4.2°C 81% 9.0 mph NW14.5 kmh NW 13.0 mph20.9 kmh 30.10 in1019.3 mb 0.00 in0.0 mm 0.00 in0.0 mm 0.00 in0.0 mm
10:20 AM 29.6°F-1.3°C 24.5°F-4.2°C 81% 9.0 mph NW14.5 kmh NW 13.0 mph20.9 kmh 30.10 in1019.3 mb 0.00 in0.0 mm 0.00 in0.0 mm 0.00 in0.0 mm
10:19 AM 29.6°F-1.3°C 24.2°F-4.3°C 80% 8.0 mph NW12.9 kmh NW 10.0 mph16.1 kmh 30.09 in1019.0 mb 0.00 in0.0 mm 0.00 in0.0 mm 0.00 in0.0 mm
10:18 AM 29.5°F-1.4°C 24.4°F-4.2°C 81% 11.0 mph NW17.7 kmh NW 14.0 mph22.5 kmh 30.09 in1019.0 mb 0.00 in0.0 mm 0.00 in0.0 mm 0.00 in0.0 mm
10:17 AM 29.5°F-1.4°C 24.4°F-4.2°C 81% 11.0 mph NW17.7 kmh NW 14.0 mph22.5 kmh 30.09 in1019.0 mb 0.00 in0.0 mm 0.00 in0.0 mm 0.00 in0.0 mm
10:16 AM 29.4°F-1.4°C 24.3°F-4.3°C 81% 11.0 mph NW17.7 kmh NW 15.0 mph24.1 kmh 30.09 in1019.0 mb 0.00 in0.0 mm 0.00 in0.0 mm 0.00 in0.0 mm
10:15 AM 29.4°F-1.4°C 24.3°F-4.3°C 81% 11.0 mph NW17.7 kmh NW 13.0 mph20.9 kmh 30.09 in1019.0 mb 0.00 in0.0 mm 0.00 in0.0 mm 0.00 in0.0 mm
10:14 AM 29.4°F-1.4°C 24.6°F-4.1°C 82% 9.0 mph NW14.5 kmh NW 13.0 mph20.9 kmh 30.09 in1019.0 mb 0.00 in0.0 mm 0.00 in0.0 mm 0.00 in0.0 mm
10:13 AM 29.4°F-1.4°C 24.6°F-4.1°C 82% 10.0 mph NNW16.1 kmh NNW 12.0 mph19.3 kmh 30.08 in1018.6 mb 0.00 in0.0 mm 0.00 in0.0 mm 0.00 in0.0 mm
10:12 AM 29.4°F-1.4°C 24.6°F-4.1°C 82% 8.0 mph NNW12.9 kmh NNW 11.0 mph17.7 kmh 30.08 in1018.6 mb 0.00 in0.0 mm 0.00 in0.0 mm 0.00 in0.0 mm
10:11 AM 29.3°F-1.5°C 24.5°F-4.2°C 82% 11.0 mph NW17.7 kmh NW 14.0 mph22.5 kmh 30.08 in1018.6 mb 0.00 in0.0 mm 0.00 in0.0 mm 0.00 in0.0 mm
10:10 AM 29.3°F-1.5°C 24.5°F-4.2°C 82% 10.0 mph NW16.1 kmh NW 14.0 mph22.5 kmh 30.08 in1018.6 mb 0.00 in0.0 mm 0.00 in0.0 mm 0.00 in0.0 mm
10:09 AM 29.2°F-1.6°C 24.4°F-4.2°C 82% 10.0 mph NW16.1 kmh NW 12.0 mph19.3 kmh 30.08 in1018.6 mb 0.00 in0.0 mm 0.00 in0.0 mm 0.00 in0.0 mm
10:08 AM 29.2°F-1.6°C 24.7°F-4.1°C 83% 11.0 mph NW17.7 kmh NW 14.0 mph22.5 kmh 30.08 in1018.6 mb 0.00 in0.0 mm 0.00 in0.0 mm 0.00 in0.0 mm
10:07 AM 29.2°F-1.6°C 24.7°F-4.1°C 83% 11.0 mph NW17.7 kmh NW 14.0 mph22.5 kmh 30.08 in1018.6 mb 0.00 in0.0 mm 0.00 in0.0 mm 0.00 in0.0 mm
10:06 AM 29.2°F-1.6°C 25.0°F-3.9°C 84% 8.0 mph NW12.9 kmh NW 12.0 mph19.3 kmh 30.08 in1018.6 mb 0.00 in0.0 mm 0.00 in0.0 mm 0.00 in0.0 mm
10:05 AM 29.1°F-1.6°C 24.9°F-3.9°C 84% 5.0 mph NW8.0 kmh NW 9.0 mph14.5 kmh 30.07 in1018.3 mb 0.00 in0.0 mm 0.00 in0.0 mm 0.00 in0.0 mm
10:04 AM 29.1°F-1.6°C 24.9°F-3.9°C 84% 7.0 mph NW11.3 kmh NW 12.0 mph19.3 kmh 30.07 in1018.3 mb 0.00 in0.0 mm 0.00 in0.0 mm 0.00 in0.0 mm
10:03 AM 29.1°F-1.6°C 24.6°F-4.1°C 83% 9.0 mph NW14.5 kmh NW 14.0 mph22.5 kmh 30.07 in1018.3 mb 0.00 in0.0 mm 0.00 in0.0 mm 0.00 in0.0 mm
10:02 AM 29.1°F-1.6°C 24.6°F-4.1°C 83% 11.0 mph NW17.7 kmh NW 15.0 mph24.1 kmh 30.07 in1018.3 mb 0.00 in0.0 mm 0.00 in0.0 mm 0.00 in0.0 mm
10:01 AM 29.1°F-1.6°C 24.6°F-4.1°C 83% 10.0 mph NW16.1 kmh NW 14.0 mph22.5 kmh 30.07 in1018.3 mb 0.00 in0.0 mm 0.00 in0.0 mm 0.00 in0.0 mm
10:00 AM 29.1°F-1.6°C 24.6°F-4.1°C 83% 7.0 mph NW11.3 kmh NW 12.0 mph19.3 kmh 30.07 in1018.3 mb 0.00 in0.0 mm 0.00 in0.0 mm 0.00 in0.0 mm
09:59 AM 29.1°F-1.6°C 24.6°F-4.1°C 83% 7.0 mph NW11.3 kmh NW 10.0 mph16.1 kmh 30.07 in1018.3 mb 0.00 in0.0 mm 0.00 in0.0 mm 0.00 in0.0 mm
09:58 AM 29.2°F-1.6°C 24.7°F-4.1°C 83% 9.0 mph NW14.5 kmh NW 12.0 mph19.3 kmh 30.07 in1018.3 mb 0.00 in0.0 mm 0.00 in0.0 mm 0.00 in0.0 mm
09:57 AM 29.2°F-1.6°C 24.7°F-4.1°C 83% 10.0 mph NW16.1 kmh NW 13.0 mph20.9 kmh 30.07 in1018.3 mb 0.00 in0.0 mm 0.00 in0.0 mm 0.00 in0.0 mm
09:56 AM 29.3°F-1.5°C 24.5°F-4.2°C 82% 9.0 mph NW14.5 kmh NW 14.0 mph22.5 kmh 30.07 in1018.3 mb 0.00 in0.0 mm 0.00 in0.0 mm 0.00 in0.0 mm
09:55 AM 29.4°F-1.4°C 24.6°F-4.1°C 82% 11.0 mph NNW17.7 kmh NNW 15.0 mph24.1 kmh 30.06 in1017.9 mb 0.00 in0.0 mm 0.00 in0.0 mm 0.00 in0.0 mm
09:54 AM 29.5°F-1.4°C 24.7°F-4.1°C 82% 9.0 mph WNW14.5 kmh WNW 12.0 mph19.3 kmh 30.07 in1018.3 mb 0.00 in0.0 mm 0.00 in0.0 mm 0.00 in0.0 mm
09:53 AM 29.6°F-1.3°C 24.5°F-4.2°C 81% 9.0 mph NW14.5 kmh NW 13.0 mph20.9 kmh 30.07 in1018.3 mb 0.00 in0.0 mm 0.00 in0.0 mm 0.00 in0.0 mm
09:52 AM 29.6°F-1.3°C 24.5°F-4.2°C 81% 11.0 mph NNW17.7 kmh NNW 14.0 mph22.5 kmh 30.06 in1017.9 mb 0.00 in0.0 mm 0.00 in0.0 mm 0.00 in0.0 mm
09:51 AM 29.6°F-1.3°C 24.2°F-4.3°C 80% 9.0 mph NW14.5 kmh NW 12.0 mph19.3 kmh 30.06 in1017.9 mb 0.00 in0.0 mm 0.00 in0.0 mm 0.00 in0.0 mm
09:50 AM 29.6°F-1.3°C 24.2°F-4.3°C 80% 7.0 mph NW11.3 kmh NW 10.0 mph16.1 kmh 30.06 in1017.9 mb 0.00 in0.0 mm 0.00 in0.0 mm 0.00 in0.0 mm
09:49 AM 29.6°F-1.3°C 24.2°F-4.3°C 80% 5.0 mph WNW8.0 kmh WNW 7.0 mph11.3 kmh 30.06 in1017.9 mb 0.00 in0.0 mm 0.00 in0.0 mm 0.00 in0.0 mm
09:48 AM 29.6°F-1.3°C 24.2°F-4.3°C 80% 6.0 mph NW9.7 kmh NW 11.0 mph17.7 kmh 30.06 in1017.9 mb 0.00 in0.0 mm 0.00 in0.0 mm 0.00 in0.0 mm
09:47 AM 29.6°F-1.3°C 24.5°F-4.2°C 81% 8.0 mph W12.9 kmh W 10.0 mph16.1 kmh 30.06 in1017.9 mb 0.00 in0.0 mm 0.00 in0.0 mm 0.00 in0.0 mm
09:46 AM 29.6°F-1.3°C 24.8°F-4.0°C 82% 7.0 mph W11.3 kmh W 8.0 mph12.9 kmh 30.06 in1017.9 mb 0.00 in0.0 mm 0.00 in0.0 mm 0.00 in0.0 mm
09:45 AM 29.6°F-1.3°C 24.5°F-4.2°C 81% 4.0 mph NW6.4 kmh NW 6.0 mph9.7 kmh 30.06 in1017.9 mb 0.00 in0.0 mm 0.00 in0.0 mm 0.00 in0.0 mm
09:44 AM 29.5°F-1.4°C 24.4°F-4.2°C 81% 4.0 mph NW6.4 kmh NW 6.0 mph9.7 kmh 30.06 in1017.9 mb 0.00 in0.0 mm 0.00 in0.0 mm 0.00 in0.0 mm
09:43 AM 29.6°F-1.3°C 24.5°F-4.2°C 81% 5.0 mph WNW8.0 kmh WNW 8.0 mph12.9 kmh 30.05 in1017.6 mb 0.00 in0.0 mm 0.00 in0.0 mm 0.00 in0.0 mm
09:42 AM 29.5°F-1.4°C 24.4°F-4.2°C 81% 6.0 mph WNW9.7 kmh WNW 9.0 mph14.5 kmh 30.05 in1017.6 mb 0.00 in0.0 mm 0.00 in0.0 mm 0.00 in0.0 mm
09:41 AM 29.5°F-1.4°C 24.4°F-4.2°C 81% 6.0 mph W9.7 kmh W 9.0 mph14.5 kmh 30.05 in1017.6 mb 0.00 in0.0 mm 0.00 in0.0 mm 0.00 in0.0 mm
09:40 AM 29.5°F-1.4°C 24.4°F-4.2°C 81% 6.0 mph NW9.7 kmh NW 9.0 mph14.5 kmh 30.05 in1017.6 mb 0.00 in0.0 mm 0.00 in0.0 mm 0.00 in0.0 mm
09:39 AM 29.5°F-1.4°C 24.4°F-4.2°C 81% 7.0 mph NW11.3 kmh NW 10.0 mph16.1 kmh 30.05 in1017.6 mb 0.00 in0.0 mm 0.00 in0.0 mm 0.00 in0.0 mm
09:38 AM 29.5°F-1.4°C 24.7°F-4.1°C 82% 11.0 mph NNW17.7 kmh NNW 14.0 mph22.5 kmh 30.05 in1017.6 mb 0.00 in0.0 mm 0.00 in0.0 mm 0.00 in0.0 mm
09:37 AM 29.5°F-1.4°C 24.7°F-4.1°C 82% 6.0 mph NW9.7 kmh NW 10.0 mph16.1 kmh 30.05 in1017.6 mb 0.00 in0.0 mm 0.00 in0.0 mm 0.00 in0.0 mm
09:36 AM 29.5°F-1.4°C 24.4°F-4.2°C 81% 9.0 mph NNW14.5 kmh NNW 12.0 mph19.3 kmh 30.05 in1017.6 mb 0.00 in0.0 mm 0.00 in0.0 mm 0.00 in0.0 mm
09:35 AM 29.5°F-1.4°C 24.4°F-4.2°C 81% 10.0 mph NNW16.1 kmh NNW 13.0 mph20.9 kmh 30.05 in1017.6 mb 0.00 in0.0 mm 0.00 in0.0 mm 0.00 in0.0 mm
09:34 AM 29.5°F-1.4°C 24.4°F-4.2°C 81% 12.0 mph NNW19.3 kmh NNW 16.0 mph25.7 kmh 30.05 in1017.6 mb 0.00 in0.0 mm 0.00 in0.0 mm 0.00 in0.0 mm
09:33 AM 29.5°F-1.4°C 24.4°F-4.2°C 81% 13.0 mph NNW20.9 kmh NNW 17.0 mph27.4 kmh 30.04 in1017.3 mb 0.00 in0.0 mm 0.00 in0.0 mm 0.00 in0.0 mm
09:32 AM 29.5°F-1.4°C 24.4°F-4.2°C 81% 10.0 mph WNW16.1 kmh WNW 15.0 mph24.1 kmh 30.05 in1017.6 mb 0.00 in0.0 mm 0.00 in0.0 mm 0.00 in0.0 mm
09:31 AM 29.5°F-1.4°C 24.4°F-4.2°C 81% 9.0 mph WNW14.5 kmh WNW 13.0 mph20.9 kmh 30.04 in1017.3 mb 0.00 in0.0 mm 0.00 in0.0 mm 0.00 in0.0 mm
09:30 AM 29.4°F-1.4°C 24.3°F-4.3°C 81% 10.0 mph NW16.1 kmh NW 13.0 mph20.9 kmh 30.04 in1017.3 mb 0.00 in0.0 mm 0.00 in0.0 mm 0.00 in0.0 mm
09:29 AM 29.4°F-1.4°C 24.6°F-4.1°C 82% 11.0 mph NW17.7 kmh NW 16.0 mph25.7 kmh 30.04 in1017.3 mb 0.00 in0.0 mm 0.00 in0.0 mm 0.00 in0.0 mm
09:28 AM 29.4°F-1.4°C 24.9°F-3.9°C 83% 8.0 mph NW12.9 kmh NW 11.0 mph17.7 kmh 30.04 in1017.3 mb 0.00 in0.0 mm 0.00 in0.0 mm 0.00 in0.0 mm
09:27 AM 29.3°F-1.5°C 24.8°F-4.0°C 83% 7.0 mph NNW11.3 kmh NNW 11.0 mph17.7 kmh 30.04 in1017.3 mb 0.00 in0.0 mm 0.00 in0.0 mm 0.00 in0.0 mm
09:26 AM 29.4°F-1.4°C 25.2°F-3.8°C 84% 7.0 mph NW11.3 kmh NW 9.0 mph14.5 kmh 30.03 in1016.9 mb 0.00 in0.0 mm 0.00 in0.0 mm 0.00 in0.0 mm
09:25 AM 29.4°F-1.4°C 24.9°F-3.9°C 83% 7.0 mph NW11.3 kmh NW 10.0 mph16.1 kmh 30.03 in1016.9 mb 0.00 in0.0 mm 0.00 in0.0 mm 0.00 in0.0 mm
09:24 AM 29.4°F-1.4°C 24.9°F-3.9°C 83% 8.0 mph 12.9 kmh 12.0 mph19.3 kmh 30.03 in1016.9 mb 0.00 in0.0 mm 0.00 in0.0 mm 0.00 in0.0 mm
09:23 AM 29.5°F-1.4°C 24.7°F-4.1°C 82% 8.0 mph NNW12.9 kmh NNW 16.0 mph25.7 kmh 30.03 in1016.9 mb 0.00 in0.0 mm 0.00 in0.0 mm 0.00 in0.0 mm
09:22 AM 29.5°F-1.4°C 24.7°F-4.1°C 82% 8.0 mph NNW12.9 kmh NNW 12.0 mph19.3 kmh 30.03 in1016.9 mb 0.00 in0.0 mm 0.00 in0.0 mm 0.00 in0.0 mm
09:21 AM 29.5°F-1.4°C 24.7°F-4.1°C 82% 5.0 mph 8.0 kmh 8.0 mph12.9 kmh 30.03 in1016.9 mb 0.00 in0.0 mm 0.00 in0.0 mm 0.00 in0.0 mm
09:20 AM 29.6°F-1.3°C 24.8°F-4.0°C 82% 7.0 mph 11.3 kmh 9.0 mph14.5 kmh 30.02 in1016.6 mb 0.00 in0.0 mm 0.00 in0.0 mm 0.00 in0.0 mm
09:19 AM 29.6°F-1.3°C 24.8°F-4.0°C 82% 5.0 mph 8.0 kmh 9.0 mph14.5 kmh 30.02 in1016.6 mb 0.00 in0.0 mm 0.00 in0.0 mm 0.00 in0.0 mm
09:18 AM 29.6°F-1.3°C 24.8°F-4.0°C 82% 9.0 mph NNW14.5 kmh NNW 12.0 mph19.3 kmh 30.02 in1016.6 mb 0.00 in0.0 mm 0.00 in0.0 mm 0.00 in0.0 mm
09:17 AM 29.6°F-1.3°C 24.8°F-4.0°C 82% 4.0 mph WNW6.4 kmh WNW 7.0 mph11.3 kmh 30.02 in1016.6 mb 0.00 in0.0 mm 0.00 in0.0 mm 0.00 in0.0 mm
09:16 AM 29.7°F-1.3°C 24.6°F-4.1°C 81% 1.0 mph NNW1.6 kmh NNW 2.0 mph3.2 kmh 30.02 in1016.6 mb 0.00 in0.0 mm 0.00 in0.0 mm 0.00 in0.0 mm
09:15 AM 29.7°F-1.3°C 24.6°F-4.1°C 81% 4.0 mph NNW6.4 kmh NNW 5.0 mph8.0 kmh 30.02 in1016.6 mb 0.00 in0.0 mm 0.00 in0.0 mm 0.00 in0.0 mm
09:14 AM 29.7°F-1.3°C 24.6°F-4.1°C 81% 4.0 mph NNW6.4 kmh NNW 8.0 mph12.9 kmh 30.02 in1016.6 mb 0.00 in0.0 mm 0.00 in0.0 mm 0.00 in0.0 mm
09:13 AM 29.7°F-1.3°C 24.6°F-4.1°C 81% 2.0 mph NW3.2 kmh NW 5.0 mph8.0 kmh 30.02 in1016.6 mb 0.00 in0.0 mm 0.00 in0.0 mm 0.00 in0.0 mm
09:11 AM 29.7°F-1.3°C 24.6°F-4.1°C 81% 2.0 mph W3.2 kmh W 4.0 mph6.4 kmh 30.01 in1016.3 mb 0.00 in0.0 mm 0.00 in0.0 mm 0.00 in0.0 mm
09:10 AM 29.7°F-1.3°C 24.6°F-4.1°C 81% 2.0 mph E3.2 kmh E 4.0 mph6.4 kmh 30.01 in1016.3 mb 0.00 in0.0 mm 0.00 in0.0 mm 0.00 in0.0 mm
09:09 AM 29.7°F-1.3°C 24.6°F-4.1°C 81% 1.0 mph E1.6 kmh E 1.0 mph1.6 kmh 30.01 in1016.3 mb 0.00 in0.0 mm 0.00 in0.0 mm 0.00 in0.0 mm
09:08 AM 29.7°F-1.3°C 24.6°F-4.1°C 81% 1.0 mph E1.6 kmh E 1.0 mph1.6 kmh 30.01 in1016.3 mb 0.00 in0.0 mm 0.00 in0.0 mm 0.00 in0.0 mm
09:07 AM 29.7°F-1.3°C 24.6°F-4.1°C 81% 1.0 mph E1.6 kmh E 2.0 mph3.2 kmh 30.01 in1016.3 mb 0.00 in0.0 mm 0.00 in0.0 mm 0.00 in0.0 mm
09:06 AM 29.6°F-1.3°C 24.5°F-4.2°C 81% 1.0 mph E1.6 kmh E 2.0 mph3.2 kmh 30.01 in1016.3 mb 0.00 in0.0 mm 0.00 in0.0 mm 0.00 in0.0 mm
09:05 AM 29.6°F-1.3°C 24.2°F-4.3°C 80% 1.0 mph E1.6 kmh E 2.0 mph3.2 kmh 30.00 in1015.9 mb 0.00 in0.0 mm 0.00 in0.0 mm 0.00 in0.0 mm
09:04 AM 29.7°F-1.3°C 24.3°F-4.3°C 80% 1.0 mph E1.6 kmh E 2.0 mph3.2 kmh 30.00 in1015.9 mb 0.00 in0.0 mm 0.00 in0.0 mm 0.00 in0.0 mm
09:03 AM 29.6°F-1.3°C 24.2°F-4.3°C 80% 1.0 mph ENE1.6 kmh ENE 2.0 mph3.2 kmh 30.00 in1015.9 mb 0.00 in0.0 mm 0.00 in0.0 mm 0.00 in0.0 mm
09:02 AM 29.7°F-1.3°C 24.3°F-4.3°C 80% 3.0 mph 4.8 kmh 5.0 mph8.0 kmh 30.00 in1015.9 mb 0.00 in0.0 mm 0.00 in0.0 mm 0.00 in0.0 mm
09:01 AM 29.7°F-1.3°C 24.3°F-4.3°C 80% 6.0 mph NW9.7 kmh NW 8.0 mph12.9 kmh 30.00 in1015.9 mb 0.00 in0.0 mm 0.00 in0.0 mm 0.00 in0.0 mm
09:00 AM 29.7°F-1.3°C 24.3°F-4.3°C 80% 5.0 mph WNW8.0 kmh WNW 8.0 mph12.9 kmh 30.00 in1015.9 mb 0.00 in0.0 mm 0.00 in0.0 mm 0.00 in0.0 mm
08:59 AM 29.7°F-1.3°C 24.3°F-4.3°C 80% 2.0 mph W3.2 kmh W 4.0 mph6.4 kmh 30.00 in1015.9 mb 0.00 in0.0 mm 0.00 in0.0 mm 0.00 in0.0 mm
08:58 AM 29.7°F-1.3°C 24.3°F-4.3°C 80% 4.0 mph W6.4 kmh W 12.0 mph19.3 kmh 30.00 in1015.9 mb 0.00 in0.0 mm 0.00 in0.0 mm 0.00 in0.0 mm
08:57 AM 29.7°F-1.3°C 24.3°F-4.3°C 80% 6.0 mph W9.7 kmh W 10.0 mph16.1 kmh 30.00 in1015.9 mb 0.00 in0.0 mm 0.00 in0.0 mm 0.00 in0.0 mm
08:56 AM 29.7°F-1.3°C 24.3°F-4.3°C 80% 3.0 mph NNE4.8 kmh NNE 6.0 mph9.7 kmh 30.00 in1015.9 mb 0.00 in0.0 mm 0.00 in0.0 mm 0.00 in0.0 mm
08:55 AM 29.7°F-1.3°C 24.3°F-4.3°C 80% 4.0 mph 6.4 kmh 9.0 mph14.5 kmh 29.99 in1015.6 mb 0.00 in0.0 mm 0.00 in0.0 mm 0.00 in0.0 mm
08:54 AM 29.7°F-1.3°C 24.3°F-4.3°C 80% 3.0 mph NW4.8 kmh NW 7.0 mph11.3 kmh 29.99 in1015.6 mb 0.00 in0.0 mm 0.00 in0.0 mm 0.00 in0.0 mm
08:53 AM 29.8°F-1.2°C 24.4°F-4.2°C 80% 4.0 mph NNW6.4 kmh NNW 10.0 mph16.1 kmh 29.99 in1015.6 mb 0.00 in0.0 mm 0.00 in0.0 mm 0.00 in0.0 mm
08:52 AM 29.8°F-1.2°C 24.4°F-4.2°C 80% 4.0 mph ENE6.4 kmh ENE 9.0 mph14.5 kmh 29.98 in1015.2 mb 0.00 in0.0 mm 0.00 in0.0 mm 0.00 in0.0 mm
08:51 AM 29.7°F-1.3°C 24.3°F-4.3°C 80% 2.0 mph W3.2 kmh W 4.0 mph6.4 kmh 29.99 in1015.6 mb 0.00 in0.0 mm 0.00 in0.0 mm 0.00 in0.0 mm
08:50 AM 29.7°F-1.3°C 24.0°F-4.4°C 79% 5.0 mph NNW8.0 kmh NNW 10.0 mph16.1 kmh 29.99 in1015.6 mb 0.00 in0.0 mm 0.00 in0.0 mm 0.00 in0.0 mm
08:49 AM 29.7°F-1.3°C 24.0°F-4.4°C 79% 5.0 mph WNW8.0 kmh WNW 6.0 mph9.7 kmh 29.98 in1015.2 mb 0.00 in0.0 mm 0.00 in0.0 mm 0.00 in0.0 mm
08:48 AM 29.8°F-1.2°C 24.1°F-4.4°C 79% 9.0 mph NNW14.5 kmh NNW 11.0 mph17.7 kmh 29.98 in1015.2 mb 0.00 in0.0 mm 0.00 in0.0 mm 0.00 in0.0 mm
08:47 AM 29.8°F-1.2°C 24.1°F-4.4°C 79% 4.0 mph 6.4 kmh 11.0 mph17.7 kmh 29.98 in1015.2 mb 0.00 in0.0 mm 0.00 in0.0 mm 0.00 in0.0 mm
08:46 AM 29.8°F-1.2°C 24.1°F-4.4°C 79% 6.0 mph NNW9.7 kmh NNW 11.0 mph17.7 kmh 29.98 in1015.2 mb 0.00 in0.0 mm 0.00 in0.0 mm 0.00 in0.0 mm
08:45 AM 29.8°F-1.2°C 24.4°F-4.2°C 80% 7.0 mph NNW11.3 kmh NNW 11.0 mph17.7 kmh 29.98 in1015.2 mb 0.00 in0.0 mm 0.00 in0.0 mm 0.00 in0.0 mm
08:44 AM 29.8°F-1.2°C 24.1°F-4.4°C 79% 8.0 mph NNW12.9 kmh NNW 11.0 mph17.7 kmh 29.97 in1014.9 mb 0.00 in0.0 mm 0.00 in0.0 mm 0.00 in0.0 mm
08:43 AM 29.8°F-1.2°C 24.1°F-4.4°C 79% 9.0 mph NW14.5 kmh NW 16.0 mph25.7 kmh 29.97 in1014.9 mb 0.00 in0.0 mm 0.00 in0.0 mm 0.00 in0.0 mm
08:42 AM 29.8°F-1.2°C 24.1°F-4.4°C 79% 7.0 mph NNW11.3 kmh NNW 14.0 mph22.5 kmh 29.97 in1014.9 mb 0.00 in0.0 mm 0.00 in0.0 mm 0.00 in0.0 mm
08:41 AM 29.8°F-1.2°C 24.1°F-4.4°C 79% 10.0 mph NW16.1 kmh NW 19.0 mph30.6 kmh 29.97 in1014.9 mb 0.00 in0.0 mm 0.00 in0.0 mm 0.00 in0.0 mm
08:40 AM 29.8°F-1.2°C 24.1°F-4.4°C 79% 7.0 mph NNE11.3 kmh NNE 21.0 mph33.8 kmh 29.96 in1014.6 mb 0.00 in0.0 mm 0.00 in0.0 mm 0.00 in0.0 mm
08:39 AM 29.8°F-1.2°C 24.1°F-4.4°C 79% 12.0 mph NW19.3 kmh NW 22.0 mph35.4 kmh 29.96 in1014.6 mb 0.00 in0.0 mm 0.00 in0.0 mm 0.00 in0.0 mm
08:38 AM 29.8°F-1.2°C 24.4°F-4.2°C 80% 17.0 mph NW27.4 kmh NW 26.0 mph41.8 kmh 29.96 in1014.6 mb 0.00 in0.0 mm 0.00 in0.0 mm 0.00 in0.0 mm
08:37 AM 29.8°F-1.2°C 24.1°F-4.4°C 79% 11.0 mph NNW17.7 kmh NNW 17.0 mph27.4 kmh 29.96 in1014.6 mb 0.00 in0.0 mm 0.00 in0.0 mm 0.00 in0.0 mm
08:36 AM 29.7°F-1.3°C 24.3°F-4.3°C 80% 6.0 mph NNW9.7 kmh NNW 11.0 mph17.7 kmh 29.96 in1014.6 mb 0.00 in0.0 mm 0.00 in0.0 mm 0.00 in0.0 mm
08:35 AM 29.7°F-1.3°C 24.3°F-4.3°C 80% 16.0 mph NNW25.7 kmh NNW 21.0 mph33.8 kmh 29.96 in1014.6 mb 0.00 in0.0 mm 0.00 in0.0 mm 0.00 in0.0 mm
08:34 AM 29.6°F-1.3°C 24.5°F-4.2°C 81% 8.0 mph W12.9 kmh W 14.0 mph22.5 kmh 29.96 in1014.6 mb 0.00 in0.0 mm 0.00 in0.0 mm 0.00 in0.0 mm
08:33 AM 29.6°F-1.3°C 24.5°F-4.2°C 81% 7.0 mph NW11.3 kmh NW 11.0 mph17.7 kmh 29.95 in1014.2 mb 0.00 in0.0 mm 0.00 in0.0 mm 0.00 in0.0 mm
08:32 AM 29.6°F-1.3°C 24.5°F-4.2°C 81% 10.0 mph NW16.1 kmh NW 17.0 mph27.4 kmh 29.95 in1014.2 mb 0.00 in0.0 mm 0.00 in0.0 mm 0.00 in0.0 mm
08:31 AM 29.7°F-1.3°C 24.6°F-4.1°C 81% 8.0 mph W12.9 kmh W 15.0 mph24.1 kmh 29.95 in1014.2 mb 0.00 in0.0 mm 0.00 in0.0 mm 0.00 in0.0 mm
08:30 AM 29.7°F-1.3°C 24.6°F-4.1°C 81% 5.0 mph ENE8.0 kmh ENE 8.0 mph12.9 kmh 29.95 in1014.2 mb 0.00 in0.0 mm 0.00 in0.0 mm 0.00 in0.0 mm
08:29 AM 29.7°F-1.3°C 24.6°F-4.1°C 81% 7.0 mph 11.3 kmh 11.0 mph17.7 kmh 29.95 in1014.2 mb 0.00 in0.0 mm 0.00 in0.0 mm 0.00 in0.0 mm
08:28 AM 29.7°F-1.3°C 24.6°F-4.1°C 81% 8.0 mph NE12.9 kmh NE 14.0 mph22.5 kmh 29.95 in1014.2 mb 0.00 in0.0 mm 0.00 in0.0 mm 0.00 in0.0 mm
08:27 AM 29.6°F-1.3°C 24.8°F-4.0°C 82% 10.0 mph NNW16.1 kmh NNW 16.0 mph25.7 kmh 29.95 in1014.2 mb 0.00 in0.0 mm 0.00 in0.0 mm 0.00 in0.0 mm
08:26 AM 29.6°F-1.3°C 24.8°F-4.0°C 82% 13.0 mph NNE20.9 kmh NNE 18.0 mph29.0 kmh 29.95 in1014.2 mb 0.00 in0.0 mm 0.00 in0.0 mm 0.00 in0.0 mm
08:25 AM 29.6°F-1.3°C 24.8°F-4.0°C 82% 10.0 mph NNW16.1 kmh NNW 16.0 mph25.7 kmh 29.95 in1014.2 mb 0.00 in0.0 mm 0.00 in0.0 mm 0.00 in0.0 mm
08:24 AM 29.6°F-1.3°C 25.1°F-3.8°C 83% 12.0 mph NNW19.3 kmh NNW 20.0 mph32.2 kmh 29.95 in1014.2 mb 0.00 in0.0 mm 0.00 in0.0 mm 0.00 in0.0 mm
08:23 AM 29.5°F-1.4°C 25.0°F-3.9°C 83% 12.0 mph NNE19.3 kmh NNE 20.0 mph32.2 kmh 29.95 in1014.2 mb 0.00 in0.0 mm 0.00 in0.0 mm 0.00 in0.0 mm
08:22 AM 29.5°F-1.4°C 25.0°F-3.9°C 83% 8.0 mph NNW12.9 kmh NNW 11.0 mph17.7 kmh 29.94 in1013.9 mb 0.00 in0.0 mm 0.00 in0.0 mm 0.00 in0.0 mm
08:21 AM 29.5°F-1.4°C 25.0°F-3.9°C 83% 7.0 mph NNW11.3 kmh NNW 12.0 mph19.3 kmh 29.94 in1013.9 mb 0.00 in0.0 mm 0.00 in0.0 mm 0.00 in0.0 mm
08:20 AM 29.5°F-1.4°C 25.0°F-3.9°C 83% 8.0 mph 12.9 kmh 13.0 mph20.9 kmh 29.94 in1013.9 mb 0.00 in0.0 mm 0.00 in0.0 mm 0.00 in0.0 mm
08:19 AM 29.5°F-1.4°C 25.0°F-3.9°C 83% 15.0 mph NNW24.1 kmh NNW 19.0 mph30.6 kmh 29.94 in1013.9 mb 0.00 in0.0 mm 0.00 in0.0 mm 0.00 in0.0 mm
08:18 AM 29.5°F-1.4°C 25.3°F-3.7°C 84% 14.0 mph NNW22.5 kmh NNW 18.0 mph29.0 kmh 29.94 in1013.9 mb 0.00 in0.0 mm 0.00 in0.0 mm 0.00 in0.0 mm
08:17 AM 29.5°F-1.4°C 25.3°F-3.7°C 84% 11.0 mph NNW17.7 kmh NNW 19.0 mph30.6 kmh 29.94 in1013.9 mb 0.00 in0.0 mm 0.00 in0.0 mm 0.00 in0.0 mm
08:16 AM 29.4°F-1.4°C 25.2°F-3.8°C 84% 12.0 mph NNW19.3 kmh NNW 19.0 mph30.6 kmh 29.94 in1013.9 mb 0.00 in0.0 mm 0.00 in0.0 mm 0.00 in0.0 mm
08:15 AM 29.4°F-1.4°C 25.2°F-3.8°C 84% 11.0 mph NW17.7 kmh NW 15.0 mph24.1 kmh 29.94 in1013.9 mb 0.00 in0.0 mm 0.00 in0.0 mm 0.00 in0.0 mm
08:14 AM 29.4°F-1.4°C 25.5°F-3.6°C 85% 10.0 mph NNW16.1 kmh NNW 15.0 mph24.1 kmh 29.94 in1013.9 mb 0.00 in0.0 mm 0.00 in0.0 mm 0.00 in0.0 mm
08:13 AM 29.4°F-1.4°C 25.5°F-3.6°C 85% 4.0 mph WNW6.4 kmh WNW 11.0 mph17.7 kmh 29.94 in1013.9 mb 0.00 in0.0 mm 0.00 in0.0 mm 0.00 in0.0 mm
08:12 AM 29.3°F-1.5°C 25.6°F-3.6°C 86% 8.0 mph 12.9 kmh 14.0 mph22.5 kmh 29.94 in1013.9 mb 0.00 in0.0 mm 0.00 in0.0 mm 0.00 in0.0 mm
08:11 AM 29.2°F-1.6°C 25.5°F-3.6°C 86% 6.0 mph NW9.7 kmh NW 13.0 mph20.9 kmh 29.93 in1013.5 mb 0.00 in0.0 mm 0.00 in0.0 mm 0.00 in0.0 mm
08:10 AM 29.2°F-1.6°C 25.5°F-3.6°C 86% 4.0 mph 6.4 kmh 8.0 mph12.9 kmh 29.93 in1013.5 mb 0.00 in0.0 mm 0.00 in0.0 mm 0.00 in0.0 mm
08:09 AM 29.2°F-1.6°C 25.8°F-3.4°C 87% 6.0 mph NW9.7 kmh NW 12.0 mph19.3 kmh 29.93 in1013.5 mb 0.00 in0.0 mm 0.00 in0.0 mm 0.00 in0.0 mm
08:08 AM 29.2°F-1.6°C 25.8°F-3.4°C 87% 6.0 mph WNW9.7 kmh WNW 9.0 mph14.5 kmh 29.93 in1013.5 mb 0.00 in0.0 mm 0.00 in0.0 mm 0.00 in0.0 mm
08:07 AM 29.2°F-1.6°C 25.8°F-3.4°C 87% 5.0 mph WSW8.0 kmh WSW 8.0 mph12.9 kmh 29.93 in1013.5 mb 0.00 in0.0 mm 0.00 in0.0 mm 0.00 in0.0 mm
08:06 AM 29.3°F-1.5°C 25.9°F-3.4°C 87% 4.0 mph WNW6.4 kmh WNW 9.0 mph14.5 kmh 29.93 in1013.5 mb 0.00 in0.0 mm 0.00 in0.0 mm 0.00 in0.0 mm
08:05 AM 29.3°F-1.5°C 25.9°F-3.4°C 87% 3.0 mph S4.8 kmh S 4.0 mph6.4 kmh 29.93 in1013.5 mb 0.00 in0.0 mm 0.00 in0.0 mm 0.00 in0.0 mm
08:04 AM 29.3°F-1.5°C 25.6°F-3.6°C 86% 3.0 mph ESE4.8 kmh ESE 6.0 mph9.7 kmh 29.92 in1013.2 mb 0.00 in0.0 mm 0.00 in0.0 mm 0.00 in0.0 mm
08:03 AM 29.3°F-1.5°C 25.9°F-3.4°C 87% 8.0 mph NNE12.9 kmh NNE 15.0 mph24.1 kmh 29.92 in1013.2 mb 0.00 in0.0 mm 0.00 in0.0 mm 0.00 in0.0 mm
08:02 AM 29.3°F-1.5°C 25.6°F-3.6°C 86% 9.0 mph NE14.5 kmh NE 14.0 mph22.5 kmh 29.92 in1013.2 mb 0.00 in0.0 mm 0.00 in0.0 mm 0.00 in0.0 mm
08:01 AM 29.3°F-1.5°C 25.6°F-3.6°C 86% 6.0 mph 9.7 kmh 10.0 mph16.1 kmh 29.92 in1013.2 mb 0.00 in0.0 mm 0.00 in0.0 mm 0.00 in0.0 mm
08:00 AM 29.4°F-1.4°C 25.7°F-3.5°C 86% 9.0 mph NNE14.5 kmh NNE 12.0 mph19.3 kmh 29.92 in1013.2 mb 0.00 in0.0 mm 0.00 in0.0 mm 0.00 in0.0 mm
07:59 AM 29.4°F-1.4°C 25.7°F-3.5°C 86% 12.0 mph NE19.3 kmh NE 16.0 mph25.7 kmh 29.92 in1013.2 mb 0.00 in0.0 mm 0.00 in0.0 mm 0.00 in0.0 mm
07:58 AM 29.4°F-1.4°C 25.5°F-3.6°C 85% 10.0 mph NE16.1 kmh NE 15.0 mph24.1 kmh 29.92 in1013.2 mb 0.00 in0.0 mm 0.00 in0.0 mm 0.00 in0.0 mm
07:57 AM 29.4°F-1.4°C 25.5°F-3.6°C 85% 8.0 mph NNE12.9 kmh NNE 12.0 mph19.3 kmh 29.92 in1013.2 mb 0.00 in0.0 mm 0.00 in0.0 mm 0.00 in0.0 mm
07:56 AM 29.5°F-1.4°C 25.6°F-3.6°C 85% 11.0 mph NNW17.7 kmh NNW 19.0 mph30.6 kmh 29.92 in1013.2 mb 0.00 in0.0 mm 0.00 in0.0 mm 0.00 in0.0 mm
07:55 AM 29.4°F-1.4°C 25.5°F-3.6°C 85% 10.0 mph 16.1 kmh 16.0 mph25.7 kmh 29.91 in1012.9 mb 0.00 in0.0 mm 0.00 in0.0 mm 0.00 in0.0 mm
07:54 AM 29.5°F-1.4°C 25.6°F-3.6°C 85% 6.0 mph NNE9.7 kmh NNE 12.0 mph19.3 kmh 29.91 in1012.9 mb 0.00 in0.0 mm 0.00 in0.0 mm 0.00 in0.0 mm
07:53 AM 29.6°F-1.3°C 25.7°F-3.5°C 85% 10.0 mph NE16.1 kmh NE 13.0 mph20.9 kmh 29.91 in1012.9 mb 0.00 in0.0 mm 0.00 in0.0 mm 0.00 in0.0 mm
07:52 AM 29.6°F-1.3°C 25.4°F-3.7°C 84% 7.0 mph NNE11.3 kmh NNE 10.0 mph16.1 kmh 29.91 in1012.9 mb 0.00 in0.0 mm 0.00 in0.0 mm 0.00 in0.0 mm
07:51 AM 29.7°F-1.3°C 25.5°F-3.6°C 84% 11.0 mph NNE17.7 kmh NNE 20.0 mph32.2 kmh 29.92 in1013.2 mb 0.00 in0.0 mm 0.00 in0.0 mm 0.00 in0.0 mm
07:50 AM 29.7°F-1.3°C 25.5°F-3.6°C 84% 6.0 mph NW9.7 kmh NW 14.0 mph22.5 kmh 29.92 in1013.2 mb 0.00 in0.0 mm 0.00 in0.0 mm 0.00 in0.0 mm
07:49 AM 29.8°F-1.2°C 25.3°F-3.7°C 83% 7.0 mph NE11.3 kmh NE 10.0 mph16.1 kmh 29.91 in1012.9 mb 0.00 in0.0 mm 0.00 in0.0 mm 0.00 in0.0 mm
07:48 AM 29.8°F-1.2°C 25.3°F-3.7°C 83% 8.0 mph NE12.9 kmh NE 12.0 mph19.3 kmh 29.91 in1012.9 mb 0.00 in0.0 mm 0.00 in0.0 mm 0.00 in0.0 mm
07:47 AM 29.9°F-1.2°C 25.1°F-3.8°C 82% 11.0 mph NE17.7 kmh NE 17.0 mph27.4 kmh 29.91 in1012.9 mb 0.00 in0.0 mm 0.00 in0.0 mm 0.00 in0.0 mm
07:46 AM 29.9°F-1.2°C 25.1°F-3.8°C 82% 9.0 mph 14.5 kmh 14.0 mph22.5 kmh 29.91 in1012.9 mb 0.00 in0.0 mm 0.00 in0.0 mm 0.00 in0.0 mm
07:45 AM 29.9°F-1.2°C 24.8°F-4.0°C 81% 8.0 mph WNW12.9 kmh WNW 12.0 mph19.3 kmh 29.91 in1012.9 mb 0.00 in0.0 mm 0.00 in0.0 mm 0.00 in0.0 mm
07:44 AM 29.9°F-1.2°C 24.8°F-4.0°C 81% 5.0 mph NNW8.0 kmh NNW 9.0 mph14.5 kmh 29.91 in1012.9 mb 0.00 in0.0 mm 0.00 in0.0 mm 0.00 in0.0 mm
07:43 AM 29.9°F-1.2°C 24.8°F-4.0°C 81% 10.0 mph NNW16.1 kmh NNW 15.0 mph24.1 kmh 29.91 in1012.9 mb 0.00 in0.0 mm 0.00 in0.0 mm 0.00 in0.0 mm
07:42 AM 29.9°F-1.2°C 24.8°F-4.0°C 81% 7.0 mph 11.3 kmh 14.0 mph22.5 kmh 29.91 in1012.9 mb 0.00 in0.0 mm 0.00 in0.0 mm 0.00 in0.0 mm
07:41 AM 29.9°F-1.2°C 24.8°F-4.0°C 81% 10.0 mph 16.1 kmh 22.0 mph35.4 kmh 29.90 in1012.5 mb 0.00 in0.0 mm 0.00 in0.0 mm 0.00 in0.0 mm
07:40 AM 29.8°F-1.2°C 24.7°F-4.1°C 81% 8.0 mph NNW12.9 kmh NNW 25.0 mph40.2 kmh 29.91 in1012.9 mb 0.00 in0.0 mm 0.00 in0.0 mm 0.00 in0.0 mm
07:39 AM 29.8°F-1.2°C 24.7°F-4.1°C 81% 10.0 mph NNW16.1 kmh NNW 15.0 mph24.1 kmh 29.90 in1012.5 mb 0.00 in0.0 mm 0.00 in0.0 mm 0.00 in0.0 mm
07:38 AM 29.8°F-1.2°C 24.7°F-4.1°C 81% 11.0 mph NNW17.7 kmh NNW 18.0 mph29.0 kmh 29.90 in1012.5 mb 0.00 in0.0 mm 0.00 in0.0 mm 0.00 in0.0 mm
07:37 AM 29.7°F-1.3°C 24.9°F-3.9°C 82% 10.0 mph NNE16.1 kmh NNE 16.0 mph25.7 kmh 29.90 in1012.5 mb 0.00 in0.0 mm 0.00 in0.0 mm 0.00 in0.0 mm
07:36 AM 29.7°F-1.3°C 24.9°F-3.9°C 82% 11.0 mph NNW17.7 kmh NNW 16.0 mph25.7 kmh 29.90 in1012.5 mb 0.00 in0.0 mm 0.00 in0.0 mm 0.00 in0.0 mm
07:35 AM 29.8°F-1.2°C 24.7°F-4.1°C 81% 7.0 mph W11.3 kmh W 11.0 mph17.7 kmh 29.90 in1012.5 mb 0.00 in0.0 mm 0.00 in0.0 mm 0.00 in0.0 mm
07:34 AM 29.8°F-1.2°C 24.7°F-4.1°C 81% 13.0 mph NW20.9 kmh NW 18.0 mph29.0 kmh 29.90 in1012.5 mb 0.00 in0.0 mm 0.00 in0.0 mm 0.00 in0.0 mm
07:33 AM 29.9°F-1.2°C 24.8°F-4.0°C 81% 9.0 mph NW14.5 kmh NW 18.0 mph29.0 kmh 29.90 in1012.5 mb 0.00 in0.0 mm 0.00 in0.0 mm 0.00 in0.0 mm
07:32 AM 29.9°F-1.2°C 24.8°F-4.0°C 81% 9.0 mph 14.5 kmh 13.0 mph20.9 kmh 29.90 in1012.5 mb 0.00 in0.0 mm 0.00 in0.0 mm 0.00 in0.0 mm
07:31 AM 29.9°F-1.2°C 24.5°F-4.2°C 80% 11.0 mph NNW17.7 kmh NNW 22.0 mph35.4 kmh 29.90 in1012.5 mb 0.00 in0.0 mm 0.00 in0.0 mm 0.00 in0.0 mm
07:30 AM 29.9°F-1.2°C 24.5°F-4.2°C 80% 12.0 mph NNE19.3 kmh NNE 20.0 mph32.2 kmh 29.90 in1012.5 mb 0.00 in0.0 mm 0.00 in0.0 mm 0.00 in0.0 mm
07:29 AM 29.9°F-1.2°C 24.5°F-4.2°C 80% 13.0 mph 20.9 kmh 21.0 mph33.8 kmh 29.90 in1012.5 mb 0.00 in0.0 mm 0.00 in0.0 mm 0.00 in0.0 mm
07:28 AM 29.9°F-1.2°C 24.5°F-4.2°C 80% 14.0 mph NW22.5 kmh NW 24.0 mph38.6 kmh 29.89 in1012.2 mb 0.00 in0.0 mm 0.00 in0.0 mm 0.00 in0.0 mm
07:27 AM 30.0°F-1.1°C 24.6°F-4.1°C 80% 14.0 mph NW22.5 kmh NW 18.0 mph29.0 kmh 29.89 in1012.2 mb 0.00 in0.0 mm 0.00 in0.0 mm 0.00 in0.0 mm
07:26 AM 29.8°F-1.2°C 24.4°F-4.2°C 80% 18.0 mph 29.0 kmh 23.0 mph37.0 kmh 29.89 in1012.2 mb 0.00 in0.0 mm 0.00 in0.0 mm 0.00 in0.0 mm
07:25 AM 29.8°F-1.2°C 25.0°F-3.9°C 82% 13.0 mph NNW20.9 kmh NNW 24.0 mph38.6 kmh 29.89 in1012.2 mb 0.00 in0.0 mm 0.00 in0.0 mm 0.00 in0.0 mm
07:24 AM 29.8°F-1.2°C 25.0°F-3.9°C 82% 7.0 mph 11.3 kmh 11.0 mph17.7 kmh 29.89 in1012.2 mb 0.00 in0.0 mm 0.00 in0.0 mm 0.00 in0.0 mm
07:23 AM 29.9°F-1.2°C 25.1°F-3.8°C 82% 5.0 mph 8.0 kmh 11.0 mph17.7 kmh 29.89 in1012.2 mb 0.00 in0.0 mm 0.00 in0.0 mm 0.00 in0.0 mm
07:22 AM 30.0°F-1.1°C 24.9°F-3.9°C 81% 11.0 mph 17.7 kmh 16.0 mph25.7 kmh 29.89 in1012.2 mb 0.00 in0.0 mm 0.00 in0.0 mm 0.00 in0.0 mm
07:21 AM 30.1°F-1.1°C 25.0°F-3.9°C 81% 16.0 mph NNW25.7 kmh NNW 23.0 mph37.0 kmh 29.89 in1012.2 mb 0.00 in0.0 mm 0.00 in0.0 mm 0.00 in0.0 mm
07:20 AM 30.2°F-1.0°C 24.8°F-4.0°C 80% 14.0 mph NW22.5 kmh NW 25.0 mph40.2 kmh 29.89 in1012.2 mb 0.00 in0.0 mm 0.00 in0.0 mm 0.00 in0.0 mm
07:19 AM 30.3°F-0.9°C 24.6°F-4.1°C 79% 7.0 mph 11.3 kmh 11.0 mph17.7 kmh 29.89 in1012.2 mb 0.00 in0.0 mm 0.00 in0.0 mm 0.00 in0.0 mm
07:18 AM 30.5°F-0.8°C 24.8°F-4.0°C 79% 9.0 mph NNE14.5 kmh NNE 16.0 mph25.7 kmh 29.88 in1011.9 mb 0.00 in0.0 mm 0.00 in0.0 mm 0.00 in0.0 mm
07:17 AM 30.6°F-0.8°C 24.6°F-4.1°C 78% 10.0 mph 16.1 kmh 14.0 mph22.5 kmh 29.88 in1011.9 mb 0.00 in0.0 mm 0.00 in0.0 mm 0.00 in0.0 mm
07:16 AM 30.8°F-0.7°C 24.5°F-4.2°C 77% 15.0 mph NNW24.1 kmh NNW 19.0 mph30.6 kmh 29.88 in1011.9 mb 0.00 in0.0 mm 0.00 in0.0 mm 0.00 in0.0 mm
07:15 AM 31.0°F-0.6°C 24.3°F-4.3°C 76% 14.0 mph NNW22.5 kmh NNW 19.0 mph30.6 kmh 29.88 in1011.9 mb 0.00 in0.0 mm 0.00 in0.0 mm 0.00 in0.0 mm
07:14 AM 31.1°F-0.5°C 24.1°F-4.4°C 75% 14.0 mph NNW22.5 kmh NNW 20.0 mph32.2 kmh 29.87 in1011.5 mb 0.00 in0.0 mm 0.00 in0.0 mm 0.00 in0.0 mm
07:13 AM 31.3°F-0.4°C 23.7°F-4.6°C 73% 9.0 mph NE14.5 kmh NE 15.0 mph24.1 kmh 29.87 in1011.5 mb 0.00 in0.0 mm 0.00 in0.0 mm 0.00 in0.0 mm
07:12 AM 31.3°F-0.4°C 24.0°F-4.4°C 74% 9.0 mph NW14.5 kmh NW 15.0 mph24.1 kmh 29.87 in1011.5 mb 0.00 in0.0 mm 0.00 in0.0 mm 0.00 in0.0 mm
07:11 AM 31.4°F-0.3°C 23.8°F-4.6°C 73% 10.0 mph NNE16.1 kmh NNE 18.0 mph29.0 kmh 29.87 in1011.5 mb 0.00 in0.0 mm 0.00 in0.0 mm 0.00 in0.0 mm
07:10 AM 31.6°F-0.2°C 23.6°F-4.7°C 72% 14.0 mph NNW22.5 kmh NNW 19.0 mph30.6 kmh 29.87 in1011.5 mb 0.00 in0.0 mm 0.00 in0.0 mm 0.00 in0.0 mm
07:09 AM 31.6°F-0.2°C 23.6°F-4.7°C 72% 17.0 mph 27.4 kmh 28.0 mph45.1 kmh 29.86 in1011.2 mb 0.00 in0.0 mm 0.00 in0.0 mm 0.00 in0.0 mm
07:08 AM 31.6°F-0.2°C 23.6°F-4.7°C 72% 27.0 mph NNW43.5 kmh NNW 36.0 mph57.9 kmh 29.86 in1011.2 mb 0.00 in0.0 mm 0.00 in0.0 mm 0.00 in0.0 mm
07:07 AM 31.4°F-0.3°C 23.8°F-4.6°C 73% 18.0 mph NNW29.0 kmh NNW 24.0 mph38.6 kmh 29.86 in1011.2 mb 0.00 in0.0 mm 0.00 in0.0 mm 0.00 in0.0 mm
07:06 AM 31.4°F-0.3°C 23.8°F-4.6°C 73% 21.0 mph NNW33.8 kmh NNW 32.0 mph51.5 kmh 29.86 in1011.2 mb 0.00 in0.0 mm 0.00 in0.0 mm 0.00 in0.0 mm
07:05 AM 31.4°F-0.3°C 23.8°F-4.6°C 73% 22.0 mph NNW35.4 kmh NNW 33.0 mph53.1 kmh 29.86 in1011.2 mb 0.00 in0.0 mm 0.00 in0.0 mm 0.00 in0.0 mm
07:04 AM 31.4°F-0.3°C 24.1°F-4.4°C 74% 21.0 mph NW33.8 kmh NW 31.0 mph49.9 kmh 29.86 in1011.2 mb 0.00 in0.0 mm 0.00 in0.0 mm 0.00 in0.0 mm
07:03 AM 31.4°F-0.3°C 24.1°F-4.4°C 74% 21.0 mph 33.8 kmh 31.0 mph49.9 kmh 29.86 in1011.2 mb 0.00 in0.0 mm 0.00 in0.0 mm 0.00 in0.0 mm
07:02 AM 31.3°F-0.4°C 24.0°F-4.4°C 74% 21.0 mph NNW33.8 kmh NNW 30.0 mph48.3 kmh 29.86 in1011.2 mb 0.00 in0.0 mm 0.00 in0.0 mm 0.00 in0.0 mm
07:01 AM 31.1°F-0.5°C 24.4°F-4.2°C 76% 22.0 mph NW35.4 kmh NW 37.0 mph59.5 kmh 29.85 in1010.8 mb 0.00 in0.0 mm 0.00 in0.0 mm 0.00 in0.0 mm
07:00 AM 31.0°F-0.6°C 24.3°F-4.3°C 76% 24.0 mph NW38.6 kmh NW 31.0 mph49.9 kmh 29.85 in1010.8 mb 0.00 in0.0 mm 0.00 in0.0 mm 0.00 in0.0 mm
06:59 AM 30.9°F-0.6°C 24.6°F-4.1°C 77% 21.0 mph NNW33.8 kmh NNW 28.0 mph45.1 kmh 29.86 in1011.2 mb 0.00 in0.0 mm 0.00 in0.0 mm 0.00 in0.0 mm
06:58 AM 30.9°F-0.6°C 24.9°F-3.9°C 78% 23.0 mph NNW37.0 kmh NNW 29.0 mph46.7 kmh 29.85 in1010.8 mb 0.00 in0.0 mm 0.00 in0.0 mm 0.00 in0.0 mm
06:57 AM 30.8°F-0.7°C 24.5°F-4.2°C 77% 27.0 mph NNW43.5 kmh NNW 37.0 mph59.5 kmh 29.85 in1010.8 mb 0.00 in0.0 mm 0.00 in0.0 mm 0.00 in0.0 mm
06:56 AM 30.6°F-0.8°C 24.9°F-3.9°C 79% 21.0 mph 33.8 kmh 32.0 mph51.5 kmh 29.85 in1010.8 mb 0.00 in0.0 mm 0.00 in0.0 mm 0.00 in0.0 mm
06:55 AM 30.4°F-0.9°C 25.0°F-3.9°C 80% 24.0 mph NNW38.6 kmh NNW 32.0 mph51.5 kmh 29.85 in1010.8 mb 0.00 in0.0 mm 0.00 in0.0 mm 0.00 in0.0 mm
06:54 AM 30.3°F-0.9°C 24.9°F-3.9°C 80% 23.0 mph NNW37.0 kmh NNW 32.0 mph51.5 kmh 29.85 in1010.8 mb 0.00 in0.0 mm 0.00 in0.0 mm 0.00 in0.0 mm
06:53 AM 30.1°F-1.1°C 25.0°F-3.9°C 81% 24.0 mph NNW38.6 kmh NNW 32.0 mph51.5 kmh 29.84 in1010.5 mb 0.00 in0.0 mm 0.00 in0.0 mm 0.00 in0.0 mm
06:52 AM 30.1°F-1.1°C 25.0°F-3.9°C 81% 23.0 mph NNW37.0 kmh NNW 28.0 mph45.1 kmh 29.84 in1010.5 mb 0.00 in0.0 mm 0.00 in0.0 mm 0.00 in0.0 mm
06:51 AM 30.1°F-1.1°C 25.3°F-3.7°C 82% 23.0 mph NW37.0 kmh NW 34.0 mph54.7 kmh 29.84 in1010.5 mb 0.00 in0.0 mm 0.00 in0.0 mm 0.00 in0.0 mm
06:50 AM 30.0°F-1.1°C 25.2°F-3.8°C 82% 26.0 mph NNW41.8 kmh NNW 34.0 mph54.7 kmh 29.84 in1010.5 mb 0.00 in0.0 mm 0.00 in0.0 mm 0.00 in0.0 mm
06:49 AM 30.1°F-1.1°C 25.6°F-3.6°C 83% 29.0 mph NNW46.7 kmh NNW 37.0 mph59.5 kmh 29.84 in1010.5 mb 0.00 in0.0 mm 0.00 in0.0 mm 0.00 in0.0 mm
06:48 AM 30.1°F-1.1°C 25.6°F-3.6°C 83% 22.0 mph NW35.4 kmh NW 27.0 mph43.5 kmh 29.84 in1010.5 mb 0.00 in0.0 mm 0.00 in0.0 mm 0.00 in0.0 mm
06:47 AM 30.1°F-1.1°C 25.6°F-3.6°C 83% 23.0 mph NNW37.0 kmh NNW 31.0 mph49.9 kmh 29.84 in1010.5 mb 0.00 in0.0 mm 0.00 in0.0 mm 0.00 in0.0 mm
06:46 AM 30.2°F-1.0°C 25.4°F-3.7°C 82% 23.0 mph NW37.0 kmh NW 29.0 mph46.7 kmh 29.84 in1010.5 mb 0.00 in0.0 mm 0.00 in0.0 mm 0.00 in0.0 mm
06:45 AM 30.3°F-0.9°C 25.8°F-3.4°C 83% 23.0 mph NW37.0 kmh NW 31.0 mph49.9 kmh 29.84 in1010.5 mb 0.00 in0.0 mm 0.00 in0.0 mm 0.00 in0.0 mm
06:44 AM 30.4°F-0.9°C 25.9°F-3.4°C 83% 23.0 mph NW37.0 kmh NW 34.0 mph54.7 kmh 29.84 in1010.5 mb 0.00 in0.0 mm 0.00 in0.0 mm 0.00 in0.0 mm
06:43 AM 30.4°F-0.9°C 25.9°F-3.4°C 83% 22.0 mph NNW35.4 kmh NNW 29.0 mph46.7 kmh 29.84 in1010.5 mb 0.00 in0.0 mm 0.00 in0.0 mm 0.00 in0.0 mm
06:42 AM 30.4°F-0.9°C 25.9°F-3.4°C 83% 20.0 mph NNW32.2 kmh NNW 32.0 mph51.5 kmh 29.84 in1010.5 mb 0.00 in0.0 mm 0.00 in0.0 mm 0.00 in0.0 mm
06:41 AM 30.3°F-0.9°C 26.1°F-3.3°C 84% 22.0 mph NW35.4 kmh NW 34.0 mph54.7 kmh 29.84 in1010.5 mb 0.00 in0.0 mm 0.00 in0.0 mm 0.00 in0.0 mm
06:40 AM 30.3°F-0.9°C 26.1°F-3.3°C 84% 21.0 mph NW33.8 kmh NW 30.0 mph48.3 kmh 29.83 in1010.2 mb 0.00 in0.0 mm 0.00 in0.0 mm 0.00 in0.0 mm
06:39 AM 30.2°F-1.0°C 26.2°F-3.2°C 85% 18.0 mph NW29.0 kmh NW 27.0 mph43.5 kmh 29.84 in1010.5 mb 0.00 in0.0 mm 0.00 in0.0 mm 0.00 in0.0 mm
06:38 AM 30.3°F-0.9°C 26.3°F-3.2°C 85% 20.0 mph NNW32.2 kmh NNW 31.0 mph49.9 kmh 29.84 in1010.5 mb 0.00 in0.0 mm 0.00 in0.0 mm 0.00 in0.0 mm
06:37 AM 30.1°F-1.1°C 26.4°F-3.1°C 86% 26.0 mph NW41.8 kmh NW 33.0 mph53.1 kmh 29.83 in1010.2 mb 0.00 in0.0 mm 0.00 in0.0 mm 0.00 in0.0 mm
06:36 AM 30.1°F-1.1°C 26.4°F-3.1°C 86% 21.0 mph NNW33.8 kmh NNW 32.0 mph51.5 kmh 29.83 in1010.2 mb 0.00 in0.0 mm 0.00 in0.0 mm 0.00 in0.0 mm
06:35 AM 30.0°F-1.1°C 26.3°F-3.2°C 86% 24.0 mph NW38.6 kmh NW 30.0 mph48.3 kmh 29.83 in1010.2 mb 0.00 in0.0 mm 0.00 in0.0 mm 0.00 in0.0 mm
06:34 AM 29.9°F-1.2°C 26.5°F-3.1°C 87% 24.0 mph NW38.6 kmh NW 31.0 mph49.9 kmh 29.83 in1010.2 mb 0.00 in0.0 mm 0.00 in0.0 mm 0.00 in0.0 mm
06:33 AM 30.0°F-1.1°C 26.6°F-3.0°C 87% 20.0 mph NW32.2 kmh NW 27.0 mph43.5 kmh 29.83 in1010.2 mb 0.00 in0.0 mm 0.00 in0.0 mm 0.00 in0.0 mm
06:32 AM 30.1°F-1.1°C 26.7°F-2.9°C 87% 19.0 mph NW30.6 kmh NW 26.0 mph41.8 kmh 29.83 in1010.2 mb 0.00 in0.0 mm 0.00 in0.0 mm 0.00 in0.0 mm
06:31 AM 30.2°F-1.0°C 26.8°F-2.9°C 87% 18.0 mph NNW29.0 kmh NNW 23.0 mph37.0 kmh 29.83 in1010.2 mb 0.00 in0.0 mm 0.00 in0.0 mm 0.00 in0.0 mm
06:30 AM 30.2°F-1.0°C 27.1°F-2.7°C 88% 21.0 mph NW33.8 kmh NW 29.0 mph46.7 kmh 29.83 in1010.2 mb 0.00 in0.0 mm 0.00 in0.0 mm 0.00 in0.0 mm
06:29 AM 30.2°F-1.0°C 27.1°F-2.7°C 88% 22.0 mph NW35.4 kmh NW 28.0 mph45.1 kmh 29.82 in1009.8 mb 0.00 in0.0 mm 0.00 in0.0 mm 0.00 in0.0 mm
06:28 AM 30.1°F-1.1°C 27.3°F-2.6°C 89% 21.0 mph NW33.8 kmh NW 29.0 mph46.7 kmh 29.82 in1009.8 mb 0.00 in0.0 mm 0.00 in0.0 mm 0.00 in0.0 mm
06:27 AM 30.1°F-1.1°C 27.3°F-2.6°C 89% 21.0 mph NNW33.8 kmh NNW 27.0 mph43.5 kmh 29.82 in1009.8 mb 0.00 in0.0 mm 0.00 in0.0 mm 0.00 in0.0 mm
06:26 AM 30.1°F-1.1°C 27.3°F-2.6°C 89% 19.0 mph NW30.6 kmh NW 25.0 mph40.2 kmh 29.82 in1009.8 mb 0.00 in0.0 mm 0.00 in0.0 mm 0.00 in0.0 mm
06:25 AM 30.1°F-1.1°C 27.3°F-2.6°C 89% 20.0 mph NW32.2 kmh NW 27.0 mph43.5 kmh 29.82 in1009.8 mb 0.00 in0.0 mm 0.00 in0.0 mm 0.00 in0.0 mm
06:24 AM 30.0°F-1.1°C 27.4°F-2.6°C 90% 20.0 mph NW32.2 kmh NW 26.0 mph41.8 kmh 29.82 in1009.8 mb 0.00 in0.0 mm 0.00 in0.0 mm 0.00 in0.0 mm
06:23 AM 30.0°F-1.1°C 27.4°F-2.6°C 90% 20.0 mph NW32.2 kmh NW 26.0 mph41.8 kmh 29.82 in1009.8 mb 0.00 in0.0 mm 0.00 in0.0 mm 0.00 in0.0 mm
06:22 AM 30.0°F-1.1°C 27.4°F-2.6°C 90% 18.0 mph NNW29.0 kmh NNW 26.0 mph41.8 kmh 29.82 in1009.8 mb 0.00 in0.0 mm 0.00 in0.0 mm 0.00 in0.0 mm
06:21 AM 30.1°F-1.1°C 27.5°F-2.5°C 90% 21.0 mph NW33.8 kmh NW 27.0 mph43.5 kmh 29.82 in1009.8 mb 0.00 in0.0 mm 0.00 in0.0 mm 0.00 in0.0 mm
06:20 AM 30.2°F-1.0°C 27.4°F-2.6°C 89% 21.0 mph NNW33.8 kmh NNW 26.0 mph41.8 kmh 29.82 in1009.8 mb 0.00 in0.0 mm 0.00 in0.0 mm 0.00 in0.0 mm
06:19 AM 30.4°F-0.9°C 27.6°F-2.4°C 89% 20.0 mph NNW32.2 kmh NNW 25.0 mph40.2 kmh 29.82 in1009.8 mb 0.00 in0.0 mm 0.00 in0.0 mm 0.00 in0.0 mm
06:18 AM 30.5°F-0.8°C 27.7°F-2.4°C 89% 20.0 mph NW32.2 kmh NW 26.0 mph41.8 kmh 29.83 in1010.2 mb 0.00 in0.0 mm 0.00 in0.0 mm 0.00 in0.0 mm
06:17 AM 30.7°F-0.7°C 27.8°F-2.3°C 89% 18.0 mph NW29.0 kmh NW 25.0 mph40.2 kmh 29.83 in1010.2 mb 0.00 in0.0 mm 0.00 in0.0 mm 0.00 in0.0 mm
06:16 AM 30.9°F-0.6°C 28.0°F-2.2°C 89% 18.0 mph NW29.0 kmh NW 21.0 mph33.8 kmh 29.83 in1010.2 mb 0.00 in0.0 mm 0.00 in0.0 mm 0.00 in0.0 mm
06:15 AM 31.1°F-0.5°C 28.0°F-2.2°C 88% 13.0 mph NW20.9 kmh NW 17.0 mph27.4 kmh 29.83 in1010.2 mb 0.00 in0.0 mm 0.00 in0.0 mm 0.00 in0.0 mm
06:14 AM 31.4°F-0.3°C 28.3°F-2.1°C 88% 14.0 mph NNW22.5 kmh NNW 18.0 mph29.0 kmh 29.83 in1010.2 mb 0.00 in0.0 mm 0.00 in0.0 mm 0.00 in0.0 mm
06:13 AM 31.7°F-0.2°C 28.6°F-1.9°C 88% 13.0 mph NNW20.9 kmh NNW 17.0 mph27.4 kmh 29.83 in1010.2 mb 0.00 in0.0 mm 0.00 in0.0 mm 0.00 in0.0 mm
06:12 AM 32.0°F0.0°C 28.9°F-1.7°C 88% 17.0 mph NW27.4 kmh NW 21.0 mph33.8 kmh 29.84 in1010.5 mb 0.00 in0.0 mm 0.00 in0.0 mm 0.00 in0.0 mm
06:11 AM 32.4°F0.2°C 29.3°F-1.5°C 88% 18.0 mph NW29.0 kmh NW 22.0 mph35.4 kmh 29.84 in1010.5 mb 0.00 in0.0 mm 0.00 in0.0 mm 0.00 in0.0 mm
06:10 AM 32.7°F0.4°C 30.1°F-1.1°C 90% 13.0 mph NW20.9 kmh NW 21.0 mph33.8 kmh 29.83 in1010.2 mb 0.00 in0.0 mm 0.00 in0.0 mm 0.00 in0.0 mm
06:09 AM 32.8°F0.4°C 30.5°F-0.8°C 91% 10.0 mph NW16.1 kmh NW 13.0 mph20.9 kmh 29.82 in1009.8 mb 0.00 in0.0 mm 0.00 in0.0 mm 0.00 in0.0 mm
06:08 AM 32.8°F0.4°C 30.5°F-0.8°C 91% 8.0 mph NNW12.9 kmh NNW 11.0 mph17.7 kmh 29.81 in1009.5 mb 0.00 in0.0 mm 0.00 in0.0 mm 0.00 in0.0 mm
06:07 AM 32.7°F0.4°C 30.1°F-1.1°C 90% 6.0 mph NNW9.7 kmh NNW 10.0 mph16.1 kmh 29.81 in1009.5 mb 0.00 in0.0 mm 0.00 in0.0 mm 0.00 in0.0 mm
06:06 AM 32.8°F0.4°C 30.2°F-1.0°C 90% 5.0 mph NNW8.0 kmh NNW 9.0 mph14.5 kmh 29.80 in1009.1 mb 0.00 in0.0 mm 0.00 in0.0 mm 0.00 in0.0 mm
06:05 AM 32.8°F0.4°C 30.2°F-1.0°C 90% 6.0 mph NW9.7 kmh NW 8.0 mph12.9 kmh 29.80 in1009.1 mb 0.00 in0.0 mm 0.00 in0.0 mm 0.00 in0.0 mm
06:04 AM 32.8°F0.4°C 30.2°F-1.0°C 90% 4.0 mph W6.4 kmh W 9.0 mph14.5 kmh 29.80 in1009.1 mb 0.00 in0.0 mm 0.00 in0.0 mm 0.00 in0.0 mm
06:03 AM 32.8°F0.4°C 30.2°F-1.0°C 90% 5.0 mph WNW8.0 kmh WNW 9.0 mph14.5 kmh 29.80 in1009.1 mb 0.00 in0.0 mm 0.00 in0.0 mm 0.00 in0.0 mm
06:02 AM 32.8°F0.4°C 30.2°F-1.0°C 90% 5.0 mph W8.0 kmh W 7.0 mph11.3 kmh 29.80 in1009.1 mb 0.00 in0.0 mm 0.00 in0.0 mm 0.00 in0.0 mm
06:01 AM 32.8°F0.4°C 30.2°F-1.0°C 90% 4.0 mph W6.4 kmh W 8.0 mph12.9 kmh 29.79 in1008.8 mb 0.00 in0.0 mm 0.00 in0.0 mm 0.00 in0.0 mm
06:00 AM 32.8°F0.4°C 30.2°F-1.0°C 90% 5.0 mph WSW8.0 kmh WSW 8.0 mph12.9 kmh 29.79 in1008.8 mb 0.00 in0.0 mm 0.00 in0.0 mm 0.00 in0.0 mm
05:59 AM 32.9°F0.5°C 30.3°F-0.9°C 90% 4.0 mph W6.4 kmh W 4.0 mph6.4 kmh 29.79 in1008.8 mb 0.00 in0.0 mm 0.00 in0.0 mm 0.00 in0.0 mm
05:58 AM 32.9°F0.5°C 30.3°F-0.9°C 90% 5.0 mph WSW8.0 kmh WSW 8.0 mph12.9 kmh 29.79 in1008.8 mb 0.00 in0.0 mm 0.00 in0.0 mm 0.00 in0.0 mm
05:57 AM 32.9°F0.5°C 30.3°F-0.9°C 90% 5.0 mph WSW8.0 kmh WSW 8.0 mph12.9 kmh 29.79 in1008.8 mb 0.00 in0.0 mm 0.00 in0.0 mm 0.00 in0.0 mm
05:56 AM 32.9°F0.5°C 30.3°F-0.9°C 90% 6.0 mph WSW9.7 kmh WSW 8.0 mph12.9 kmh 29.78 in1008.5 mb 0.00 in0.0 mm 0.00 in0.0 mm 0.00 in0.0 mm
05:55 AM 33.0°F0.6°C 30.1°F-1.1°C 89% 6.0 mph WSW9.7 kmh WSW 9.0 mph14.5 kmh 29.78 in1008.5 mb 0.00 in0.0 mm 0.00 in0.0 mm 0.00 in0.0 mm
05:54 AM 33.0°F0.6°C 30.1°F-1.1°C 89% 5.0 mph WSW8.0 kmh WSW 9.0 mph14.5 kmh 29.78 in1008.5 mb 0.00 in0.0 mm 0.00 in0.0 mm 0.00 in0.0 mm
05:53 AM 33.0°F0.6°C 30.1°F-1.1°C 89% 8.0 mph WSW12.9 kmh WSW 12.0 mph19.3 kmh 29.78 in1008.5 mb 0.00 in0.0 mm 0.00 in0.0 mm 0.00 in0.0 mm
05:52 AM 33.1°F0.6°C 30.2°F-1.0°C 89% 8.0 mph WSW12.9 kmh WSW 11.0 mph17.7 kmh 29.78 in1008.5 mb 0.00 in0.0 mm 0.00 in0.0 mm 0.00 in0.0 mm
05:51 AM 33.1°F0.6°C 30.2°F-1.0°C 89% 6.0 mph WSW9.7 kmh WSW 10.0 mph16.1 kmh 29.78 in1008.5 mb 0.00 in0.0 mm 0.00 in0.0 mm 0.00 in0.0 mm
05:50 AM 33.2°F0.7°C 30.3°F-0.9°C 89% 6.0 mph SW9.7 kmh SW 8.0 mph12.9 kmh 29.78 in1008.5 mb 0.00 in0.0 mm 0.00 in0.0 mm 0.00 in0.0 mm
05:49 AM 33.2°F0.7°C 30.3°F-0.9°C 89% 9.0 mph SSW14.5 kmh SSW 14.0 mph22.5 kmh 29.77 in1008.1 mb 0.00 in0.0 mm 0.00 in0.0 mm 0.00 in0.0 mm
05:48 AM 33.3°F0.7°C 30.4°F-0.9°C 89% 8.0 mph SSW12.9 kmh SSW 13.0 mph20.9 kmh 29.77 in1008.1 mb 0.00 in0.0 mm 0.00 in0.0 mm 0.00 in0.0 mm
05:47 AM 33.3°F0.7°C 30.1°F-1.1°C 88% 9.0 mph SSW14.5 kmh SSW 12.0 mph19.3 kmh 29.77 in1008.1 mb 0.00 in0.0 mm 0.00 in0.0 mm 0.00 in0.0 mm
05:46 AM 33.5°F0.8°C 30.3°F-0.9°C 88% 11.0 mph SSW17.7 kmh SSW 15.0 mph24.1 kmh 29.77 in1008.1 mb 0.00 in0.0 mm 0.00 in0.0 mm 0.00 in0.0 mm
05:45 AM 33.5°F0.8°C 30.3°F-0.9°C 88% 12.0 mph WSW19.3 kmh WSW 16.0 mph25.7 kmh 29.77 in1008.1 mb 0.00 in0.0 mm 0.00 in0.0 mm 0.00 in0.0 mm
05:44 AM 33.6°F0.9°C 30.2°F-1.0°C 87% 11.0 mph SSW17.7 kmh SSW 14.0 mph22.5 kmh 29.78 in1008.5 mb 0.00 in0.0 mm 0.00 in0.0 mm 0.00 in0.0 mm
05:43 AM 33.6°F0.9°C 30.2°F-1.0°C 87% 15.0 mph SSW24.1 kmh SSW 21.0 mph33.8 kmh 29.78 in1008.5 mb 0.00 in0.0 mm 0.00 in0.0 mm 0.00 in0.0 mm
05:42 AM 33.8°F1.0°C 30.3°F-0.9°C 87% 16.0 mph SSW25.7 kmh SSW 24.0 mph38.6 kmh 29.78 in1008.5 mb 0.00 in0.0 mm 0.00 in0.0 mm 0.00 in0.0 mm
05:41 AM 33.9°F1.1°C 30.2°F-1.0°C 86% 14.0 mph SSW22.5 kmh SSW 17.0 mph27.4 kmh 29.78 in1008.5 mb 0.00 in0.0 mm 0.00 in0.0 mm 0.00 in0.0 mm
05:40 AM 34.1°F1.2°C 30.1°F-1.1°C 85% 12.0 mph SSW19.3 kmh SSW 20.0 mph32.2 kmh 29.78 in1008.5 mb 0.00 in0.0 mm 0.00 in0.0 mm 0.00 in0.0 mm
05:39 AM 34.2°F1.2°C 30.2°F-1.0°C 85% 17.0 mph SSW27.4 kmh SSW 29.0 mph46.7 kmh 29.78 in1008.5 mb 0.00 in0.0 mm 0.00 in0.0 mm 0.00 in0.0 mm
05:38 AM 34.3°F1.3°C 30.0°F-1.1°C 84% 12.0 mph SSW19.3 kmh SSW 18.0 mph29.0 kmh 29.78 in1008.5 mb 0.00 in0.0 mm 0.00 in0.0 mm 0.00 in0.0 mm
05:37 AM 34.4°F1.3°C 30.1°F-1.1°C 84% 12.0 mph SSW19.3 kmh SSW 19.0 mph30.6 kmh 29.77 in1008.1 mb 0.00 in0.0 mm 0.00 in0.0 mm 0.00 in0.0 mm
05:36 AM 34.5°F1.4°C 29.9°F-1.2°C 83% 14.0 mph SW22.5 kmh SW 23.0 mph37.0 kmh 29.78 in1008.5 mb 0.00 in0.0 mm 0.00 in0.0 mm 0.00 in0.0 mm
05:35 AM 34.6°F1.4°C 30.0°F-1.1°C 83% 13.0 mph SW20.9 kmh SW 20.0 mph32.2 kmh 29.77 in1008.1 mb 0.00 in0.0 mm 0.00 in0.0 mm 0.00 in0.0 mm
05:34 AM 34.8°F1.6°C 29.9°F-1.2°C 82% 13.0 mph SSW20.9 kmh SSW 23.0 mph37.0 kmh 29.77 in1008.1 mb 0.00 in0.0 mm 0.00 in0.0 mm 0.00 in0.0 mm
05:33 AM 35.0°F1.7°C 29.8°F-1.2°C 81% 18.0 mph SSW29.0 kmh SSW 35.0 mph56.3 kmh 29.77 in1008.1 mb 0.00 in0.0 mm 0.00 in0.0 mm 0.00 in0.0 mm
05:32 AM 35.1°F1.7°C 29.6°F-1.3°C 80% 25.0 mph SSW40.2 kmh SSW 35.0 mph56.3 kmh 29.77 in1008.1 mb 0.00 in0.0 mm 0.00 in0.0 mm 0.00 in0.0 mm
05:31 AM 35.3°F1.8°C 29.5°F-1.4°C 79% 19.0 mph SSW30.6 kmh SSW 31.0 mph49.9 kmh 29.77 in1008.1 mb 0.00 in0.0 mm 0.00 in0.0 mm 0.00 in0.0 mm
05:30 AM 35.4°F1.9°C 29.5°F-1.4°C 79% 16.0 mph SSW25.7 kmh SSW 29.0 mph46.7 kmh 29.77 in1008.1 mb 0.00 in0.0 mm 0.00 in0.0 mm 0.00 in0.0 mm
05:29 AM 35.5°F1.9°C 29.3°F-1.5°C 78% 16.0 mph SSW25.7 kmh SSW 24.0 mph38.6 kmh 29.77 in1008.1 mb 0.00 in0.0 mm 0.00 in0.0 mm 0.00 in0.0 mm
05:28 AM 35.7°F2.1°C 29.2°F-1.6°C 77% 18.0 mph SSW29.0 kmh SSW 24.0 mph38.6 kmh 29.77 in1008.1 mb 0.00 in0.0 mm 0.00 in0.0 mm 0.00 in0.0 mm
05:27 AM 35.9°F2.2°C 29.1°F-1.6°C 76% 12.0 mph SW19.3 kmh SW 21.0 mph33.8 kmh 29.77 in1008.1 mb 0.00 in0.0 mm 0.00 in0.0 mm 0.00 in0.0 mm
05:26 AM 36.0°F2.2°C 28.9°F-1.7°C 75% 14.0 mph SW22.5 kmh SW 23.0 mph37.0 kmh 29.77 in1008.1 mb 0.00 in0.0 mm 0.00 in0.0 mm 0.00 in0.0 mm
05:25 AM 36.1°F2.3°C 28.6°F-1.9°C 74% 13.0 mph SW20.9 kmh SW 18.0 mph29.0 kmh 29.77 in1008.1 mb 0.00 in0.0 mm 0.00 in0.0 mm 0.00 in0.0 mm
05:24 AM 36.2°F2.3°C 28.7°F-1.8°C 74% 14.0 mph S22.5 kmh S 22.0 mph35.4 kmh 29.78 in1008.5 mb 0.00 in0.0 mm 0.00 in0.0 mm 0.00 in0.0 mm
05:23 AM 36.3°F2.4°C 28.5°F-1.9°C 73% 9.0 mph SW14.5 kmh SW 13.0 mph20.9 kmh 29.77 in1008.1 mb 0.00 in0.0 mm 0.00 in0.0 mm 0.00 in0.0 mm
05:22 AM 36.4°F2.4°C 28.6°F-1.9°C 73% 17.0 mph SSW27.4 kmh SSW 22.0 mph35.4 kmh 29.77 in1008.1 mb 0.00 in0.0 mm 0.00 in0.0 mm 0.00 in0.0 mm
05:21 AM 36.4°F2.4°C 28.6°F-1.9°C 73% 17.0 mph SSW27.4 kmh SSW 25.0 mph40.2 kmh 29.77 in1008.1 mb 0.00 in0.0 mm 0.00 in0.0 mm 0.00 in0.0 mm
05:20 AM 36.4°F2.4°C 28.6°F-1.9°C 73% 18.0 mph SSW29.0 kmh SSW 24.0 mph38.6 kmh 29.77 in1008.1 mb 0.00 in0.0 mm 0.00 in0.0 mm 0.00 in0.0 mm
05:19 AM 36.4°F2.4°C 28.2°F-2.1°C 72% 12.0 mph SSW19.3 kmh SSW 16.0 mph25.7 kmh 29.77 in1008.1 mb 0.00 in0.0 mm 0.00 in0.0 mm 0.00 in0.0 mm
05:18 AM 36.4°F2.4°C 28.2°F-2.1°C 72% 15.0 mph SSW24.1 kmh SSW 23.0 mph37.0 kmh 29.77 in1008.1 mb 0.00 in0.0 mm 0.00 in0.0 mm 0.00 in0.0 mm
05:17 AM 36.5°F2.5°C 28.3°F-2.1°C 72% 19.0 mph SSW30.6 kmh SSW 25.0 mph40.2 kmh 29.77 in1008.1 mb 0.00 in0.0 mm 0.00 in0.0 mm 0.00 in0.0 mm
05:16 AM 36.6°F2.6°C 28.1°F-2.2°C 71% 14.0 mph SSW22.5 kmh SSW 23.0 mph37.0 kmh 29.78 in1008.5 mb 0.00 in0.0 mm 0.00 in0.0 mm 0.00 in0.0 mm
05:15 AM 36.6°F2.6°C 28.1°F-2.2°C 71% 13.0 mph SSW20.9 kmh SSW 19.0 mph30.6 kmh 29.78 in1008.5 mb 0.00 in0.0 mm 0.00 in0.0 mm 0.00 in0.0 mm
05:14 AM 36.8°F2.7°C 27.9°F-2.3°C 70% 14.0 mph SSW22.5 kmh SSW 18.0 mph29.0 kmh 29.78 in1008.5 mb 0.00 in0.0 mm 0.00 in0.0 mm 0.00 in0.0 mm
05:13 AM 36.9°F2.7°C 28.0°F-2.2°C 70% 16.0 mph SSW25.7 kmh SSW 23.0 mph37.0 kmh 29.78 in1008.5 mb 0.00 in0.0 mm 0.00 in0.0 mm 0.00 in0.0 mm
05:12 AM 36.9°F2.7°C 28.0°F-2.2°C 70% 12.0 mph SW19.3 kmh SW 18.0 mph29.0 kmh 29.77 in1008.1 mb 0.00 in0.0 mm 0.00 in0.0 mm 0.00 in0.0 mm
05:11 AM 37.0°F2.8°C 27.8°F-2.3°C 69% 17.0 mph SSW27.4 kmh SSW 22.0 mph35.4 kmh 29.78 in1008.5 mb 0.00 in0.0 mm 0.00 in0.0 mm 0.00 in0.0 mm
05:10 AM 37.1°F2.8°C 27.5°F-2.5°C 68% 18.0 mph SSW29.0 kmh SSW 23.0 mph37.0 kmh 29.77 in1008.1 mb 0.00 in0.0 mm 0.00 in0.0 mm 0.00 in0.0 mm
05:09 AM 37.3°F2.9°C 27.7°F-2.4°C 68% 17.0 mph SSW27.4 kmh SSW 21.0 mph33.8 kmh 29.78 in1008.5 mb 0.00 in0.0 mm 0.00 in0.0 mm 0.00 in0.0 mm
05:08 AM 37.5°F3.1°C 27.6°F-2.4°C 67% 16.0 mph SSW25.7 kmh SSW 23.0 mph37.0 kmh 29.78 in1008.5 mb 0.00 in0.0 mm 0.00 in0.0 mm 0.00 in0.0 mm
05:07 AM 37.6°F3.1°C 27.7°F-2.4°C 67% 20.0 mph SSW32.2 kmh SSW 24.0 mph38.6 kmh 29.78 in1008.5 mb 0.00 in0.0 mm 0.00 in0.0 mm 0.00 in0.0 mm
05:06 AM 37.8°F3.2°C 27.5°F-2.5°C 66% 15.0 mph SSW24.1 kmh SSW 24.0 mph38.6 kmh 29.78 in1008.5 mb 0.00 in0.0 mm 0.00 in0.0 mm 0.00 in0.0 mm
05:05 AM 37.9°F3.3°C 27.2°F-2.7°C 65% 12.0 mph SW19.3 kmh SW 20.0 mph32.2 kmh 29.78 in1008.5 mb 0.00 in0.0 mm 0.00 in0.0 mm 0.00 in0.0 mm
05:04 AM 38.0°F3.3°C 27.3°F-2.6°C 65% 16.0 mph SSW25.7 kmh SSW 20.0 mph32.2 kmh 29.78 in1008.5 mb 0.00 in0.0 mm 0.00 in0.0 mm 0.00 in0.0 mm
05:03 AM 38.0°F3.3°C 27.3°F-2.6°C 65% 17.0 mph SSW27.4 kmh SSW 27.0 mph43.5 kmh 29.78 in1008.5 mb 0.00 in0.0 mm 0.00 in0.0 mm 0.00 in0.0 mm
05:02 AM 38.0°F3.3°C 26.9°F-2.8°C 64% 20.0 mph SSW32.2 kmh SSW 25.0 mph40.2 kmh 29.78 in1008.5 mb 0.00 in0.0 mm 0.00 in0.0 mm 0.00 in0.0 mm
05:01 AM 38.1°F3.4°C 27.4°F-2.6°C 65% 15.0 mph SSW24.1 kmh SSW 21.0 mph33.8 kmh 29.78 in1008.5 mb 0.00 in0.0 mm 0.00 in0.0 mm 0.00 in0.0 mm
05:00 AM 38.2°F3.4°C 27.1°F-2.7°C 64% 18.0 mph SSW29.0 kmh SSW 30.0 mph48.3 kmh 29.78 in1008.5 mb 0.00 in0.0 mm 0.00 in0.0 mm 0.00 in0.0 mm
04:59 AM 38.2°F3.4°C 27.1°F-2.7°C 64% 15.0 mph SSW24.1 kmh SSW 20.0 mph32.2 kmh 29.78 in1008.5 mb 0.00 in0.0 mm 0.00 in0.0 mm 0.00 in0.0 mm
04:58 AM 38.3°F3.5°C 26.8°F-2.9°C 63% 20.0 mph SSW32.2 kmh SSW 27.0 mph43.5 kmh 29.78 in1008.5 mb 0.00 in0.0 mm 0.00 in0.0 mm 0.00 in0.0 mm
04:57 AM 38.4°F3.6°C 26.9°F-2.8°C 63% 21.0 mph SSW33.8 kmh SSW 33.0 mph53.1 kmh 29.78 in1008.5 mb 0.00 in0.0 mm 0.00 in0.0 mm 0.00 in0.0 mm
04:56 AM 38.5°F3.6°C 27.0°F-2.8°C 63% 22.0 mph SSW35.4 kmh SSW 31.0 mph49.9 kmh 29.78 in1008.5 mb 0.00 in0.0 mm 0.00 in0.0 mm 0.00 in0.0 mm
04:55 AM 38.6°F3.7°C 26.7°F-2.9°C 62% 16.0 mph SSW25.7 kmh SSW 25.0 mph40.2 kmh 29.78 in1008.5 mb 0.00 in0.0 mm 0.00 in0.0 mm 0.00 in0.0 mm
04:54 AM 38.7°F3.7°C 26.8°F-2.9°C 62% 21.0 mph SSW33.8 kmh SSW 33.0 mph53.1 kmh 29.78 in1008.5 mb 0.00 in0.0 mm 0.00 in0.0 mm 0.00 in0.0 mm
04:53 AM 38.9°F3.8°C 26.6°F-3.0°C 61% 20.0 mph SSW32.2 kmh SSW 27.0 mph43.5 kmh 29.78 in1008.5 mb 0.00 in0.0 mm 0.00 in0.0 mm 0.00 in0.0 mm
04:52 AM 39.0°F3.9°C 26.3°F-3.2°C 60% 21.0 mph SSW33.8 kmh SSW 30.0 mph48.3 kmh 29.78 in1008.5 mb 0.00 in0.0 mm 0.00 in0.0 mm 0.00 in0.0 mm
04:51 AM 39.0°F3.9°C 26.3°F-3.2°C 60% 19.0 mph SSW30.6 kmh SSW 30.0 mph48.3 kmh 29.78 in1008.5 mb 0.00 in0.0 mm 0.00 in0.0 mm 0.00 in0.0 mm
04:50 AM 39.1°F3.9°C 26.0°F-3.3°C 59% 21.0 mph SSW33.8 kmh SSW 32.0 mph51.5 kmh 29.78 in1008.5 mb 0.00 in0.0 mm 0.00 in0.0 mm 0.00 in0.0 mm
04:49 AM 39.1°F3.9°C 26.0°F-3.3°C 59% 25.0 mph SSW40.2 kmh SSW 41.0 mph66.0 kmh 29.78 in1008.5 mb 0.00 in0.0 mm 0.00 in0.0 mm 0.00 in0.0 mm
04:48 AM 39.1°F3.9°C 26.0°F-3.3°C 59% 22.0 mph SSW35.4 kmh SSW 36.0 mph57.9 kmh 29.79 in1008.8 mb 0.00 in0.0 mm 0.00 in0.0 mm 0.00 in0.0 mm
04:47 AM 39.1°F3.9°C 26.0°F-3.3°C 59% 16.0 mph SW25.7 kmh SW 22.0 mph35.4 kmh 29.79 in1008.8 mb 0.00 in0.0 mm 0.00 in0.0 mm 0.00 in0.0 mm
04:46 AM 39.2°F4.0°C 26.1°F-3.3°C 59% 18.0 mph SSW29.0 kmh SSW 25.0 mph40.2 kmh 29.79 in1008.8 mb 0.00 in0.0 mm 0.00 in0.0 mm 0.00 in0.0 mm
04:45 AM 39.2°F4.0°C 25.7°F-3.5°C 58% 16.0 mph SW25.7 kmh SW 23.0 mph37.0 kmh 29.79 in1008.8 mb 0.00 in0.0 mm 0.00 in0.0 mm 0.00 in0.0 mm
04:44 AM 39.1°F3.9°C 25.6°F-3.6°C 58% 23.0 mph SSW37.0 kmh SSW 31.0 mph49.9 kmh 29.78 in1008.5 mb 0.00 in0.0 mm 0.00 in0.0 mm 0.00 in0.0 mm
04:43 AM 39.2°F4.0°C 25.7°F-3.5°C 58% 22.0 mph SW35.4 kmh SW 27.0 mph43.5 kmh 29.79 in1008.8 mb 0.00 in0.0 mm 0.00 in0.0 mm 0.00 in0.0 mm
04:42 AM 39.1°F3.9°C 25.6°F-3.6°C 58% 19.0 mph SSW30.6 kmh SSW 31.0 mph49.9 kmh 29.79 in1008.8 mb 0.00 in0.0 mm 0.00 in0.0 mm 0.00 in0.0 mm
04:41 AM 39.3°F4.1°C 25.8°F-3.4°C 58% 15.0 mph SSW24.1 kmh SSW 25.0 mph40.2 kmh 29.79 in1008.8 mb 0.00 in0.0 mm 0.00 in0.0 mm 0.00 in0.0 mm
04:40 AM 39.3°F4.1°C 25.8°F-3.4°C 58% 19.0 mph SW30.6 kmh SW 34.0 mph54.7 kmh 29.79 in1008.8 mb 0.00 in0.0 mm 0.00 in0.0 mm 0.00 in0.0 mm
04:39 AM 39.4°F4.1°C 25.9°F-3.4°C 58% 19.0 mph SW30.6 kmh SW 25.0 mph40.2 kmh 29.79 in1008.8 mb 0.00 in0.0 mm 0.00 in0.0 mm 0.00 in0.0 mm
04:38 AM 39.5°F4.2°C 25.5°F-3.6°C 57% 21.0 mph SW33.8 kmh SW 44.0 mph70.8 kmh 29.79 in1008.8 mb 0.00 in0.0 mm 0.00 in0.0 mm 0.00 in0.0 mm
04:37 AM 39.7°F4.3°C 25.7°F-3.5°C 57% 21.0 mph SW33.8 kmh SW 43.0 mph69.2 kmh 29.79 in1008.8 mb 0.00 in0.0 mm 0.00 in0.0 mm 0.00 in0.0 mm
04:36 AM 39.7°F4.3°C 25.3°F-3.7°C 56% 19.0 mph SSW30.6 kmh SSW 29.0 mph46.7 kmh 29.79 in1008.8 mb 0.00 in0.0 mm 0.00 in0.0 mm 0.00 in0.0 mm
04:35 AM 39.9°F4.4°C 25.1°F-3.8°C 55% 18.0 mph SW29.0 kmh SW 27.0 mph43.5 kmh 29.79 in1008.8 mb 0.00 in0.0 mm 0.00 in0.0 mm 0.00 in0.0 mm
04:34 AM 40.0°F4.4°C 25.2°F-3.8°C 55% 18.0 mph SW29.0 kmh SW 24.0 mph38.6 kmh 29.79 in1008.8 mb 0.00 in0.0 mm 0.00 in0.0 mm 0.00 in0.0 mm
04:33 AM 40.0°F4.4°C 24.7°F-4.1°C 54% 18.0 mph SSW29.0 kmh SSW 26.0 mph41.8 kmh 29.79 in1008.8 mb 0.00 in0.0 mm 0.00 in0.0 mm 0.00 in0.0 mm
04:32 AM 40.1°F4.5°C 24.8°F-4.0°C 54% 18.0 mph SSW29.0 kmh SSW 24.0 mph38.6 kmh 29.79 in1008.8 mb 0.00 in0.0 mm 0.00 in0.0 mm 0.00 in0.0 mm
04:31 AM 40.0°F4.4°C 24.7°F-4.1°C 54% 20.0 mph SSW32.2 kmh SSW 30.0 mph48.3 kmh 29.79 in1008.8 mb 0.00 in0.0 mm 0.00 in0.0 mm 0.00 in0.0 mm
04:30 AM 40.0°F4.4°C 24.7°F-4.1°C 54% 19.0 mph SW30.6 kmh SW 30.0 mph48.3 kmh 29.79 in1008.8 mb 0.00 in0.0 mm 0.00 in0.0 mm 0.00 in0.0 mm
04:29 AM 40.1°F4.5°C 24.8°F-4.0°C 54% 12.0 mph SW19.3 kmh SW 20.0 mph32.2 kmh 29.79 in1008.8 mb 0.00 in0.0 mm 0.00 in0.0 mm 0.00 in0.0 mm
04:28 AM 40.1°F4.5°C 24.8°F-4.0°C 54% 12.0 mph SW19.3 kmh SW 16.0 mph25.7 kmh 29.79 in1008.8 mb 0.00 in0.0 mm 0.00 in0.0 mm 0.00 in0.0 mm
04:27 AM 40.1°F4.5°C 24.8°F-4.0°C 54% 14.0 mph SW22.5 kmh SW 21.0 mph33.8 kmh 29.79 in1008.8 mb 0.00 in0.0 mm 0.00 in0.0 mm 0.00 in0.0 mm
04:26 AM 40.2°F4.6°C 24.9°F-3.9°C 54% 20.0 mph SW32.2 kmh SW 28.0 mph45.1 kmh 29.78 in1008.5 mb 0.00 in0.0 mm 0.00 in0.0 mm 0.00 in0.0 mm
04:25 AM 40.2°F4.6°C 24.9°F-3.9°C 54% 17.0 mph WSW27.4 kmh WSW 24.0 mph38.6 kmh 29.79 in1008.8 mb 0.00 in0.0 mm 0.00 in0.0 mm 0.00 in0.0 mm
04:24 AM 40.3°F4.6°C 24.5°F-4.2°C 53% 16.0 mph WSW25.7 kmh WSW 22.0 mph35.4 kmh 29.79 in1008.8 mb 0.00 in0.0 mm 0.00 in0.0 mm 0.00 in0.0 mm
04:23 AM 40.5°F4.7°C 24.7°F-4.1°C 53% 18.0 mph WSW29.0 kmh WSW 28.0 mph45.1 kmh 29.79 in1008.8 mb 0.00 in0.0 mm 0.00 in0.0 mm 0.00 in0.0 mm
04:22 AM 40.5°F4.7°C 24.3°F-4.3°C 52% 17.0 mph WSW27.4 kmh WSW 24.0 mph38.6 kmh 29.79 in1008.8 mb 0.00 in0.0 mm 0.00 in0.0 mm 0.00 in0.0 mm
04:21 AM 40.6°F4.8°C 24.4°F-4.2°C 52% 17.0 mph WSW27.4 kmh WSW 26.0 mph41.8 kmh 29.78 in1008.5 mb 0.00 in0.0 mm 0.00 in0.0 mm 0.00 in0.0 mm
04:20 AM 40.7°F4.8°C 24.0°F-4.4°C 51% 16.0 mph WSW25.7 kmh WSW 22.0 mph35.4 kmh 29.79 in1008.8 mb 0.00 in0.0 mm 0.00 in0.0 mm 0.00 in0.0 mm
04:19 AM 40.8°F4.9°C 24.1°F-4.4°C 51% 17.0 mph SW27.4 kmh SW 22.0 mph35.4 kmh 29.79 in1008.8 mb 0.00 in0.0 mm 0.00 in0.0 mm 0.00 in0.0 mm
04:18 AM 41.0°F5.0°C 23.8°F-4.6°C 50% 15.0 mph WSW24.1 kmh WSW 24.0 mph38.6 kmh 29.78 in1008.5 mb 0.00 in0.0 mm 0.00 in0.0 mm 0.00 in0.0 mm
04:17 AM 41.0°F5.0°C 23.8°F-4.6°C 50% 14.0 mph SSW22.5 kmh SSW 20.0 mph32.2 kmh 29.78 in1008.5 mb 0.00 in0.0 mm 0.00 in0.0 mm 0.00 in0.0 mm
04:16 AM 41.1°F5.1°C 23.4°F-4.8°C 49% 20.0 mph SW32.2 kmh SW 25.0 mph40.2 kmh 29.78 in1008.5 mb 0.00 in0.0 mm 0.00 in0.0 mm 0.00 in0.0 mm
04:15 AM 41.1°F5.1°C 23.4°F-4.8°C 49% 17.0 mph WSW27.4 kmh WSW 28.0 mph45.1 kmh 29.78 in1008.5 mb 0.00 in0.0 mm 0.00 in0.0 mm 0.00 in0.0 mm
04:14 AM 41.2°F5.1°C 23.5°F-4.7°C 49% 13.0 mph WSW20.9 kmh WSW 20.0 mph32.2 kmh 29.78 in1008.5 mb 0.00 in0.0 mm 0.00 in0.0 mm 0.00 in0.0 mm
04:13 AM 41.2°F5.1°C 23.0°F-5.0°C 48% 16.0 mph WSW25.7 kmh WSW 27.0 mph43.5 kmh 29.78 in1008.5 mb 0.00 in0.0 mm 0.00 in0.0 mm 0.00 in0.0 mm
04:12 AM 41.2°F5.1°C 23.0°F-5.0°C 48% 22.0 mph WSW35.4 kmh WSW 31.0 mph49.9 kmh 29.78 in1008.5 mb 0.00 in0.0 mm 0.00 in0.0 mm 0.00 in0.0 mm
04:11 AM 41.1°F5.1°C 23.4°F-4.8°C 49% 15.0 mph SW24.1 kmh SW 25.0 mph40.2 kmh 29.78 in1008.5 mb 0.00 in0.0 mm 0.00 in0.0 mm 0.00 in0.0 mm
04:10 AM 41.0°F5.0°C 23.3°F-4.8°C 49% 13.0 mph SW20.9 kmh SW 19.0 mph30.6 kmh 29.78 in1008.5 mb 0.00 in0.0 mm 0.00 in0.0 mm 0.00 in0.0 mm
04:09 AM 41.1°F5.1°C 23.4°F-4.8°C 49% 10.0 mph SW16.1 kmh SW 18.0 mph29.0 kmh 29.78 in1008.5 mb 0.00 in0.0 mm 0.00 in0.0 mm 0.00 in0.0 mm
04:08 AM 41.1°F5.1°C 23.4°F-4.8°C 49% 12.0 mph SSW19.3 kmh SSW 17.0 mph27.4 kmh 29.78 in1008.5 mb 0.00 in0.0 mm 0.00 in0.0 mm 0.00 in0.0 mm
04:07 AM 41.2°F5.1°C 23.5°F-4.7°C 49% 9.0 mph SW14.5 kmh SW 14.0 mph22.5 kmh 29.78 in1008.5 mb 0.00 in0.0 mm 0.00 in0.0 mm 0.00 in0.0 mm
04:06 AM 41.3°F5.2°C 23.6°F-4.7°C 49% 11.0 mph SW17.7 kmh SW 15.0 mph24.1 kmh 29.78 in1008.5 mb 0.00 in0.0 mm 0.00 in0.0 mm 0.00 in0.0 mm
04:05 AM 41.5°F5.3°C 23.3°F-4.8°C 48% 10.0 mph SW16.1 kmh SW 15.0 mph24.1 kmh 29.78 in1008.5 mb 0.00 in0.0 mm 0.00 in0.0 mm 0.00 in0.0 mm
04:04 AM 41.5°F5.3°C 23.3°F-4.8°C 48% 15.0 mph SW24.1 kmh SW 20.0 mph32.2 kmh 29.78 in1008.5 mb 0.00 in0.0 mm 0.00 in0.0 mm 0.00 in0.0 mm
04:03 AM 41.5°F5.3°C 23.3°F-4.8°C 48% 14.0 mph SSW22.5 kmh SSW 19.0 mph30.6 kmh 29.77 in1008.1 mb 0.00 in0.0 mm 0.00 in0.0 mm 0.00 in0.0 mm
04:02 AM 41.5°F5.3°C 23.3°F-4.8°C 48% 17.0 mph SW27.4 kmh SW 30.0 mph48.3 kmh 29.77 in1008.1 mb 0.00 in0.0 mm 0.00 in0.0 mm 0.00 in0.0 mm
04:01 AM 41.6°F5.3°C 23.4°F-4.8°C 48% 12.0 mph SW19.3 kmh SW 19.0 mph30.6 kmh 29.78 in1008.5 mb 0.00 in0.0 mm 0.00 in0.0 mm 0.00 in0.0 mm
04:00 AM 41.6°F5.3°C 22.9°F-5.1°C 47% 15.0 mph SSW24.1 kmh SSW 25.0 mph40.2 kmh 29.78 in1008.5 mb 0.00 in0.0 mm 0.00 in0.0 mm 0.00 in0.0 mm
03:59 AM 41.6°F5.3°C 23.4°F-4.8°C 48% 17.0 mph SW27.4 kmh SW 28.0 mph45.1 kmh 29.78 in1008.5 mb 0.00 in0.0 mm 0.00 in0.0 mm 0.00 in0.0 mm
03:58 AM 41.7°F5.4°C 23.5°F-4.7°C 48% 12.0 mph SW19.3 kmh SW 22.0 mph35.4 kmh 29.78 in1008.5 mb 0.00 in0.0 mm 0.00 in0.0 mm 0.00 in0.0 mm
03:57 AM 41.8°F5.4°C 23.6°F-4.7°C 48% 14.0 mph SW22.5 kmh SW 23.0 mph37.0 kmh 29.78 in1008.5 mb 0.00 in0.0 mm 0.00 in0.0 mm 0.00 in0.0 mm
03:56 AM 41.8°F5.4°C 23.6°F-4.7°C 48% 18.0 mph SSW29.0 kmh SSW 30.0 mph48.3 kmh 29.78 in1008.5 mb 0.00 in0.0 mm 0.00 in0.0 mm 0.00 in0.0 mm
03:55 AM 41.6°F5.3°C 23.4°F-4.8°C 48% 22.0 mph SSW35.4 kmh SSW 33.0 mph53.1 kmh 29.78 in1008.5 mb 0.00 in0.0 mm 0.00 in0.0 mm 0.00 in0.0 mm
03:54 AM 41.4°F5.2°C 23.7°F-4.6°C 49% 22.0 mph SSW35.4 kmh SSW 30.0 mph48.3 kmh 29.78 in1008.5 mb 0.00 in0.0 mm 0.00 in0.0 mm 0.00 in0.0 mm
03:53 AM 41.3°F5.2°C 24.1°F-4.4°C 50% 17.0 mph SW27.4 kmh SW 27.0 mph43.5 kmh 29.78 in1008.5 mb 0.00 in0.0 mm 0.00 in0.0 mm 0.00 in0.0 mm
03:52 AM 41.3°F5.2°C 24.1°F-4.4°C 50% 12.0 mph SW19.3 kmh SW 20.0 mph32.2 kmh 29.78 in1008.5 mb 0.00 in0.0 mm 0.00 in0.0 mm 0.00 in0.0 mm
03:51 AM 41.3°F5.2°C 23.6°F-4.7°C 49% 15.0 mph SW24.1 kmh SW 22.0 mph35.4 kmh 29.78 in1008.5 mb 0.00 in0.0 mm 0.00 in0.0 mm 0.00 in0.0 mm
03:50 AM 41.3°F5.2°C 24.1°F-4.4°C 50% 14.0 mph SW22.5 kmh SW 25.0 mph40.2 kmh 29.78 in1008.5 mb 0.00 in0.0 mm 0.00 in0.0 mm 0.00 in0.0 mm
03:49 AM 41.3°F5.2°C 24.1°F-4.4°C 50% 14.0 mph SSW22.5 kmh SSW 19.0 mph30.6 kmh 29.78 in1008.5 mb 0.00 in0.0 mm 0.00 in0.0 mm 0.00 in0.0 mm
03:48 AM 41.3°F5.2°C 24.6°F-4.1°C 51% 15.0 mph SW24.1 kmh SW 33.0 mph53.1 kmh 29.79 in1008.8 mb 0.00 in0.0 mm 0.00 in0.0 mm 0.00 in0.0 mm
03:47 AM 41.3°F5.2°C 24.1°F-4.4°C 50% 19.0 mph SW30.6 kmh SW 31.0 mph49.9 kmh 29.78 in1008.5 mb 0.00 in0.0 mm 0.00 in0.0 mm 0.00 in0.0 mm
03:46 AM 41.2°F5.1°C 24.0°F-4.4°C 50% 19.0 mph SSW30.6 kmh SSW 35.0 mph56.3 kmh 29.78 in1008.5 mb 0.00 in0.0 mm 0.00 in0.0 mm 0.00 in0.0 mm
03:45 AM 41.3°F5.2°C 24.6°F-4.1°C 51% 13.0 mph SSW20.9 kmh SSW 24.0 mph38.6 kmh 29.79 in1008.8 mb 0.00 in0.0 mm 0.00 in0.0 mm 0.00 in0.0 mm
03:44 AM 41.5°F5.3°C 24.3°F-4.3°C 50% 13.0 mph SSW20.9 kmh SSW 21.0 mph33.8 kmh 29.78 in1008.5 mb 0.00 in0.0 mm 0.00 in0.0 mm 0.00 in0.0 mm
03:43 AM 41.5°F5.3°C 23.8°F-4.6°C 49% 16.0 mph SW25.7 kmh SW 26.0 mph41.8 kmh 29.78 in1008.5 mb 0.00 in0.0 mm 0.00 in0.0 mm 0.00 in0.0 mm
03:42 AM 41.5°F5.3°C 23.8°F-4.6°C 49% 14.0 mph SSW22.5 kmh SSW 21.0 mph33.8 kmh 29.79 in1008.8 mb 0.00 in0.0 mm 0.00 in0.0 mm 0.00 in0.0 mm
03:41 AM 41.5°F5.3°C 23.8°F-4.6°C 49% 18.0 mph SSW29.0 kmh SSW 29.0 mph46.7 kmh 29.79 in1008.8 mb 0.00 in0.0 mm 0.00 in0.0 mm 0.00 in0.0 mm
03:40 AM 41.3°F5.2°C 23.6°F-4.7°C 49% 14.0 mph SW22.5 kmh SW 24.0 mph38.6 kmh 29.78 in1008.5 mb 0.00 in0.0 mm 0.00 in0.0 mm 0.00 in0.0 mm
03:39 AM 41.1°F5.1°C 23.9°F-4.5°C 50% 18.0 mph SW29.0 kmh SW 28.0 mph45.1 kmh 29.79 in1008.8 mb 0.00 in0.0 mm 0.00 in0.0 mm 0.00 in0.0 mm
03:38 AM 40.8°F4.9°C 24.1°F-4.4°C 51% 15.0 mph SW24.1 kmh SW 24.0 mph38.6 kmh 29.79 in1008.8 mb 0.00 in0.0 mm 0.00 in0.0 mm 0.00 in0.0 mm
03:37 AM 40.6°F4.8°C 24.4°F-4.2°C 52% 14.0 mph SW22.5 kmh SW 22.0 mph35.4 kmh 29.78 in1008.5 mb 0.00 in0.0 mm 0.00 in0.0 mm 0.00 in0.0 mm
03:36 AM 40.4°F4.7°C 23.7°F-4.6°C 51% 14.0 mph SSW22.5 kmh SSW 22.0 mph35.4 kmh 29.78 in1008.5 mb 0.00 in0.0 mm 0.00 in0.0 mm 0.00 in0.0 mm
03:35 AM 40.3°F4.6°C 24.1°F-4.4°C 52% 15.0 mph SW24.1 kmh SW 20.0 mph32.2 kmh 29.79 in1008.8 mb 0.00 in0.0 mm 0.00 in0.0 mm 0.00 in0.0 mm
03:34 AM 40.2°F4.6°C 24.0°F-4.4°C 52% 17.0 mph SSW27.4 kmh SSW 24.0 mph38.6 kmh 29.79 in1008.8 mb 0.00 in0.0 mm 0.00 in0.0 mm 0.00 in0.0 mm
03:33 AM 40.0°F4.4°C 24.3°F-4.3°C 53% 9.0 mph SSW14.5 kmh SSW 13.0 mph20.9 kmh 29.79 in1008.8 mb 0.00 in0.0 mm 0.00 in0.0 mm 0.00 in0.0 mm
03:32 AM 40.1°F4.5°C 23.9°F-4.5°C 52% 13.0 mph SW20.9 kmh SW 23.0 mph37.0 kmh 29.79 in1008.8 mb 0.00 in0.0 mm 0.00 in0.0 mm 0.00 in0.0 mm
03:31 AM 40.0°F4.4°C 24.3°F-4.3°C 53% 8.0 mph SW12.9 kmh SW 12.0 mph19.3 kmh 29.78 in1008.5 mb 0.00 in0.0 mm 0.00 in0.0 mm 0.00 in0.0 mm
03:30 AM 40.0°F4.4°C 24.3°F-4.3°C 53% 10.0 mph SW16.1 kmh SW 15.0 mph24.1 kmh 29.78 in1008.5 mb 0.00 in0.0 mm 0.00 in0.0 mm 0.00 in0.0 mm
03:29 AM 40.0°F4.4°C 24.3°F-4.3°C 53% 7.0 mph WSW11.3 kmh WSW 11.0 mph17.7 kmh 29.78 in1008.5 mb 0.00 in0.0 mm 0.00 in0.0 mm 0.00 in0.0 mm
03:28 AM 40.1°F4.5°C 23.9°F-4.5°C 52% 7.0 mph SW11.3 kmh SW 13.0 mph20.9 kmh 29.79 in1008.8 mb 0.00 in0.0 mm 0.00 in0.0 mm 0.00 in0.0 mm
03:27 AM 40.1°F4.5°C 24.4°F-4.2°C 53% 8.0 mph WSW12.9 kmh WSW 12.0 mph19.3 kmh 29.78 in1008.5 mb 0.00 in0.0 mm 0.00 in0.0 mm 0.00 in0.0 mm
03:26 AM 40.1°F4.5°C 23.9°F-4.5°C 52% 9.0 mph WSW14.5 kmh WSW 12.0 mph19.3 kmh 29.79 in1008.8 mb 0.00 in0.0 mm 0.00 in0.0 mm 0.00 in0.0 mm
03:25 AM 40.1°F4.5°C 23.9°F-4.5°C 52% 8.0 mph WSW12.9 kmh WSW 11.0 mph17.7 kmh 29.78 in1008.5 mb 0.00 in0.0 mm 0.00 in0.0 mm 0.00 in0.0 mm
03:24 AM 40.2°F4.6°C 24.0°F-4.4°C 52% 9.0 mph WSW14.5 kmh WSW 12.0 mph19.3 kmh 29.78 in1008.5 mb 0.00 in0.0 mm 0.00 in0.0 mm 0.00 in0.0 mm
03:23 AM 40.1°F4.5°C 23.9°F-4.5°C 52% 8.0 mph WSW12.9 kmh WSW 10.0 mph16.1 kmh 29.78 in1008.5 mb 0.00 in0.0 mm 0.00 in0.0 mm 0.00 in0.0 mm
03:22 AM 40.2°F4.6°C 24.0°F-4.4°C 52% 6.0 mph WSW9.7 kmh WSW 8.0 mph12.9 kmh 29.78 in1008.5 mb 0.00 in0.0 mm 0.00 in0.0 mm 0.00 in0.0 mm
03:21 AM 40.2°F4.6°C 24.0°F-4.4°C 52% 7.0 mph WSW11.3 kmh WSW 10.0 mph16.1 kmh 29.78 in1008.5 mb 0.00 in0.0 mm 0.00 in0.0 mm 0.00 in0.0 mm
03:20 AM 40.3°F4.6°C 24.1°F-4.4°C 52% 8.0 mph WSW12.9 kmh WSW 10.0 mph16.1 kmh 29.78 in1008.5 mb 0.00 in0.0 mm 0.00 in0.0 mm 0.00 in0.0 mm
03:19 AM 40.3°F4.6°C 24.1°F-4.4°C 52% 7.0 mph WSW11.3 kmh WSW 11.0 mph17.7 kmh 29.78 in1008.5 mb 0.00 in0.0 mm 0.00 in0.0 mm 0.00 in0.0 mm
03:18 AM 40.3°F4.6°C 24.1°F-4.4°C 52% 8.0 mph WSW12.9 kmh WSW 11.0 mph17.7 kmh 29.78 in1008.5 mb 0.00 in0.0 mm 0.00 in0.0 mm 0.00 in0.0 mm
03:17 AM 40.3°F4.6°C 24.1°F-4.4°C 52% 9.0 mph WSW14.5 kmh WSW 14.0 mph22.5 kmh 29.78 in1008.5 mb 0.00 in0.0 mm 0.00 in0.0 mm 0.00 in0.0 mm
03:16 AM 40.3°F4.6°C 24.1°F-4.4°C 52% 7.0 mph WSW11.3 kmh WSW 11.0 mph17.7 kmh 29.78 in1008.5 mb 0.00 in0.0 mm 0.00 in0.0 mm 0.00 in0.0 mm
03:15 AM 40.4°F4.7°C 24.2°F-4.3°C 52% 10.0 mph WSW16.1 kmh WSW 12.0 mph19.3 kmh 29.79 in1008.8 mb 0.00 in0.0 mm 0.00 in0.0 mm 0.00 in0.0 mm
03:14 AM 40.4°F4.7°C 24.2°F-4.3°C 52% 8.0 mph WSW12.9 kmh WSW 11.0 mph17.7 kmh 29.78 in1008.5 mb 0.00 in0.0 mm 0.00 in0.0 mm 0.00 in0.0 mm
03:13 AM 40.5°F4.7°C 24.3°F-4.3°C 52% 9.0 mph WSW14.5 kmh WSW 13.0 mph20.9 kmh 29.79 in1008.8 mb 0.00 in0.0 mm 0.00 in0.0 mm 0.00 in0.0 mm
03:12 AM 40.4°F4.7°C 24.2°F-4.3°C 52% 9.0 mph WSW14.5 kmh WSW 12.0 mph19.3 kmh 29.79 in1008.8 mb 0.00 in0.0 mm 0.00 in0.0 mm 0.00 in0.0 mm
03:11 AM 40.4°F4.7°C 24.2°F-4.3°C 52% 9.0 mph WSW14.5 kmh WSW 12.0 mph19.3 kmh 29.78 in1008.5 mb 0.00 in0.0 mm 0.00 in0.0 mm 0.00 in0.0 mm
03:10 AM 40.4°F4.7°C 24.2°F-4.3°C 52% 6.0 mph SW9.7 kmh SW 8.0 mph12.9 kmh 29.78 in1008.5 mb 0.00 in0.0 mm 0.00 in0.0 mm 0.00 in0.0 mm
03:09 AM 40.4°F4.7°C 24.2°F-4.3°C 52% 8.0 mph WSW12.9 kmh WSW 12.0 mph19.3 kmh 29.78 in1008.5 mb 0.00 in0.0 mm 0.00 in0.0 mm 0.00 in0.0 mm
03:08 AM 40.2°F4.6°C 24.0°F-4.4°C 52% 10.0 mph WSW16.1 kmh WSW 16.0 mph25.7 kmh 29.78 in1008.5 mb 0.00 in0.0 mm 0.00 in0.0 mm 0.00 in0.0 mm
03:07 AM 40.2°F4.6°C 24.0°F-4.4°C 52% 8.0 mph WSW12.9 kmh WSW 13.0 mph20.9 kmh 29.78 in1008.5 mb 0.00 in0.0 mm 0.00 in0.0 mm 0.00 in0.0 mm
03:06 AM 40.1°F4.5°C 23.9°F-4.5°C 52% 8.0 mph WSW12.9 kmh WSW 11.0 mph17.7 kmh 29.79 in1008.8 mb 0.00 in0.0 mm 0.00 in0.0 mm 0.00 in0.0 mm
03:05 AM 40.2°F4.6°C 24.0°F-4.4°C 52% 7.0 mph WSW11.3 kmh WSW 10.0 mph16.1 kmh 29.78 in1008.5 mb 0.00 in0.0 mm 0.00 in0.0 mm 0.00 in0.0 mm
03:04 AM 40.3°F4.6°C 24.1°F-4.4°C 52% 5.0 mph WSW8.0 kmh WSW 7.0 mph11.3 kmh 29.79 in1008.8 mb 0.00 in0.0 mm 0.00 in0.0 mm 0.00 in0.0 mm
03:03 AM 40.3°F4.6°C 24.1°F-4.4°C 52% 7.0 mph WSW11.3 kmh WSW 10.0 mph16.1 kmh 29.79 in1008.8 mb 0.00 in0.0 mm 0.00 in0.0 mm 0.00 in0.0 mm
03:02 AM 40.4°F4.7°C 23.7°F-4.6°C 51% 7.0 mph WSW11.3 kmh WSW 9.0 mph14.5 kmh 29.78 in1008.5 mb 0.00 in0.0 mm 0.00 in0.0 mm 0.00 in0.0 mm
03:01 AM 40.4°F4.7°C 23.7°F-4.6°C 51% 7.0 mph WSW11.3 kmh WSW 9.0 mph14.5 kmh 29.79 in1008.8 mb 0.00 in0.0 mm 0.00 in0.0 mm 0.00 in0.0 mm
03:00 AM 40.4°F4.7°C 23.7°F-4.6°C 51% 8.0 mph WSW12.9 kmh WSW 13.0 mph20.9 kmh 29.79 in1008.8 mb 0.00 in0.0 mm 0.00 in0.0 mm 0.00 in0.0 mm
02:59 AM 40.4°F4.7°C 23.7°F-4.6°C 51% 8.0 mph SW12.9 kmh SW 11.0 mph17.7 kmh 29.79 in1008.8 mb 0.00 in0.0 mm 0.00 in0.0 mm 0.00 in0.0 mm
02:58 AM 40.5°F4.7°C 23.8°F-4.6°C 51% 6.0 mph WSW9.7 kmh WSW 10.0 mph16.1 kmh 29.79 in1008.8 mb 0.00 in0.0 mm 0.00 in0.0 mm 0.00 in0.0 mm
02:57 AM 40.5°F4.7°C 23.8°F-4.6°C 51% 7.0 mph WSW11.3 kmh WSW 11.0 mph17.7 kmh 29.79 in1008.8 mb 0.00 in0.0 mm 0.00 in0.0 mm 0.00 in0.0 mm
02:56 AM 40.5°F4.7°C 23.3°F-4.8°C 50% 7.0 mph SW11.3 kmh SW 10.0 mph16.1 kmh 29.79 in1008.8 mb 0.00 in0.0 mm 0.00 in0.0 mm 0.00 in0.0 mm
02:55 AM 40.5°F4.7°C 23.3°F-4.8°C 50% 6.0 mph SW9.7 kmh SW 11.0 mph17.7 kmh 29.78 in1008.5 mb 0.00 in0.0 mm 0.00 in0.0 mm 0.00 in0.0 mm
02:54 AM 40.5°F4.7°C 23.3°F-4.8°C 50% 7.0 mph WSW11.3 kmh WSW 9.0 mph14.5 kmh 29.79 in1008.8 mb 0.00 in0.0 mm 0.00 in0.0 mm 0.00 in0.0 mm
02:53 AM 40.5°F4.7°C 23.3°F-4.8°C 50% 7.0 mph WSW11.3 kmh WSW 11.0 mph17.7 kmh 29.79 in1008.8 mb 0.00 in0.0 mm 0.00 in0.0 mm 0.00 in0.0 mm
02:52 AM 40.5°F4.7°C 23.3°F-4.8°C 50% 8.0 mph WSW12.9 kmh WSW 12.0 mph19.3 kmh 29.79 in1008.8 mb 0.00 in0.0 mm 0.00 in0.0 mm 0.00 in0.0 mm
02:51 AM 40.4°F4.7°C 23.2°F-4.9°C 50% 4.0 mph WSW6.4 kmh WSW 6.0 mph9.7 kmh 29.79 in1008.8 mb 0.00 in0.0 mm 0.00 in0.0 mm 0.00 in0.0 mm
02:50 AM 40.4°F4.7°C 23.2°F-4.9°C 50% 4.0 mph WSW6.4 kmh WSW 5.0 mph8.0 kmh 29.78 in1008.5 mb 0.00 in0.0 mm 0.00 in0.0 mm 0.00 in0.0 mm
02:49 AM 40.5°F4.7°C 23.3°F-4.8°C 50% 4.0 mph WSW6.4 kmh WSW 7.0 mph11.3 kmh 29.78 in1008.5 mb 0.00 in0.0 mm 0.00 in0.0 mm 0.00 in0.0 mm
02:48 AM 40.5°F4.7°C 23.3°F-4.8°C 50% 4.0 mph WSW6.4 kmh WSW 5.0 mph8.0 kmh 29.78 in1008.5 mb 0.00 in0.0 mm 0.00 in0.0 mm 0.00 in0.0 mm
02:47 AM 40.6°F4.8°C 23.0°F-5.0°C 49% 4.0 mph WSW6.4 kmh WSW 5.0 mph8.0 kmh 29.78 in1008.5 mb 0.00 in0.0 mm 0.00 in0.0 mm 0.00 in0.0 mm
02:46 AM 40.7°F4.8°C 23.0°F-5.0°C 49% 5.0 mph WSW8.0 kmh WSW 7.0 mph11.3 kmh 29.78 in1008.5 mb 0.00 in0.0 mm 0.00 in0.0 mm 0.00 in0.0 mm
02:45 AM 40.8°F4.9°C 23.1°F-4.9°C 49% 4.0 mph WSW6.4 kmh WSW 5.0 mph8.0 kmh 29.78 in1008.5 mb 0.00 in0.0 mm 0.00 in0.0 mm 0.00 in0.0 mm
02:44 AM 41.0°F5.0°C 23.3°F-4.8°C 49% 3.0 mph WSW4.8 kmh WSW 5.0 mph8.0 kmh 29.78 in1008.5 mb 0.00 in0.0 mm 0.00 in0.0 mm 0.00 in0.0 mm
02:43 AM 41.0°F5.0°C 22.8°F-5.1°C 48% 5.0 mph SW8.0 kmh SW 7.0 mph11.3 kmh 29.78 in1008.5 mb 0.00 in0.0 mm 0.00 in0.0 mm 0.00 in0.0 mm
02:42 AM 41.1°F5.1°C 22.9°F-5.1°C 48% 5.0 mph SW8.0 kmh SW 9.0 mph14.5 kmh 29.78 in1008.5 mb 0.00 in0.0 mm 0.00 in0.0 mm 0.00 in0.0 mm
02:41 AM 41.1°F5.1°C 22.9°F-5.1°C 48% 8.0 mph WSW12.9 kmh WSW 12.0 mph19.3 kmh 29.78 in1008.5 mb 0.00 in0.0 mm 0.00 in0.0 mm 0.00 in0.0 mm
02:40 AM 41.1°F5.1°C 22.9°F-5.1°C 48% 9.0 mph WSW14.5 kmh WSW 13.0 mph20.9 kmh 29.78 in1008.5 mb 0.00 in0.0 mm 0.00 in0.0 mm 0.00 in0.0 mm
02:39 AM 41.1°F5.1°C 22.9°F-5.1°C 48% 9.0 mph WSW14.5 kmh WSW 12.0 mph19.3 kmh 29.78 in1008.5 mb 0.00 in0.0 mm 0.00 in0.0 mm 0.00 in0.0 mm
02:38 AM 41.2°F5.1°C 23.0°F-5.0°C 48% 10.0 mph WSW16.1 kmh WSW 12.0 mph19.3 kmh 29.77 in1008.1 mb 0.00 in0.0 mm 0.00 in0.0 mm 0.00 in0.0 mm
02:37 AM 41.2°F5.1°C 23.0°F-5.0°C 48% 11.0 mph WSW17.7 kmh WSW 14.0 mph22.5 kmh 29.78 in1008.5 mb 0.00 in0.0 mm 0.00 in0.0 mm 0.00 in0.0 mm
02:36 AM 41.4°F5.2°C 23.2°F-4.9°C 48% 8.0 mph W12.9 kmh W 10.0 mph16.1 kmh 29.77 in1008.1 mb 0.00 in0.0 mm 0.00 in0.0 mm 0.00 in0.0 mm
02:35 AM 41.5°F5.3°C 23.3°F-4.8°C 48% 8.0 mph W12.9 kmh W 10.0 mph16.1 kmh